<?xml version="1.0" encoding="UTF-8" standalone="no" ?>
<gpx xmlns="http://www.topografix.com/GPX/1/1" xmlns:xsi="http://www.w3.org/2001/XMLSchema-instance" xsi:schemaLocation="http://www.topografix.com/GPX/1/1 http://www.topografix.com/GPX/1/1/gpx.xsd" version="1.1" creator="VisuGPX - https://www.visugpx.com">
  <metadata>
    <name>Nocturne du 2021-09-17 21:52</name>
    <desc><![CDATA[Test des nouveaux éclairages.]]></desc>
  </metadata>
  <trk>
    <name><![CDATA[Parcours du 2021-09-17 21:52]]></name>
    <extensions>
      <line xmlns="http://www.topografix.com/GPX/gpx_style/0/2">
        <color>0000FF</color>
        <width>4</width>
      </line>
    </extensions>
    <trkseg>
      <trkpt lat="50.44946" lon="3.52655">
        <ele>30</ele>
        <time>2021-09-17T19:53:01.398Z</time>
      </trkpt>
      <trkpt lat="50.44936" lon="3.52661">
        <ele>30</ele>
        <time>2021-09-17T19:53:04.376Z</time>
      </trkpt>
      <trkpt lat="50.4492" lon="3.5267">
        <ele>30</ele>
        <time>2021-09-17T19:53:09.106Z</time>
      </trkpt>
      <trkpt lat="50.44915" lon="3.52673">
        <ele>30</ele>
        <time>2021-09-17T19:53:11.000Z</time>
      </trkpt>
      <trkpt lat="50.4491" lon="3.52677">
        <ele>30</ele>
        <time>2021-09-17T19:53:12.000Z</time>
      </trkpt>
      <trkpt lat="50.44905" lon="3.52681">
        <ele>30</ele>
        <time>2021-09-17T19:53:13.000Z</time>
      </trkpt>
      <trkpt lat="50.44896" lon="3.52687">
        <ele>30</ele>
        <time>2021-09-17T19:53:15.000Z</time>
      </trkpt>
      <trkpt lat="50.44891" lon="3.52691">
        <ele>30</ele>
        <time>2021-09-17T19:53:16.000Z</time>
      </trkpt>
      <trkpt lat="50.44887" lon="3.52695">
        <ele>29.9</ele>
        <time>2021-09-17T19:53:17.000Z</time>
      </trkpt>
      <trkpt lat="50.44879" lon="3.52701">
        <ele>29.7</ele>
        <time>2021-09-17T19:53:17.522Z</time>
      </trkpt>
      <trkpt lat="50.44874" lon="3.52703">
        <ele>29.6</ele>
        <time>2021-09-17T19:53:20.000Z</time>
      </trkpt>
      <trkpt lat="50.4487" lon="3.52707">
        <ele>29.6</ele>
        <time>2021-09-17T19:53:21.000Z</time>
      </trkpt>
      <trkpt lat="50.44861" lon="3.52713">
        <ele>29.7</ele>
        <time>2021-09-17T19:53:23.000Z</time>
      </trkpt>
      <trkpt lat="50.44851" lon="3.52721">
        <ele>30</ele>
        <time>2021-09-17T19:53:25.000Z</time>
      </trkpt>
      <trkpt lat="50.44846" lon="3.52723">
        <ele>30</ele>
        <time>2021-09-17T19:53:26.000Z</time>
      </trkpt>
      <trkpt lat="50.44841" lon="3.52726">
        <ele>30.1</ele>
        <time>2021-09-17T19:53:27.000Z</time>
      </trkpt>
      <trkpt lat="50.44834" lon="3.52732">
        <ele>30.3</ele>
        <time>2021-09-17T19:53:29.000Z</time>
      </trkpt>
      <trkpt lat="50.44828" lon="3.52736">
        <ele>30.5</ele>
        <time>2021-09-17T19:53:32.000Z</time>
      </trkpt>
      <trkpt lat="50.4482" lon="3.52742">
        <ele>30.7</ele>
        <time>2021-09-17T19:53:32.501Z</time>
      </trkpt>
      <trkpt lat="50.44813" lon="3.52747">
        <ele>30.9</ele>
        <time>2021-09-17T19:53:33.988Z</time>
      </trkpt>
      <trkpt lat="50.44804" lon="3.52752">
        <ele>31</ele>
        <time>2021-09-17T19:53:37.000Z</time>
      </trkpt>
      <trkpt lat="50.44798" lon="3.52756">
        <ele>31.2</ele>
        <time>2021-09-17T19:53:37.672Z</time>
      </trkpt>
      <trkpt lat="50.44793" lon="3.52759">
        <ele>31.3</ele>
        <time>2021-09-17T19:53:38.787Z</time>
      </trkpt>
      <trkpt lat="50.44788" lon="3.52763">
        <ele>31.3</ele>
        <time>2021-09-17T19:53:39.947Z</time>
      </trkpt>
      <trkpt lat="50.44783" lon="3.52765">
        <ele>31.4</ele>
        <time>2021-09-17T19:53:41.145Z</time>
      </trkpt>
      <trkpt lat="50.44779" lon="3.52761">
        <ele>31.6</ele>
        <time>2021-09-17T19:53:43.000Z</time>
      </trkpt>
      <trkpt lat="50.44773" lon="3.52754">
        <ele>31.9</ele>
        <time>2021-09-17T19:53:44.111Z</time>
      </trkpt>
      <trkpt lat="50.44767" lon="3.52748">
        <ele>32</ele>
        <time>2021-09-17T19:53:46.000Z</time>
      </trkpt>
      <trkpt lat="50.44758" lon="3.52737">
        <ele>31.9</ele>
        <time>2021-09-17T19:53:48.000Z</time>
      </trkpt>
      <trkpt lat="50.4475" lon="3.52729">
        <ele>32</ele>
        <time>2021-09-17T19:53:49.944Z</time>
      </trkpt>
      <trkpt lat="50.44744" lon="3.52723">
        <ele>32.2</ele>
        <time>2021-09-17T19:53:52.000Z</time>
      </trkpt>
      <trkpt lat="50.44738" lon="3.52718">
        <ele>32.3</ele>
        <time>2021-09-17T19:53:52.949Z</time>
      </trkpt>
      <trkpt lat="50.44733" lon="3.52713">
        <ele>32.3</ele>
        <time>2021-09-17T19:53:54.534Z</time>
      </trkpt>
      <trkpt lat="50.44725" lon="3.52704">
        <ele>32.2</ele>
        <time>2021-09-17T19:53:57.166Z</time>
      </trkpt>
      <trkpt lat="50.44716" lon="3.52695">
        <ele>32.2</ele>
        <time>2021-09-17T19:53:59.686Z</time>
      </trkpt>
      <trkpt lat="50.44711" lon="3.52689">
        <ele>32.3</ele>
        <time>2021-09-17T19:54:01.069Z</time>
      </trkpt>
      <trkpt lat="50.44706" lon="3.52681">
        <ele>32.3</ele>
        <time>2021-09-17T19:54:02.866Z</time>
      </trkpt>
      <trkpt lat="50.44701" lon="3.52675">
        <ele>32.2</ele>
        <time>2021-09-17T19:54:05.000Z</time>
      </trkpt>
      <trkpt lat="50.44695" lon="3.52668">
        <ele>32</ele>
        <time>2021-09-17T19:54:07.000Z</time>
      </trkpt>
      <trkpt lat="50.44692" lon="3.52663">
        <ele>32.1</ele>
        <time>2021-09-17T19:54:08.000Z</time>
      </trkpt>
      <trkpt lat="50.44686" lon="3.52657">
        <ele>32.3</ele>
        <time>2021-09-17T19:54:10.000Z</time>
      </trkpt>
      <trkpt lat="50.44677" lon="3.52648">
        <ele>32.6</ele>
        <time>2021-09-17T19:54:11.663Z</time>
      </trkpt>
      <trkpt lat="50.44673" lon="3.52643">
        <ele>32.8</ele>
        <time>2021-09-17T19:54:12.924Z</time>
      </trkpt>
      <trkpt lat="50.44668" lon="3.5264">
        <ele>33</ele>
        <time>2021-09-17T19:54:14.122Z</time>
      </trkpt>
      <trkpt lat="50.44661" lon="3.52633">
        <ele>32.8</ele>
        <time>2021-09-17T19:54:17.000Z</time>
      </trkpt>
      <trkpt lat="50.44654" lon="3.52626">
        <ele>32.5</ele>
        <time>2021-09-17T19:54:18.162Z</time>
      </trkpt>
      <trkpt lat="50.44646" lon="3.52615">
        <ele>32.1</ele>
        <time>2021-09-17T19:54:20.943Z</time>
      </trkpt>
      <trkpt lat="50.44641" lon="3.5261">
        <ele>32</ele>
        <time>2021-09-17T19:54:23.000Z</time>
      </trkpt>
      <trkpt lat="50.44636" lon="3.52605">
        <ele>31.9</ele>
        <time>2021-09-17T19:54:23.543Z</time>
      </trkpt>
      <trkpt lat="50.44632" lon="3.526">
        <ele>31.8</ele>
        <time>2021-09-17T19:54:24.759Z</time>
      </trkpt>
      <trkpt lat="50.44628" lon="3.52596">
        <ele>31.8</ele>
        <time>2021-09-17T19:54:25.921Z</time>
      </trkpt>
      <trkpt lat="50.44622" lon="3.52591">
        <ele>31.9</ele>
        <time>2021-09-17T19:54:28.000Z</time>
      </trkpt>
      <trkpt lat="50.44615" lon="3.52583">
        <ele>31.8</ele>
        <time>2021-09-17T19:54:30.000Z</time>
      </trkpt>
      <trkpt lat="50.44607" lon="3.52572">
        <ele>31.8</ele>
        <time>2021-09-17T19:54:32.032Z</time>
      </trkpt>
      <trkpt lat="50.44601" lon="3.52567">
        <ele>32</ele>
        <time>2021-09-17T19:54:34.000Z</time>
      </trkpt>
      <trkpt lat="50.44597" lon="3.52563">
        <ele>32.1</ele>
        <time>2021-09-17T19:54:35.000Z</time>
      </trkpt>
      <trkpt lat="50.44592" lon="3.52559">
        <ele>32.4</ele>
        <time>2021-09-17T19:54:35.537Z</time>
      </trkpt>
      <trkpt lat="50.44584" lon="3.52554">
        <ele>32.8</ele>
        <time>2021-09-17T19:54:37.102Z</time>
      </trkpt>
      <trkpt lat="50.44576" lon="3.52543">
        <ele>32.6</ele>
        <time>2021-09-17T19:54:39.918Z</time>
      </trkpt>
      <trkpt lat="50.44572" lon="3.52539">
        <ele>32.7</ele>
        <time>2021-09-17T19:54:41.123Z</time>
      </trkpt>
      <trkpt lat="50.44567" lon="3.52533">
        <ele>32.9</ele>
        <time>2021-09-17T19:54:43.005Z</time>
      </trkpt>
      <trkpt lat="50.44558" lon="3.52524">
        <ele>33.5</ele>
        <time>2021-09-17T19:54:45.943Z</time>
      </trkpt>
      <trkpt lat="50.44552" lon="3.52517">
        <ele>33.3</ele>
        <time>2021-09-17T19:54:49.000Z</time>
      </trkpt>
      <trkpt lat="50.44548" lon="3.52513">
        <ele>33.1</ele>
        <time>2021-09-17T19:54:49.632Z</time>
      </trkpt>
      <trkpt lat="50.44541" lon="3.52506">
        <ele>32.8</ele>
        <time>2021-09-17T19:54:52.023Z</time>
      </trkpt>
      <trkpt lat="50.44531" lon="3.52495">
        <ele>32.7</ele>
        <time>2021-09-17T19:54:55.102Z</time>
      </trkpt>
      <trkpt lat="50.44527" lon="3.5249">
        <ele>32.7</ele>
        <time>2021-09-17T19:54:57.000Z</time>
      </trkpt>
      <trkpt lat="50.44523" lon="3.52485">
        <ele>32.5</ele>
        <time>2021-09-17T19:54:58.000Z</time>
      </trkpt>
      <trkpt lat="50.44518" lon="3.5248">
        <ele>32.4</ele>
        <time>2021-09-17T19:54:59.000Z</time>
      </trkpt>
      <trkpt lat="50.44514" lon="3.52475">
        <ele>32.1</ele>
        <time>2021-09-17T19:55:00.000Z</time>
      </trkpt>
      <trkpt lat="50.44509" lon="3.5247">
        <ele>31.9</ele>
        <time>2021-09-17T19:55:01.000Z</time>
      </trkpt>
      <trkpt lat="50.44504" lon="3.52465">
        <ele>31.7</ele>
        <time>2021-09-17T19:55:02.000Z</time>
      </trkpt>
      <trkpt lat="50.44494" lon="3.52456">
        <ele>31.5</ele>
        <time>2021-09-17T19:55:04.000Z</time>
      </trkpt>
      <trkpt lat="50.4449" lon="3.52452">
        <ele>31.4</ele>
        <time>2021-09-17T19:55:05.000Z</time>
      </trkpt>
      <trkpt lat="50.4448" lon="3.52442">
        <ele>30.9</ele>
        <time>2021-09-17T19:55:07.000Z</time>
      </trkpt>
      <trkpt lat="50.44475" lon="3.52435">
        <ele>30.6</ele>
        <time>2021-09-17T19:55:08.000Z</time>
      </trkpt>
      <trkpt lat="50.44464" lon="3.52426">
        <ele>30.3</ele>
        <time>2021-09-17T19:55:10.000Z</time>
      </trkpt>
      <trkpt lat="50.44459" lon="3.5242">
        <ele>30.1</ele>
        <time>2021-09-17T19:55:11.000Z</time>
      </trkpt>
      <trkpt lat="50.44449" lon="3.52409">
        <ele>29.7</ele>
        <time>2021-09-17T19:55:13.000Z</time>
      </trkpt>
      <trkpt lat="50.44437" lon="3.52397">
        <ele>29.6</ele>
        <time>2021-09-17T19:55:15.000Z</time>
      </trkpt>
      <trkpt lat="50.44432" lon="3.5239">
        <ele>29.5</ele>
        <time>2021-09-17T19:55:16.000Z</time>
      </trkpt>
      <trkpt lat="50.44426" lon="3.52385">
        <ele>29.5</ele>
        <time>2021-09-17T19:55:17.000Z</time>
      </trkpt>
      <trkpt lat="50.44421" lon="3.5238">
        <ele>29.5</ele>
        <time>2021-09-17T19:55:18.000Z</time>
      </trkpt>
      <trkpt lat="50.4441" lon="3.52369">
        <ele>29.3</ele>
        <time>2021-09-17T19:55:20.000Z</time>
      </trkpt>
      <trkpt lat="50.44401" lon="3.52358">
        <ele>28.8</ele>
        <time>2021-09-17T19:55:22.000Z</time>
      </trkpt>
      <trkpt lat="50.44396" lon="3.52353">
        <ele>28.6</ele>
        <time>2021-09-17T19:55:23.000Z</time>
      </trkpt>
      <trkpt lat="50.44391" lon="3.52348">
        <ele>28.5</ele>
        <time>2021-09-17T19:55:24.000Z</time>
      </trkpt>
      <trkpt lat="50.44381" lon="3.52338">
        <ele>28.5</ele>
        <time>2021-09-17T19:55:26.000Z</time>
      </trkpt>
      <trkpt lat="50.44377" lon="3.52333">
        <ele>28.4</ele>
        <time>2021-09-17T19:55:27.000Z</time>
      </trkpt>
      <trkpt lat="50.4437" lon="3.52323">
        <ele>28.3</ele>
        <time>2021-09-17T19:55:29.000Z</time>
      </trkpt>
      <trkpt lat="50.44365" lon="3.52318">
        <ele>28.3</ele>
        <time>2021-09-17T19:55:30.000Z</time>
      </trkpt>
      <trkpt lat="50.44361" lon="3.52313">
        <ele>28.3</ele>
        <time>2021-09-17T19:55:31.000Z</time>
      </trkpt>
      <trkpt lat="50.44353" lon="3.52304">
        <ele>28.5</ele>
        <time>2021-09-17T19:55:33.000Z</time>
      </trkpt>
      <trkpt lat="50.44349" lon="3.52299">
        <ele>28.6</ele>
        <time>2021-09-17T19:55:34.000Z</time>
      </trkpt>
      <trkpt lat="50.44341" lon="3.52291">
        <ele>28.9</ele>
        <time>2021-09-17T19:55:36.000Z</time>
      </trkpt>
      <trkpt lat="50.44334" lon="3.52284">
        <ele>29.2</ele>
        <time>2021-09-17T19:55:38.000Z</time>
      </trkpt>
      <trkpt lat="50.44324" lon="3.52274">
        <ele>29.5</ele>
        <time>2021-09-17T19:55:41.000Z</time>
      </trkpt>
      <trkpt lat="50.44316" lon="3.52264">
        <ele>29.8</ele>
        <time>2021-09-17T19:55:44.000Z</time>
      </trkpt>
      <trkpt lat="50.4431" lon="3.52262">
        <ele>30.1</ele>
        <time>2021-09-17T19:55:47.000Z</time>
      </trkpt>
      <trkpt lat="50.44306" lon="3.52257">
        <ele>30.2</ele>
        <time>2021-09-17T19:55:48.000Z</time>
      </trkpt>
      <trkpt lat="50.44298" lon="3.52248">
        <ele>30.5</ele>
        <time>2021-09-17T19:55:49.775Z</time>
      </trkpt>
      <trkpt lat="50.44293" lon="3.52243">
        <ele>30.9</ele>
        <time>2021-09-17T19:55:52.000Z</time>
      </trkpt>
      <trkpt lat="50.44286" lon="3.52235">
        <ele>31.4</ele>
        <time>2021-09-17T19:55:53.728Z</time>
      </trkpt>
      <trkpt lat="50.44282" lon="3.52232">
        <ele>31.7</ele>
        <time>2021-09-17T19:55:56.000Z</time>
      </trkpt>
      <trkpt lat="50.44276" lon="3.52226">
        <ele>32.1</ele>
        <time>2021-09-17T19:55:58.000Z</time>
      </trkpt>
      <trkpt lat="50.44272" lon="3.52222">
        <ele>32.4</ele>
        <time>2021-09-17T19:55:59.130Z</time>
      </trkpt>
      <trkpt lat="50.44265" lon="3.52215">
        <ele>32.7</ele>
        <time>2021-09-17T19:56:02.135Z</time>
      </trkpt>
      <trkpt lat="50.44258" lon="3.52207">
        <ele>32.9</ele>
        <time>2021-09-17T19:56:05.211Z</time>
      </trkpt>
      <trkpt lat="50.44252" lon="3.52204">
        <ele>33.2</ele>
        <time>2021-09-17T19:56:08.000Z</time>
      </trkpt>
      <trkpt lat="50.44246" lon="3.52199">
        <ele>33.5</ele>
        <time>2021-09-17T19:56:09.590Z</time>
      </trkpt>
      <trkpt lat="50.4424" lon="3.52193">
        <ele>33.7</ele>
        <time>2021-09-17T19:56:13.000Z</time>
      </trkpt>
      <trkpt lat="50.44236" lon="3.52188">
        <ele>33.8</ele>
        <time>2021-09-17T19:56:15.000Z</time>
      </trkpt>
      <trkpt lat="50.44232" lon="3.52182">
        <ele>33.8</ele>
        <time>2021-09-17T19:56:15.935Z</time>
      </trkpt>
      <trkpt lat="50.44223" lon="3.52174">
        <ele>34.2</ele>
        <time>2021-09-17T19:56:20.000Z</time>
      </trkpt>
      <trkpt lat="50.44216" lon="3.52167">
        <ele>34.5</ele>
        <time>2021-09-17T19:56:23.000Z</time>
      </trkpt>
      <trkpt lat="50.4421" lon="3.52162">
        <ele>34.8</ele>
        <time>2021-09-17T19:56:26.000Z</time>
      </trkpt>
      <trkpt lat="50.44202" lon="3.52153">
        <ele>35.3</ele>
        <time>2021-09-17T19:56:29.000Z</time>
      </trkpt>
      <trkpt lat="50.44196" lon="3.52147">
        <ele>35.8</ele>
        <time>2021-09-17T19:56:30.932Z</time>
      </trkpt>
      <trkpt lat="50.44192" lon="3.5214">
        <ele>36.1</ele>
        <time>2021-09-17T19:56:34.000Z</time>
      </trkpt>
      <trkpt lat="50.44188" lon="3.52134">
        <ele>36.1</ele>
        <time>2021-09-17T19:56:36.115Z</time>
      </trkpt>
      <trkpt lat="50.44184" lon="3.52128">
        <ele>36</ele>
        <time>2021-09-17T19:56:40.000Z</time>
      </trkpt>
      <trkpt lat="50.44179" lon="3.52119">
        <ele>35.8</ele>
        <time>2021-09-17T19:56:41.895Z</time>
      </trkpt>
      <trkpt lat="50.44173" lon="3.52113">
        <ele>35.8</ele>
        <time>2021-09-17T19:56:46.000Z</time>
      </trkpt>
      <trkpt lat="50.44167" lon="3.52105">
        <ele>35.8</ele>
        <time>2021-09-17T19:56:48.718Z</time>
      </trkpt>
      <trkpt lat="50.4416" lon="3.52099">
        <ele>36</ele>
        <time>2021-09-17T19:56:51.643Z</time>
      </trkpt>
      <trkpt lat="50.44154" lon="3.52093">
        <ele>36.3</ele>
        <time>2021-09-17T19:56:55.000Z</time>
      </trkpt>
      <trkpt lat="50.44147" lon="3.52087">
        <ele>36.5</ele>
        <time>2021-09-17T19:56:58.000Z</time>
      </trkpt>
      <trkpt lat="50.44148" lon="3.52079">
        <ele>36</ele>
        <time>2021-09-17T19:57:00.000Z</time>
      </trkpt>
      <trkpt lat="50.44156" lon="3.52066">
        <ele>34.5</ele>
        <time>2021-09-17T19:57:02.000Z</time>
      </trkpt>
      <trkpt lat="50.4416" lon="3.52057">
        <ele>33.6</ele>
        <time>2021-09-17T19:57:03.000Z</time>
      </trkpt>
      <trkpt lat="50.44171" lon="3.5204">
        <ele>32.2</ele>
        <time>2021-09-17T19:57:05.000Z</time>
      </trkpt>
      <trkpt lat="50.44176" lon="3.5203">
        <ele>31.4</ele>
        <time>2021-09-17T19:57:06.000Z</time>
      </trkpt>
      <trkpt lat="50.4418" lon="3.5202">
        <ele>30.6</ele>
        <time>2021-09-17T19:57:07.000Z</time>
      </trkpt>
      <trkpt lat="50.44191" lon="3.52001">
        <ele>29.2</ele>
        <time>2021-09-17T19:57:09.000Z</time>
      </trkpt>
      <trkpt lat="50.44196" lon="3.5199">
        <ele>28.5</ele>
        <time>2021-09-17T19:57:10.000Z</time>
      </trkpt>
      <trkpt lat="50.44201" lon="3.51965">
        <ele>27.7</ele>
        <time>2021-09-17T19:57:12.000Z</time>
      </trkpt>
      <trkpt lat="50.44198" lon="3.51937">
        <ele>27.7</ele>
        <time>2021-09-17T19:57:14.000Z</time>
      </trkpt>
      <trkpt lat="50.44194" lon="3.51924">
        <ele>28</ele>
        <time>2021-09-17T19:57:15.000Z</time>
      </trkpt>
      <trkpt lat="50.44184" lon="3.51902">
        <ele>28.4</ele>
        <time>2021-09-17T19:57:17.000Z</time>
      </trkpt>
      <trkpt lat="50.44175" lon="3.51883">
        <ele>28.6</ele>
        <time>2021-09-17T19:57:19.000Z</time>
      </trkpt>
      <trkpt lat="50.44169" lon="3.51863">
        <ele>28.8</ele>
        <time>2021-09-17T19:57:21.000Z</time>
      </trkpt>
      <trkpt lat="50.44166" lon="3.51853">
        <ele>28.7</ele>
        <time>2021-09-17T19:57:22.000Z</time>
      </trkpt>
      <trkpt lat="50.44158" lon="3.51833">
        <ele>28.3</ele>
        <time>2021-09-17T19:57:24.000Z</time>
      </trkpt>
      <trkpt lat="50.44149" lon="3.51813">
        <ele>28.6</ele>
        <time>2021-09-17T19:57:26.000Z</time>
      </trkpt>
      <trkpt lat="50.44145" lon="3.51804">
        <ele>28.8</ele>
        <time>2021-09-17T19:57:27.000Z</time>
      </trkpt>
      <trkpt lat="50.44137" lon="3.51785">
        <ele>29</ele>
        <time>2021-09-17T19:57:29.000Z</time>
      </trkpt>
      <trkpt lat="50.44131" lon="3.51766">
        <ele>28.7</ele>
        <time>2021-09-17T19:57:31.000Z</time>
      </trkpt>
      <trkpt lat="50.44127" lon="3.51757">
        <ele>28.6</ele>
        <time>2021-09-17T19:57:32.000Z</time>
      </trkpt>
      <trkpt lat="50.44121" lon="3.51741">
        <ele>28.6</ele>
        <time>2021-09-17T19:57:34.000Z</time>
      </trkpt>
      <trkpt lat="50.44118" lon="3.51734">
        <ele>28.8</ele>
        <time>2021-09-17T19:57:35.000Z</time>
      </trkpt>
      <trkpt lat="50.44112" lon="3.51717">
        <ele>29</ele>
        <time>2021-09-17T19:57:37.000Z</time>
      </trkpt>
      <trkpt lat="50.44107" lon="3.51703">
        <ele>29</ele>
        <time>2021-09-17T19:57:39.000Z</time>
      </trkpt>
      <trkpt lat="50.44103" lon="3.51689">
        <ele>29.1</ele>
        <time>2021-09-17T19:57:41.000Z</time>
      </trkpt>
      <trkpt lat="50.44101" lon="3.51683">
        <ele>29.1</ele>
        <time>2021-09-17T19:57:42.000Z</time>
      </trkpt>
      <trkpt lat="50.44098" lon="3.51675">
        <ele>29.3</ele>
        <time>2021-09-17T19:57:43.000Z</time>
      </trkpt>
      <trkpt lat="50.44096" lon="3.51667">
        <ele>29.5</ele>
        <time>2021-09-17T19:57:44.000Z</time>
      </trkpt>
      <trkpt lat="50.4409" lon="3.51654">
        <ele>29.8</ele>
        <time>2021-09-17T19:57:46.000Z</time>
      </trkpt>
      <trkpt lat="50.44086" lon="3.51642">
        <ele>29.9</ele>
        <time>2021-09-17T19:57:48.000Z</time>
      </trkpt>
      <trkpt lat="50.44081" lon="3.51634">
        <ele>30</ele>
        <time>2021-09-17T19:57:50.000Z</time>
      </trkpt>
      <trkpt lat="50.44074" lon="3.51619">
        <ele>30</ele>
        <time>2021-09-17T19:57:53.000Z</time>
      </trkpt>
      <trkpt lat="50.4407" lon="3.51608">
        <ele>30</ele>
        <time>2021-09-17T19:57:55.000Z</time>
      </trkpt>
      <trkpt lat="50.44065" lon="3.51596">
        <ele>30</ele>
        <time>2021-09-17T19:57:56.450Z</time>
      </trkpt>
      <trkpt lat="50.44063" lon="3.5159">
        <ele>30</ele>
        <time>2021-09-17T19:57:57.682Z</time>
      </trkpt>
      <trkpt lat="50.44061" lon="3.51581">
        <ele>30</ele>
        <time>2021-09-17T19:57:59.190Z</time>
      </trkpt>
      <trkpt lat="50.44057" lon="3.51571">
        <ele>30</ele>
        <time>2021-09-17T19:58:02.000Z</time>
      </trkpt>
      <trkpt lat="50.44054" lon="3.51562">
        <ele>30.1</ele>
        <time>2021-09-17T19:58:02.848Z</time>
      </trkpt>
      <trkpt lat="50.44051" lon="3.51555">
        <ele>30.1</ele>
        <time>2021-09-17T19:58:03.988Z</time>
      </trkpt>
      <trkpt lat="50.44048" lon="3.51548">
        <ele>30.1</ele>
        <time>2021-09-17T19:58:06.000Z</time>
      </trkpt>
      <trkpt lat="50.44045" lon="3.51538">
        <ele>30</ele>
        <time>2021-09-17T19:58:06.945Z</time>
      </trkpt>
      <trkpt lat="50.44042" lon="3.51531">
        <ele>30</ele>
        <time>2021-09-17T19:58:09.000Z</time>
      </trkpt>
      <trkpt lat="50.44038" lon="3.51522">
        <ele>30.1</ele>
        <time>2021-09-17T19:58:09.864Z</time>
      </trkpt>
      <trkpt lat="50.44035" lon="3.51514">
        <ele>30.1</ele>
        <time>2021-09-17T19:58:12.000Z</time>
      </trkpt>
      <trkpt lat="50.44028" lon="3.51492">
        <ele>30</ele>
        <time>2021-09-17T19:58:14.784Z</time>
      </trkpt>
      <trkpt lat="50.44021" lon="3.51474">
        <ele>30.2</ele>
        <time>2021-09-17T19:58:19.000Z</time>
      </trkpt>
      <trkpt lat="50.44014" lon="3.51455">
        <ele>30.5</ele>
        <time>2021-09-17T19:58:22.000Z</time>
      </trkpt>
      <trkpt lat="50.44005" lon="3.51434">
        <ele>30.8</ele>
        <time>2021-09-17T19:58:24.769Z</time>
      </trkpt>
      <trkpt lat="50.43995" lon="3.51428">
        <ele>31.2</ele>
        <time>2021-09-17T19:58:28.410Z</time>
      </trkpt>
      <trkpt lat="50.43989" lon="3.51405">
        <ele>31</ele>
        <time>2021-09-17T19:58:31.749Z</time>
      </trkpt>
      <trkpt lat="50.43983" lon="3.51382">
        <ele>30.6</ele>
        <time>2021-09-17T19:58:35.229Z</time>
      </trkpt>
      <trkpt lat="50.43974" lon="3.51363">
        <ele>30.9</ele>
        <time>2021-09-17T19:58:38.514Z</time>
      </trkpt>
      <trkpt lat="50.43966" lon="3.51346">
        <ele>31.1</ele>
        <time>2021-09-17T19:58:41.889Z</time>
      </trkpt>
      <trkpt lat="50.43961" lon="3.51329">
        <ele>30.9</ele>
        <time>2021-09-17T19:58:46.000Z</time>
      </trkpt>
      <trkpt lat="50.43954" lon="3.51311">
        <ele>30.7</ele>
        <time>2021-09-17T19:58:48.476Z</time>
      </trkpt>
      <trkpt lat="50.43946" lon="3.51294">
        <ele>30.6</ele>
        <time>2021-09-17T19:58:52.189Z</time>
      </trkpt>
      <trkpt lat="50.43938" lon="3.51274">
        <ele>30.2</ele>
        <time>2021-09-17T19:58:55.791Z</time>
      </trkpt>
      <trkpt lat="50.43922" lon="3.51243">
        <ele>30</ele>
        <time>2021-09-17T19:59:01.000Z</time>
      </trkpt>
      <trkpt lat="50.43905" lon="3.51197">
        <ele>29.1</ele>
        <time>2021-09-17T19:59:07.000Z</time>
      </trkpt>
      <trkpt lat="50.43894" lon="3.51173">
        <ele>28.2</ele>
        <time>2021-09-17T19:59:10.000Z</time>
      </trkpt>
      <trkpt lat="50.43887" lon="3.51151">
        <ele>28</ele>
        <time>2021-09-17T19:59:13.000Z</time>
      </trkpt>
      <trkpt lat="50.43868" lon="3.51109">
        <ele>27.7</ele>
        <time>2021-09-17T19:59:19.000Z</time>
      </trkpt>
      <trkpt lat="50.43846" lon="3.51056">
        <ele>26.6</ele>
        <time>2021-09-17T19:59:25.000Z</time>
      </trkpt>
      <trkpt lat="50.43837" lon="3.51027">
        <ele>26</ele>
        <time>2021-09-17T19:59:28.000Z</time>
      </trkpt>
      <trkpt lat="50.43814" lon="3.50969">
        <ele>25.6</ele>
        <time>2021-09-17T19:59:34.000Z</time>
      </trkpt>
      <trkpt lat="50.438" lon="3.50942">
        <ele>25.2</ele>
        <time>2021-09-17T19:59:37.000Z</time>
      </trkpt>
      <trkpt lat="50.43784" lon="3.50889">
        <ele>25</ele>
        <time>2021-09-17T19:59:43.000Z</time>
      </trkpt>
      <trkpt lat="50.43766" lon="3.50842">
        <ele>24.3</ele>
        <time>2021-09-17T19:59:49.000Z</time>
      </trkpt>
      <trkpt lat="50.43757" lon="3.5082">
        <ele>24</ele>
        <time>2021-09-17T19:59:52.000Z</time>
      </trkpt>
      <trkpt lat="50.43746" lon="3.50798">
        <ele>24</ele>
        <time>2021-09-17T19:59:55.000Z</time>
      </trkpt>
      <trkpt lat="50.43727" lon="3.50752">
        <ele>23</ele>
        <time>2021-09-17T20:00:01.000Z</time>
      </trkpt>
      <trkpt lat="50.43707" lon="3.50708">
        <ele>23</ele>
        <time>2021-09-17T20:00:07.000Z</time>
      </trkpt>
      <trkpt lat="50.43692" lon="3.50661">
        <ele>23</ele>
        <time>2021-09-17T20:00:13.000Z</time>
      </trkpt>
      <trkpt lat="50.43681" lon="3.50622">
        <ele>23</ele>
        <time>2021-09-17T20:00:19.000Z</time>
      </trkpt>
      <trkpt lat="50.43677" lon="3.50621">
        <ele>23</ele>
        <time>2021-09-17T20:00:22.000Z</time>
      </trkpt>
      <trkpt lat="50.4365" lon="3.50637">
        <ele>23</ele>
        <time>2021-09-17T20:00:28.000Z</time>
      </trkpt>
      <trkpt lat="50.43629" lon="3.50645">
        <ele>23</ele>
        <time>2021-09-17T20:00:34.194Z</time>
      </trkpt>
      <trkpt lat="50.43601" lon="3.50652">
        <ele>23</ele>
        <time>2021-09-17T20:00:40.000Z</time>
      </trkpt>
      <trkpt lat="50.43603" lon="3.50659">
        <ele>23</ele>
        <time>2021-09-17T20:00:42.520Z</time>
      </trkpt>
      <trkpt lat="50.43579" lon="3.50669">
        <ele>23</ele>
        <time>2021-09-17T20:00:46.688Z</time>
      </trkpt>
      <trkpt lat="50.43566" lon="3.50673">
        <ele>23</ele>
        <time>2021-09-17T20:00:49.954Z</time>
      </trkpt>
      <trkpt lat="50.43554" lon="3.50675">
        <ele>23</ele>
        <time>2021-09-17T20:00:53.003Z</time>
      </trkpt>
      <trkpt lat="50.43542" lon="3.50677">
        <ele>23</ele>
        <time>2021-09-17T20:00:56.587Z</time>
      </trkpt>
      <trkpt lat="50.43531" lon="3.50673">
        <ele>23</ele>
        <time>2021-09-17T20:00:59.765Z</time>
      </trkpt>
      <trkpt lat="50.43521" lon="3.50675">
        <ele>23</ele>
        <time>2021-09-17T20:01:03.067Z</time>
      </trkpt>
      <trkpt lat="50.43515" lon="3.50677">
        <ele>23</ele>
        <time>2021-09-17T20:01:07.000Z</time>
      </trkpt>
      <trkpt lat="50.43521" lon="3.50677">
        <ele>23</ele>
        <time>2021-09-17T20:01:13.000Z</time>
      </trkpt>
      <trkpt lat="50.43524" lon="3.50683">
        <ele>23</ele>
        <time>2021-09-17T20:04:52.000Z</time>
      </trkpt>
      <trkpt lat="50.43514" lon="3.50689">
        <ele>23</ele>
        <time>2021-09-17T20:05:36.197Z</time>
      </trkpt>
      <trkpt lat="50.43512" lon="3.50697">
        <ele>23</ele>
        <time>2021-09-17T20:05:39.445Z</time>
      </trkpt>
      <trkpt lat="50.43502" lon="3.50695">
        <ele>23</ele>
        <time>2021-09-17T20:05:43.005Z</time>
      </trkpt>
      <trkpt lat="50.43496" lon="3.50699">
        <ele>23</ele>
        <time>2021-09-17T20:05:46.242Z</time>
      </trkpt>
      <trkpt lat="50.43489" lon="3.507">
        <ele>23</ele>
        <time>2021-09-17T20:05:49.685Z</time>
      </trkpt>
      <trkpt lat="50.43482" lon="3.50703">
        <ele>23</ele>
        <time>2021-09-17T20:05:53.164Z</time>
      </trkpt>
      <trkpt lat="50.43476" lon="3.50705">
        <ele>23</ele>
        <time>2021-09-17T20:05:56.645Z</time>
      </trkpt>
      <trkpt lat="50.43469" lon="3.50706">
        <ele>23</ele>
        <time>2021-09-17T20:05:59.983Z</time>
      </trkpt>
      <trkpt lat="50.43464" lon="3.50708">
        <ele>23</ele>
        <time>2021-09-17T20:06:04.000Z</time>
      </trkpt>
      <trkpt lat="50.43457" lon="3.50712">
        <ele>23</ele>
        <time>2021-09-17T20:06:06.951Z</time>
      </trkpt>
      <trkpt lat="50.43449" lon="3.5072">
        <ele>23</ele>
        <time>2021-09-17T20:06:10.422Z</time>
      </trkpt>
      <trkpt lat="50.43442" lon="3.50723">
        <ele>23</ele>
        <time>2021-09-17T20:06:13.444Z</time>
      </trkpt>
      <trkpt lat="50.43433" lon="3.50725">
        <ele>23</ele>
        <time>2021-09-17T20:06:16.569Z</time>
      </trkpt>
      <trkpt lat="50.43418" lon="3.50728">
        <ele>22.8</ele>
        <time>2021-09-17T20:06:19.957Z</time>
      </trkpt>
      <trkpt lat="50.43399" lon="3.50735">
        <ele>22.5</ele>
        <time>2021-09-17T20:06:23.948Z</time>
      </trkpt>
      <trkpt lat="50.43384" lon="3.50741">
        <ele>22.3</ele>
        <time>2021-09-17T20:06:27.261Z</time>
      </trkpt>
      <trkpt lat="50.43371" lon="3.50747">
        <ele>22.1</ele>
        <time>2021-09-17T20:06:30.469Z</time>
      </trkpt>
      <trkpt lat="50.43359" lon="3.5075">
        <ele>22.1</ele>
        <time>2021-09-17T20:06:33.507Z</time>
      </trkpt>
      <trkpt lat="50.43349" lon="3.50756">
        <ele>22.3</ele>
        <time>2021-09-17T20:06:36.519Z</time>
      </trkpt>
      <trkpt lat="50.43339" lon="3.50762">
        <ele>22.5</ele>
        <time>2021-09-17T20:06:40.000Z</time>
      </trkpt>
      <trkpt lat="50.43325" lon="3.50766">
        <ele>22.6</ele>
        <time>2021-09-17T20:06:43.583Z</time>
      </trkpt>
      <trkpt lat="50.43317" lon="3.50769">
        <ele>22.7</ele>
        <time>2021-09-17T20:06:46.847Z</time>
      </trkpt>
      <trkpt lat="50.4331" lon="3.50773">
        <ele>22.9</ele>
        <time>2021-09-17T20:06:49.962Z</time>
      </trkpt>
      <trkpt lat="50.43299" lon="3.50776">
        <ele>23</ele>
        <time>2021-09-17T20:06:53.283Z</time>
      </trkpt>
      <trkpt lat="50.4329" lon="3.50779">
        <ele>23</ele>
        <time>2021-09-17T20:06:56.390Z</time>
      </trkpt>
      <trkpt lat="50.43279" lon="3.50782">
        <ele>23</ele>
        <time>2021-09-17T20:07:00.066Z</time>
      </trkpt>
      <trkpt lat="50.43269" lon="3.50787">
        <ele>23.3</ele>
        <time>2021-09-17T20:07:04.000Z</time>
      </trkpt>
      <trkpt lat="50.43262" lon="3.50792">
        <ele>23.6</ele>
        <time>2021-09-17T20:07:07.074Z</time>
      </trkpt>
      <trkpt lat="50.43253" lon="3.50793">
        <ele>23.9</ele>
        <time>2021-09-17T20:07:13.000Z</time>
      </trkpt>
      <trkpt lat="50.43259" lon="3.50794">
        <ele>23.7</ele>
        <time>2021-09-17T20:07:25.000Z</time>
      </trkpt>
      <trkpt lat="50.43252" lon="3.508">
        <ele>23.9</ele>
        <time>2021-09-17T20:08:40.704Z</time>
      </trkpt>
      <trkpt lat="50.43241" lon="3.50807">
        <ele>24</ele>
        <time>2021-09-17T20:08:44.426Z</time>
      </trkpt>
      <trkpt lat="50.43227" lon="3.50814">
        <ele>24</ele>
        <time>2021-09-17T20:08:48.363Z</time>
      </trkpt>
      <trkpt lat="50.43218" lon="3.50816">
        <ele>24</ele>
        <time>2021-09-17T20:08:52.000Z</time>
      </trkpt>
      <trkpt lat="50.43208" lon="3.50816">
        <ele>24</ele>
        <time>2021-09-17T20:08:55.484Z</time>
      </trkpt>
      <trkpt lat="50.43199" lon="3.50816">
        <ele>24</ele>
        <time>2021-09-17T20:08:59.681Z</time>
      </trkpt>
      <trkpt lat="50.43193" lon="3.50822">
        <ele>24</ele>
        <time>2021-09-17T20:09:02.863Z</time>
      </trkpt>
      <trkpt lat="50.43183" lon="3.50828">
        <ele>24</ele>
        <time>2021-09-17T20:09:06.185Z</time>
      </trkpt>
      <trkpt lat="50.43173" lon="3.50831">
        <ele>24</ele>
        <time>2021-09-17T20:09:09.541Z</time>
      </trkpt>
      <trkpt lat="50.43163" lon="3.50835">
        <ele>24</ele>
        <time>2021-09-17T20:09:12.807Z</time>
      </trkpt>
      <trkpt lat="50.43151" lon="3.5084">
        <ele>24</ele>
        <time>2021-09-17T20:09:16.689Z</time>
      </trkpt>
      <trkpt lat="50.43143" lon="3.50845">
        <ele>24</ele>
        <time>2021-09-17T20:09:19.709Z</time>
      </trkpt>
      <trkpt lat="50.43129" lon="3.50851">
        <ele>24</ele>
        <time>2021-09-17T20:09:23.648Z</time>
      </trkpt>
      <trkpt lat="50.43118" lon="3.50855">
        <ele>24</ele>
        <time>2021-09-17T20:09:27.165Z</time>
      </trkpt>
      <trkpt lat="50.43108" lon="3.50857">
        <ele>24.1</ele>
        <time>2021-09-17T20:09:31.000Z</time>
      </trkpt>
      <trkpt lat="50.43099" lon="3.5086">
        <ele>24.4</ele>
        <time>2021-09-17T20:09:33.880Z</time>
      </trkpt>
      <trkpt lat="50.43091" lon="3.50866">
        <ele>24.8</ele>
        <time>2021-09-17T20:09:37.200Z</time>
      </trkpt>
      <trkpt lat="50.43081" lon="3.5087">
        <ele>25</ele>
        <time>2021-09-17T20:09:40.784Z</time>
      </trkpt>
      <trkpt lat="50.43073" lon="3.50876">
        <ele>25.2</ele>
        <time>2021-09-17T20:09:44.365Z</time>
      </trkpt>
      <trkpt lat="50.43065" lon="3.50879">
        <ele>25.4</ele>
        <time>2021-09-17T20:09:47.955Z</time>
      </trkpt>
      <trkpt lat="50.43059" lon="3.5088">
        <ele>25.6</ele>
        <time>2021-09-17T20:09:51.007Z</time>
      </trkpt>
      <trkpt lat="50.43053" lon="3.50884">
        <ele>25.8</ele>
        <time>2021-09-17T20:09:54.085Z</time>
      </trkpt>
      <trkpt lat="50.43047" lon="3.50887">
        <ele>26</ele>
        <time>2021-09-17T20:09:58.000Z</time>
      </trkpt>
      <trkpt lat="50.4304" lon="3.50892">
        <ele>26.1</ele>
        <time>2021-09-17T20:10:01.128Z</time>
      </trkpt>
      <trkpt lat="50.43031" lon="3.50896">
        <ele>26.2</ele>
        <time>2021-09-17T20:10:04.700Z</time>
      </trkpt>
      <trkpt lat="50.43023" lon="3.50902">
        <ele>26.5</ele>
        <time>2021-09-17T20:10:08.163Z</time>
      </trkpt>
      <trkpt lat="50.43009" lon="3.5091">
        <ele>26.8</ele>
        <time>2021-09-17T20:10:13.000Z</time>
      </trkpt>
      <trkpt lat="50.42999" lon="3.50915">
        <ele>26.9</ele>
        <time>2021-09-17T20:10:15.964Z</time>
      </trkpt>
      <trkpt lat="50.4299" lon="3.50919">
        <ele>27.1</ele>
        <time>2021-09-17T20:10:19.086Z</time>
      </trkpt>
      <trkpt lat="50.42981" lon="3.5092">
        <ele>27.1</ele>
        <time>2021-09-17T20:10:23.044Z</time>
      </trkpt>
      <trkpt lat="50.42975" lon="3.50924">
        <ele>27.3</ele>
        <time>2021-09-17T20:10:26.205Z</time>
      </trkpt>
      <trkpt lat="50.42972" lon="3.50932">
        <ele>27.6</ele>
        <time>2021-09-17T20:10:29.367Z</time>
      </trkpt>
      <trkpt lat="50.42969" lon="3.50939">
        <ele>27.9</ele>
        <time>2021-09-17T20:10:32.688Z</time>
      </trkpt>
      <trkpt lat="50.42966" lon="3.50949">
        <ele>28.4</ele>
        <time>2021-09-17T20:10:36.205Z</time>
      </trkpt>
      <trkpt lat="50.42962" lon="3.50955">
        <ele>28.6</ele>
        <time>2021-09-17T20:10:39.347Z</time>
      </trkpt>
      <trkpt lat="50.42958" lon="3.5096">
        <ele>28.8</ele>
        <time>2021-09-17T20:10:43.000Z</time>
      </trkpt>
      <trkpt lat="50.42963" lon="3.50958">
        <ele>28.7</ele>
        <time>2021-09-17T20:10:50.633Z</time>
      </trkpt>
      <trkpt lat="50.42967" lon="3.50952">
        <ele>28.4</ele>
        <time>2021-09-17T20:11:01.000Z</time>
      </trkpt>
      <trkpt lat="50.42961" lon="3.50947">
        <ele>28.5</ele>
        <time>2021-09-17T20:11:25.000Z</time>
      </trkpt>
      <trkpt lat="50.42962" lon="3.50936">
        <ele>28.1</ele>
        <time>2021-09-17T20:11:28.220Z</time>
      </trkpt>
      <trkpt lat="50.42971" lon="3.50925">
        <ele>27.3</ele>
        <time>2021-09-17T20:11:31.625Z</time>
      </trkpt>
      <trkpt lat="50.42978" lon="3.50916">
        <ele>27</ele>
        <time>2021-09-17T20:11:34.964Z</time>
      </trkpt>
      <trkpt lat="50.42988" lon="3.5091">
        <ele>26.9</ele>
        <time>2021-09-17T20:11:38.986Z</time>
      </trkpt>
      <trkpt lat="50.42998" lon="3.50904">
        <ele>26.6</ele>
        <time>2021-09-17T20:11:42.147Z</time>
      </trkpt>
      <trkpt lat="50.43013" lon="3.50899">
        <ele>26.4</ele>
        <time>2021-09-17T20:11:45.573Z</time>
      </trkpt>
      <trkpt lat="50.43024" lon="3.50897">
        <ele>26.3</ele>
        <time>2021-09-17T20:11:48.806Z</time>
      </trkpt>
      <trkpt lat="50.43035" lon="3.50894">
        <ele>26.1</ele>
        <time>2021-09-17T20:11:52.240Z</time>
      </trkpt>
      <trkpt lat="50.43045" lon="3.5089">
        <ele>26</ele>
        <time>2021-09-17T20:11:55.241Z</time>
      </trkpt>
      <trkpt lat="50.43056" lon="3.50886">
        <ele>25.9</ele>
        <time>2021-09-17T20:11:58.824Z</time>
      </trkpt>
      <trkpt lat="50.43064" lon="3.50884">
        <ele>25.6</ele>
        <time>2021-09-17T20:12:01.883Z</time>
      </trkpt>
      <trkpt lat="50.43073" lon="3.50882">
        <ele>25.3</ele>
        <time>2021-09-17T20:12:05.260Z</time>
      </trkpt>
      <trkpt lat="50.43082" lon="3.5088">
        <ele>25</ele>
        <time>2021-09-17T20:12:10.000Z</time>
      </trkpt>
      <trkpt lat="50.43077" lon="3.5088">
        <ele>25.2</ele>
        <time>2021-09-17T20:12:46.000Z</time>
      </trkpt>
      <trkpt lat="50.43071" lon="3.50881">
        <ele>25.3</ele>
        <time>2021-09-17T20:17:16.000Z</time>
      </trkpt>
      <trkpt lat="50.43076" lon="3.50884">
        <ele>25.2</ele>
        <time>2021-09-17T20:20:25.000Z</time>
      </trkpt>
      <trkpt lat="50.43081" lon="3.5088">
        <ele>25.1</ele>
        <time>2021-09-17T20:21:16.000Z</time>
      </trkpt>
      <trkpt lat="50.43087" lon="3.50876">
        <ele>24.9</ele>
        <time>2021-09-17T20:21:19.621Z</time>
      </trkpt>
      <trkpt lat="50.43094" lon="3.50874">
        <ele>24.8</ele>
        <time>2021-09-17T20:21:22.724Z</time>
      </trkpt>
      <trkpt lat="50.43103" lon="3.50869">
        <ele>24.5</ele>
        <time>2021-09-17T20:21:26.008Z</time>
      </trkpt>
      <trkpt lat="50.43116" lon="3.50862">
        <ele>24</ele>
        <time>2021-09-17T20:21:30.021Z</time>
      </trkpt>
      <trkpt lat="50.43125" lon="3.5086">
        <ele>24</ele>
        <time>2021-09-17T20:21:34.000Z</time>
      </trkpt>
      <trkpt lat="50.43133" lon="3.50859">
        <ele>24</ele>
        <time>2021-09-17T20:21:36.375Z</time>
      </trkpt>
      <trkpt lat="50.43119" lon="3.50854">
        <ele>24</ele>
        <time>2021-09-17T20:21:44.086Z</time>
      </trkpt>
      <trkpt lat="50.43109" lon="3.50858">
        <ele>24.1</ele>
        <time>2021-09-17T20:21:47.409Z</time>
      </trkpt>
      <trkpt lat="50.43098" lon="3.50864">
        <ele>24.5</ele>
        <time>2021-09-17T20:21:50.624Z</time>
      </trkpt>
      <trkpt lat="50.43089" lon="3.50869">
        <ele>24.9</ele>
        <time>2021-09-17T20:21:53.863Z</time>
      </trkpt>
      <trkpt lat="50.43079" lon="3.50873">
        <ele>25.1</ele>
        <time>2021-09-17T20:21:57.219Z</time>
      </trkpt>
      <trkpt lat="50.43069" lon="3.50877">
        <ele>25.3</ele>
        <time>2021-09-17T20:22:01.000Z</time>
      </trkpt>
      <trkpt lat="50.43062" lon="3.50884">
        <ele>25.6</ele>
        <time>2021-09-17T20:22:04.000Z</time>
      </trkpt>
      <trkpt lat="50.43053" lon="3.50891">
        <ele>26</ele>
        <time>2021-09-17T20:22:07.000Z</time>
      </trkpt>
      <trkpt lat="50.4304" lon="3.50896">
        <ele>26.1</ele>
        <time>2021-09-17T20:22:10.563Z</time>
      </trkpt>
      <trkpt lat="50.43027" lon="3.50902">
        <ele>26.5</ele>
        <time>2021-09-17T20:22:16.000Z</time>
      </trkpt>
      <trkpt lat="50.43016" lon="3.50907">
        <ele>26.7</ele>
        <time>2021-09-17T20:22:19.272Z</time>
      </trkpt>
      <trkpt lat="50.43005" lon="3.5091">
        <ele>26.8</ele>
        <time>2021-09-17T20:22:23.228Z</time>
      </trkpt>
      <trkpt lat="50.42992" lon="3.50913">
        <ele>26.9</ele>
        <time>2021-09-17T20:22:27.165Z</time>
      </trkpt>
      <trkpt lat="50.42983" lon="3.50911">
        <ele>26.9</ele>
        <time>2021-09-17T20:22:31.000Z</time>
      </trkpt>
      <trkpt lat="50.42975" lon="3.50912">
        <ele>27</ele>
        <time>2021-09-17T20:22:34.000Z</time>
      </trkpt>
      <trkpt lat="50.42967" lon="3.50909">
        <ele>27.1</ele>
        <time>2021-09-17T20:22:37.000Z</time>
      </trkpt>
      <trkpt lat="50.42951" lon="3.50903">
        <ele>27.4</ele>
        <time>2021-09-17T20:22:43.000Z</time>
      </trkpt>
      <trkpt lat="50.42944" lon="3.50899">
        <ele>27.4</ele>
        <time>2021-09-17T20:22:46.000Z</time>
      </trkpt>
      <trkpt lat="50.42938" lon="3.50893">
        <ele>27.3</ele>
        <time>2021-09-17T20:22:49.000Z</time>
      </trkpt>
      <trkpt lat="50.42923" lon="3.50881">
        <ele>27.6</ele>
        <time>2021-09-17T20:22:53.774Z</time>
      </trkpt>
      <trkpt lat="50.42914" lon="3.50874">
        <ele>27.5</ele>
        <time>2021-09-17T20:22:56.852Z</time>
      </trkpt>
      <trkpt lat="50.42904" lon="3.50867">
        <ele>27.6</ele>
        <time>2021-09-17T20:23:01.000Z</time>
      </trkpt>
      <trkpt lat="50.42895" lon="3.50861">
        <ele>27.8</ele>
        <time>2021-09-17T20:23:04.000Z</time>
      </trkpt>
      <trkpt lat="50.42885" lon="3.50851">
        <ele>27.7</ele>
        <time>2021-09-17T20:23:06.690Z</time>
      </trkpt>
      <trkpt lat="50.42874" lon="3.50842">
        <ele>27.7</ele>
        <time>2021-09-17T20:23:10.349Z</time>
      </trkpt>
      <trkpt lat="50.42859" lon="3.50832">
        <ele>28</ele>
        <time>2021-09-17T20:23:14.968Z</time>
      </trkpt>
      <trkpt lat="50.42849" lon="3.50827">
        <ele>27.8</ele>
        <time>2021-09-17T20:23:19.000Z</time>
      </trkpt>
      <trkpt lat="50.4284" lon="3.50817">
        <ele>27.4</ele>
        <time>2021-09-17T20:23:21.607Z</time>
      </trkpt>
      <trkpt lat="50.42833" lon="3.50809">
        <ele>27.1</ele>
        <time>2021-09-17T20:23:24.667Z</time>
      </trkpt>
      <trkpt lat="50.42823" lon="3.50798">
        <ele>27.3</ele>
        <time>2021-09-17T20:23:28.335Z</time>
      </trkpt>
      <trkpt lat="50.42814" lon="3.5079">
        <ele>27.3</ele>
        <time>2021-09-17T20:23:31.654Z</time>
      </trkpt>
      <trkpt lat="50.42804" lon="3.50779">
        <ele>27.1</ele>
        <time>2021-09-17T20:23:35.649Z</time>
      </trkpt>
      <trkpt lat="50.42794" lon="3.50771">
        <ele>27.3</ele>
        <time>2021-09-17T20:23:40.000Z</time>
      </trkpt>
      <trkpt lat="50.42785" lon="3.50762">
        <ele>27.3</ele>
        <time>2021-09-17T20:23:43.000Z</time>
      </trkpt>
      <trkpt lat="50.42772" lon="3.50757">
        <ele>27.4</ele>
        <time>2021-09-17T20:23:45.871Z</time>
      </trkpt>
      <trkpt lat="50.42759" lon="3.50752">
        <ele>27.7</ele>
        <time>2021-09-17T20:23:50.013Z</time>
      </trkpt>
      <trkpt lat="50.42745" lon="3.50743">
        <ele>27.8</ele>
        <time>2021-09-17T20:23:55.000Z</time>
      </trkpt>
      <trkpt lat="50.42735" lon="3.50731">
        <ele>27.7</ele>
        <time>2021-09-17T20:23:57.729Z</time>
      </trkpt>
      <trkpt lat="50.42727" lon="3.50725">
        <ele>27.8</ele>
        <time>2021-09-17T20:24:01.000Z</time>
      </trkpt>
      <trkpt lat="50.42721" lon="3.50722">
        <ele>28</ele>
        <time>2021-09-17T20:24:01.968Z</time>
      </trkpt>
      <trkpt lat="50.42714" lon="3.50718">
        <ele>27.9</ele>
        <time>2021-09-17T20:24:05.000Z</time>
      </trkpt>
      <trkpt lat="50.4271" lon="3.50715">
        <ele>27.9</ele>
        <time>2021-09-17T20:24:05.672Z</time>
      </trkpt>
      <trkpt lat="50.42702" lon="3.50709">
        <ele>27.9</ele>
        <time>2021-09-17T20:24:08.009Z</time>
      </trkpt>
      <trkpt lat="50.42693" lon="3.50703">
        <ele>28</ele>
        <time>2021-09-17T20:24:10.909Z</time>
      </trkpt>
      <trkpt lat="50.42689" lon="3.507">
        <ele>28</ele>
        <time>2021-09-17T20:24:13.000Z</time>
      </trkpt>
      <trkpt lat="50.42682" lon="3.50695">
        <ele>28</ele>
        <time>2021-09-17T20:24:15.000Z</time>
      </trkpt>
      <trkpt lat="50.42676" lon="3.5069">
        <ele>27.8</ele>
        <time>2021-09-17T20:24:17.000Z</time>
      </trkpt>
      <trkpt lat="50.42669" lon="3.50684">
        <ele>27.6</ele>
        <time>2021-09-17T20:24:19.000Z</time>
      </trkpt>
      <trkpt lat="50.42661" lon="3.50687">
        <ele>27.7</ele>
        <time>2021-09-17T20:24:20.768Z</time>
      </trkpt>
      <trkpt lat="50.42657" lon="3.50681">
        <ele>27.5</ele>
        <time>2021-09-17T20:24:21.965Z</time>
      </trkpt>
      <trkpt lat="50.42653" lon="3.50676">
        <ele>27.3</ele>
        <time>2021-09-17T20:24:24.000Z</time>
      </trkpt>
      <trkpt lat="50.42649" lon="3.50671">
        <ele>27.2</ele>
        <time>2021-09-17T20:24:25.000Z</time>
      </trkpt>
      <trkpt lat="50.42643" lon="3.50664">
        <ele>27</ele>
        <time>2021-09-17T20:24:25.931Z</time>
      </trkpt>
      <trkpt lat="50.4264" lon="3.50659">
        <ele>27</ele>
        <time>2021-09-17T20:24:27.146Z</time>
      </trkpt>
      <trkpt lat="50.42633" lon="3.50653">
        <ele>27</ele>
        <time>2021-09-17T20:24:30.000Z</time>
      </trkpt>
      <trkpt lat="50.42624" lon="3.50648">
        <ele>27</ele>
        <time>2021-09-17T20:24:31.594Z</time>
      </trkpt>
      <trkpt lat="50.42615" lon="3.50641">
        <ele>27</ele>
        <time>2021-09-17T20:24:35.000Z</time>
      </trkpt>
      <trkpt lat="50.42609" lon="3.50635">
        <ele>27</ele>
        <time>2021-09-17T20:24:35.968Z</time>
      </trkpt>
      <trkpt lat="50.42603" lon="3.50629">
        <ele>27</ele>
        <time>2021-09-17T20:24:39.000Z</time>
      </trkpt>
      <trkpt lat="50.42595" lon="3.50623">
        <ele>27</ele>
        <time>2021-09-17T20:24:40.709Z</time>
      </trkpt>
      <trkpt lat="50.42588" lon="3.50617">
        <ele>27</ele>
        <time>2021-09-17T20:24:44.000Z</time>
      </trkpt>
      <trkpt lat="50.42582" lon="3.50612">
        <ele>27</ele>
        <time>2021-09-17T20:24:44.892Z</time>
      </trkpt>
      <trkpt lat="50.42575" lon="3.50608">
        <ele>27</ele>
        <time>2021-09-17T20:24:47.146Z</time>
      </trkpt>
      <trkpt lat="50.42566" lon="3.50603">
        <ele>27</ele>
        <time>2021-09-17T20:24:49.775Z</time>
      </trkpt>
      <trkpt lat="50.42562" lon="3.506">
        <ele>27</ele>
        <time>2021-09-17T20:24:51.111Z</time>
      </trkpt>
      <trkpt lat="50.42554" lon="3.50595">
        <ele>27</ele>
        <time>2021-09-17T20:24:53.769Z</time>
      </trkpt>
      <trkpt lat="50.4255" lon="3.50591">
        <ele>27</ele>
        <time>2021-09-17T20:24:56.000Z</time>
      </trkpt>
      <trkpt lat="50.42542" lon="3.50585">
        <ele>27</ele>
        <time>2021-09-17T20:24:58.000Z</time>
      </trkpt>
      <trkpt lat="50.42534" lon="3.50582">
        <ele>27</ele>
        <time>2021-09-17T20:25:01.000Z</time>
      </trkpt>
      <trkpt lat="50.42526" lon="3.50574">
        <ele>27</ele>
        <time>2021-09-17T20:25:01.865Z</time>
      </trkpt>
      <trkpt lat="50.4252" lon="3.5057">
        <ele>27</ele>
        <time>2021-09-17T20:25:04.000Z</time>
      </trkpt>
      <trkpt lat="50.4251" lon="3.5056">
        <ele>27</ele>
        <time>2021-09-17T20:25:06.065Z</time>
      </trkpt>
      <trkpt lat="50.42505" lon="3.50557">
        <ele>27</ele>
        <time>2021-09-17T20:25:09.000Z</time>
      </trkpt>
      <trkpt lat="50.42498" lon="3.50549">
        <ele>26.8</ele>
        <time>2021-09-17T20:25:17.925Z</time>
      </trkpt>
      <trkpt lat="50.42489" lon="3.50542">
        <ele>26.5</ele>
        <time>2021-09-17T20:25:22.000Z</time>
      </trkpt>
      <trkpt lat="50.4248" lon="3.50536">
        <ele>26.3</ele>
        <time>2021-09-17T20:25:24.110Z</time>
      </trkpt>
      <trkpt lat="50.42472" lon="3.50528">
        <ele>26</ele>
        <time>2021-09-17T20:25:26.671Z</time>
      </trkpt>
      <trkpt lat="50.42462" lon="3.50521">
        <ele>25.9</ele>
        <time>2021-09-17T20:25:29.049Z</time>
      </trkpt>
      <trkpt lat="50.42454" lon="3.50514">
        <ele>25.7</ele>
        <time>2021-09-17T20:25:31.714Z</time>
      </trkpt>
      <trkpt lat="50.42449" lon="3.5051">
        <ele>25.5</ele>
        <time>2021-09-17T20:25:34.000Z</time>
      </trkpt>
      <trkpt lat="50.42442" lon="3.50504">
        <ele>25.1</ele>
        <time>2021-09-17T20:25:36.000Z</time>
      </trkpt>
      <trkpt lat="50.42437" lon="3.505">
        <ele>25</ele>
        <time>2021-09-17T20:25:36.550Z</time>
      </trkpt>
      <trkpt lat="50.42432" lon="3.50498">
        <ele>25</ele>
        <time>2021-09-17T20:25:37.626Z</time>
      </trkpt>
      <trkpt lat="50.42425" lon="3.50493">
        <ele>25</ele>
        <time>2021-09-17T20:25:38.952Z</time>
      </trkpt>
      <trkpt lat="50.42417" lon="3.50487">
        <ele>25</ele>
        <time>2021-09-17T20:25:42.000Z</time>
      </trkpt>
      <trkpt lat="50.42411" lon="3.50482">
        <ele>25</ele>
        <time>2021-09-17T20:25:42.771Z</time>
      </trkpt>
      <trkpt lat="50.42407" lon="3.50479">
        <ele>25</ele>
        <time>2021-09-17T20:25:43.911Z</time>
      </trkpt>
      <trkpt lat="50.42402" lon="3.50475">
        <ele>25</ele>
        <time>2021-09-17T20:25:45.210Z</time>
      </trkpt>
      <trkpt lat="50.42397" lon="3.5047">
        <ele>25</ele>
        <time>2021-09-17T20:25:46.589Z</time>
      </trkpt>
      <trkpt lat="50.42388" lon="3.50463">
        <ele>25</ele>
        <time>2021-09-17T20:25:48.765Z</time>
      </trkpt>
      <trkpt lat="50.42384" lon="3.50461">
        <ele>24.9</ele>
        <time>2021-09-17T20:25:49.973Z</time>
      </trkpt>
      <trkpt lat="50.42378" lon="3.50456">
        <ele>24.8</ele>
        <time>2021-09-17T20:25:51.151Z</time>
      </trkpt>
      <trkpt lat="50.42368" lon="3.50448">
        <ele>24.3</ele>
        <time>2021-09-17T20:25:55.000Z</time>
      </trkpt>
      <trkpt lat="50.42361" lon="3.50443">
        <ele>24</ele>
        <time>2021-09-17T20:25:57.000Z</time>
      </trkpt>
      <trkpt lat="50.42353" lon="3.50434">
        <ele>24</ele>
        <time>2021-09-17T20:25:58.972Z</time>
      </trkpt>
      <trkpt lat="50.42348" lon="3.5043">
        <ele>24</ele>
        <time>2021-09-17T20:26:00.084Z</time>
      </trkpt>
      <trkpt lat="50.4234" lon="3.50425">
        <ele>24</ele>
        <time>2021-09-17T20:26:02.189Z</time>
      </trkpt>
      <trkpt lat="50.42335" lon="3.50422">
        <ele>24</ele>
        <time>2021-09-17T20:26:04.000Z</time>
      </trkpt>
      <trkpt lat="50.42329" lon="3.50414">
        <ele>24</ele>
        <time>2021-09-17T20:26:05.934Z</time>
      </trkpt>
      <trkpt lat="50.42322" lon="3.50409">
        <ele>24</ele>
        <time>2021-09-17T20:26:08.000Z</time>
      </trkpt>
      <trkpt lat="50.42315" lon="3.50401">
        <ele>24</ele>
        <time>2021-09-17T20:26:11.000Z</time>
      </trkpt>
      <trkpt lat="50.4231" lon="3.50397">
        <ele>24</ele>
        <time>2021-09-17T20:26:12.000Z</time>
      </trkpt>
      <trkpt lat="50.42303" lon="3.50392">
        <ele>24</ele>
        <time>2021-09-17T20:26:12.692Z</time>
      </trkpt>
      <trkpt lat="50.42298" lon="3.50389">
        <ele>24</ele>
        <time>2021-09-17T20:26:13.834Z</time>
      </trkpt>
      <trkpt lat="50.42293" lon="3.50387">
        <ele>24</ele>
        <time>2021-09-17T20:26:15.013Z</time>
      </trkpt>
      <trkpt lat="50.42287" lon="3.50384">
        <ele>24</ele>
        <time>2021-09-17T20:26:17.000Z</time>
      </trkpt>
      <trkpt lat="50.4228" lon="3.50379">
        <ele>24</ele>
        <time>2021-09-17T20:26:17.968Z</time>
      </trkpt>
      <trkpt lat="50.42275" lon="3.50375">
        <ele>24</ele>
        <time>2021-09-17T20:26:19.194Z</time>
      </trkpt>
      <trkpt lat="50.42271" lon="3.50371">
        <ele>24</ele>
        <time>2021-09-17T20:26:21.000Z</time>
      </trkpt>
      <trkpt lat="50.42263" lon="3.50364">
        <ele>24</ele>
        <time>2021-09-17T20:26:22.432Z</time>
      </trkpt>
      <trkpt lat="50.42258" lon="3.50361">
        <ele>24</ele>
        <time>2021-09-17T20:26:23.498Z</time>
      </trkpt>
      <trkpt lat="50.42254" lon="3.50357">
        <ele>24</ele>
        <time>2021-09-17T20:26:24.836Z</time>
      </trkpt>
      <trkpt lat="50.42249" lon="3.50352">
        <ele>24</ele>
        <time>2021-09-17T20:26:27.000Z</time>
      </trkpt>
      <trkpt lat="50.42245" lon="3.50348">
        <ele>24</ele>
        <time>2021-09-17T20:26:27.350Z</time>
      </trkpt>
      <trkpt lat="50.42241" lon="3.50345">
        <ele>24</ele>
        <time>2021-09-17T20:26:28.466Z</time>
      </trkpt>
      <trkpt lat="50.42236" lon="3.50343">
        <ele>24</ele>
        <time>2021-09-17T20:26:29.689Z</time>
      </trkpt>
      <trkpt lat="50.42231" lon="3.50339">
        <ele>24</ele>
        <time>2021-09-17T20:26:30.972Z</time>
      </trkpt>
      <trkpt lat="50.42225" lon="3.50335">
        <ele>24</ele>
        <time>2021-09-17T20:26:32.532Z</time>
      </trkpt>
      <trkpt lat="50.42217" lon="3.50329">
        <ele>24</ele>
        <time>2021-09-17T20:26:34.798Z</time>
      </trkpt>
      <trkpt lat="50.42212" lon="3.50326">
        <ele>24</ele>
        <time>2021-09-17T20:26:37.000Z</time>
      </trkpt>
      <trkpt lat="50.42207" lon="3.50322">
        <ele>24</ele>
        <time>2021-09-17T20:26:37.496Z</time>
      </trkpt>
      <trkpt lat="50.42203" lon="3.50319">
        <ele>24</ele>
        <time>2021-09-17T20:26:38.700Z</time>
      </trkpt>
      <trkpt lat="50.42198" lon="3.50316">
        <ele>24</ele>
        <time>2021-09-17T20:26:40.020Z</time>
      </trkpt>
      <trkpt lat="50.42194" lon="3.50313">
        <ele>24</ele>
        <time>2021-09-17T20:26:41.194Z</time>
      </trkpt>
      <trkpt lat="50.42186" lon="3.50308">
        <ele>24</ele>
        <time>2021-09-17T20:26:43.218Z</time>
      </trkpt>
      <trkpt lat="50.42178" lon="3.50302">
        <ele>24</ele>
        <time>2021-09-17T20:26:45.690Z</time>
      </trkpt>
      <trkpt lat="50.42173" lon="3.50299">
        <ele>24</ele>
        <time>2021-09-17T20:26:46.948Z</time>
      </trkpt>
      <trkpt lat="50.42165" lon="3.50292">
        <ele>23.9</ele>
        <time>2021-09-17T20:26:49.214Z</time>
      </trkpt>
      <trkpt lat="50.42159" lon="3.50288">
        <ele>23.7</ele>
        <time>2021-09-17T20:26:50.691Z</time>
      </trkpt>
      <trkpt lat="50.42154" lon="3.50284">
        <ele>23.5</ele>
        <time>2021-09-17T20:26:53.000Z</time>
      </trkpt>
      <trkpt lat="50.42145" lon="3.50277">
        <ele>23.2</ele>
        <time>2021-09-17T20:26:54.431Z</time>
      </trkpt>
      <trkpt lat="50.42139" lon="3.50271">
        <ele>23</ele>
        <time>2021-09-17T20:26:56.208Z</time>
      </trkpt>
      <trkpt lat="50.42135" lon="3.50268">
        <ele>23</ele>
        <time>2021-09-17T20:26:58.000Z</time>
      </trkpt>
      <trkpt lat="50.42131" lon="3.50264">
        <ele>23</ele>
        <time>2021-09-17T20:26:59.000Z</time>
      </trkpt>
      <trkpt lat="50.42126" lon="3.5026">
        <ele>23</ele>
        <time>2021-09-17T20:26:59.577Z</time>
      </trkpt>
      <trkpt lat="50.42122" lon="3.50256">
        <ele>23</ele>
        <time>2021-09-17T20:27:00.717Z</time>
      </trkpt>
      <trkpt lat="50.42116" lon="3.50252">
        <ele>23</ele>
        <time>2021-09-17T20:27:02.092Z</time>
      </trkpt>
      <trkpt lat="50.42112" lon="3.50249">
        <ele>23</ele>
        <time>2021-09-17T20:27:04.000Z</time>
      </trkpt>
      <trkpt lat="50.42103" lon="3.50242">
        <ele>23</ele>
        <time>2021-09-17T20:27:05.796Z</time>
      </trkpt>
      <trkpt lat="50.42094" lon="3.50238">
        <ele>23</ele>
        <time>2021-09-17T20:27:09.000Z</time>
      </trkpt>
      <trkpt lat="50.4209" lon="3.50235">
        <ele>23</ele>
        <time>2021-09-17T20:27:09.612Z</time>
      </trkpt>
      <trkpt lat="50.42085" lon="3.5023">
        <ele>23</ele>
        <time>2021-09-17T20:27:10.988Z</time>
      </trkpt>
      <trkpt lat="50.42077" lon="3.50225">
        <ele>23</ele>
        <time>2021-09-17T20:27:14.000Z</time>
      </trkpt>
      <trkpt lat="50.4207" lon="3.50219">
        <ele>23</ele>
        <time>2021-09-17T20:27:15.535Z</time>
      </trkpt>
      <trkpt lat="50.42066" lon="3.50215">
        <ele>23</ele>
        <time>2021-09-17T20:27:16.818Z</time>
      </trkpt>
      <trkpt lat="50.4206" lon="3.50209">
        <ele>23</ele>
        <time>2021-09-17T20:27:19.000Z</time>
      </trkpt>
      <trkpt lat="50.42054" lon="3.50204">
        <ele>23.1</ele>
        <time>2021-09-17T20:27:21.000Z</time>
      </trkpt>
      <trkpt lat="50.42048" lon="3.50202">
        <ele>23.3</ele>
        <time>2021-09-17T20:27:21.969Z</time>
      </trkpt>
      <trkpt lat="50.42041" lon="3.50197">
        <ele>23.5</ele>
        <time>2021-09-17T20:27:25.000Z</time>
      </trkpt>
      <trkpt lat="50.42036" lon="3.50193">
        <ele>23.7</ele>
        <time>2021-09-17T20:27:25.675Z</time>
      </trkpt>
      <trkpt lat="50.4203" lon="3.50186">
        <ele>23.9</ele>
        <time>2021-09-17T20:27:27.010Z</time>
      </trkpt>
      <trkpt lat="50.42023" lon="3.5018">
        <ele>24</ele>
        <time>2021-09-17T20:27:30.000Z</time>
      </trkpt>
      <trkpt lat="50.42019" lon="3.50177">
        <ele>24</ele>
        <time>2021-09-17T20:27:30.697Z</time>
      </trkpt>
      <trkpt lat="50.4201" lon="3.5017">
        <ele>24</ele>
        <time>2021-09-17T20:27:33.157Z</time>
      </trkpt>
      <trkpt lat="50.42004" lon="3.50166">
        <ele>24</ele>
        <time>2021-09-17T20:27:34.935Z</time>
      </trkpt>
      <trkpt lat="50.41997" lon="3.5016">
        <ele>24.1</ele>
        <time>2021-09-17T20:27:38.000Z</time>
      </trkpt>
      <trkpt lat="50.41992" lon="3.50155">
        <ele>24.2</ele>
        <time>2021-09-17T20:27:38.714Z</time>
      </trkpt>
      <trkpt lat="50.41987" lon="3.50151">
        <ele>24.2</ele>
        <time>2021-09-17T20:27:40.135Z</time>
      </trkpt>
      <trkpt lat="50.41983" lon="3.50146">
        <ele>24.2</ele>
        <time>2021-09-17T20:27:41.716Z</time>
      </trkpt>
      <trkpt lat="50.41977" lon="3.50142">
        <ele>24.1</ele>
        <time>2021-09-17T20:27:44.000Z</time>
      </trkpt>
      <trkpt lat="50.41969" lon="3.50136">
        <ele>24.1</ele>
        <time>2021-09-17T20:27:45.728Z</time>
      </trkpt>
      <trkpt lat="50.41965" lon="3.50132">
        <ele>24.3</ele>
        <time>2021-09-17T20:27:47.132Z</time>
      </trkpt>
      <trkpt lat="50.41955" lon="3.50126">
        <ele>24.6</ele>
        <time>2021-09-17T20:27:49.835Z</time>
      </trkpt>
      <trkpt lat="50.41946" lon="3.5012">
        <ele>24.9</ele>
        <time>2021-09-17T20:27:52.137Z</time>
      </trkpt>
      <trkpt lat="50.41939" lon="3.50114">
        <ele>25</ele>
        <time>2021-09-17T20:27:55.000Z</time>
      </trkpt>
      <trkpt lat="50.41934" lon="3.5011">
        <ele>25</ele>
        <time>2021-09-17T20:27:55.776Z</time>
      </trkpt>
      <trkpt lat="50.4193" lon="3.50107">
        <ele>24.9</ele>
        <time>2021-09-17T20:27:56.888Z</time>
      </trkpt>
      <trkpt lat="50.41925" lon="3.50103">
        <ele>24.9</ele>
        <time>2021-09-17T20:27:59.000Z</time>
      </trkpt>
      <trkpt lat="50.4192" lon="3.501">
        <ele>25</ele>
        <time>2021-09-17T20:27:59.953Z</time>
      </trkpt>
      <trkpt lat="50.41912" lon="3.50095">
        <ele>25</ele>
        <time>2021-09-17T20:28:02.754Z</time>
      </trkpt>
      <trkpt lat="50.41907" lon="3.50093">
        <ele>25</ele>
        <time>2021-09-17T20:28:03.895Z</time>
      </trkpt>
      <trkpt lat="50.41903" lon="3.5009">
        <ele>25</ele>
        <time>2021-09-17T20:28:05.053Z</time>
      </trkpt>
      <trkpt lat="50.41896" lon="3.50086">
        <ele>25</ele>
        <time>2021-09-17T20:28:06.954Z</time>
      </trkpt>
      <trkpt lat="50.41891" lon="3.50082">
        <ele>25</ele>
        <time>2021-09-17T20:28:09.000Z</time>
      </trkpt>
      <trkpt lat="50.41885" lon="3.50077">
        <ele>24.8</ele>
        <time>2021-09-17T20:28:09.771Z</time>
      </trkpt>
      <trkpt lat="50.4188" lon="3.50073">
        <ele>24.7</ele>
        <time>2021-09-17T20:28:11.117Z</time>
      </trkpt>
      <trkpt lat="50.41874" lon="3.50066">
        <ele>24.7</ele>
        <time>2021-09-17T20:28:13.000Z</time>
      </trkpt>
      <trkpt lat="50.41864" lon="3.50058">
        <ele>24.9</ele>
        <time>2021-09-17T20:28:15.000Z</time>
      </trkpt>
      <trkpt lat="50.4186" lon="3.50055">
        <ele>25</ele>
        <time>2021-09-17T20:28:16.000Z</time>
      </trkpt>
      <trkpt lat="50.41856" lon="3.50051">
        <ele>25</ele>
        <time>2021-09-17T20:28:16.659Z</time>
      </trkpt>
      <trkpt lat="50.4185" lon="3.50052">
        <ele>25</ele>
        <time>2021-09-17T20:28:19.000Z</time>
      </trkpt>
      <trkpt lat="50.41853" lon="3.50066">
        <ele>25</ele>
        <time>2021-09-17T20:28:20.194Z</time>
      </trkpt>
      <trkpt lat="50.41856" lon="3.50072">
        <ele>25</ele>
        <time>2021-09-17T20:28:22.000Z</time>
      </trkpt>
      <trkpt lat="50.4186" lon="3.50082">
        <ele>25</ele>
        <time>2021-09-17T20:28:24.000Z</time>
      </trkpt>
      <trkpt lat="50.41863" lon="3.50091">
        <ele>25</ele>
        <time>2021-09-17T20:28:25.658Z</time>
      </trkpt>
      <trkpt lat="50.41858" lon="3.50084">
        <ele>25</ele>
        <time>2021-09-17T20:28:34.000Z</time>
      </trkpt>
      <trkpt lat="50.41855" lon="3.50076">
        <ele>25</ele>
        <time>2021-09-17T20:28:36.236Z</time>
      </trkpt>
      <trkpt lat="50.41852" lon="3.50071">
        <ele>25</ele>
        <time>2021-09-17T20:28:40.000Z</time>
      </trkpt>
      <trkpt lat="50.41846" lon="3.50068">
        <ele>25</ele>
        <time>2021-09-17T20:28:44.000Z</time>
      </trkpt>
      <trkpt lat="50.4184" lon="3.50067">
        <ele>25</ele>
        <time>2021-09-17T20:28:46.256Z</time>
      </trkpt>
      <trkpt lat="50.41834" lon="3.5007">
        <ele>25</ele>
        <time>2021-09-17T20:28:50.000Z</time>
      </trkpt>
      <trkpt lat="50.41831" lon="3.50074">
        <ele>25</ele>
        <time>2021-09-17T20:28:53.000Z</time>
      </trkpt>
      <trkpt lat="50.41833" lon="3.50066">
        <ele>25</ele>
        <time>2021-09-17T20:28:58.000Z</time>
      </trkpt>
      <trkpt lat="50.41834" lon="3.50059">
        <ele>25</ele>
        <time>2021-09-17T20:28:58.913Z</time>
      </trkpt>
      <trkpt lat="50.41837" lon="3.5005">
        <ele>25</ele>
        <time>2021-09-17T20:29:01.793Z</time>
      </trkpt>
      <trkpt lat="50.41842" lon="3.50044">
        <ele>25</ele>
        <time>2021-09-17T20:29:05.938Z</time>
      </trkpt>
      <trkpt lat="50.41846" lon="3.50039">
        <ele>25</ele>
        <time>2021-09-17T20:29:08.772Z</time>
      </trkpt>
      <trkpt lat="50.4185" lon="3.50033">
        <ele>25</ele>
        <time>2021-09-17T20:29:10.860Z</time>
      </trkpt>
      <trkpt lat="50.41853" lon="3.50026">
        <ele>25</ele>
        <time>2021-09-17T20:29:13.112Z</time>
      </trkpt>
      <trkpt lat="50.41852" lon="3.50017">
        <ele>25</ele>
        <time>2021-09-17T20:29:16.000Z</time>
      </trkpt>
      <trkpt lat="50.41854" lon="3.50004">
        <ele>25</ele>
        <time>2021-09-17T20:29:18.016Z</time>
      </trkpt>
      <trkpt lat="50.41857" lon="3.49993">
        <ele>25</ele>
        <time>2021-09-17T20:29:21.000Z</time>
      </trkpt>
      <trkpt lat="50.4186" lon="3.49983">
        <ele>25</ele>
        <time>2021-09-17T20:29:22.549Z</time>
      </trkpt>
      <trkpt lat="50.41863" lon="3.49976">
        <ele>24.9</ele>
        <time>2021-09-17T20:29:23.996Z</time>
      </trkpt>
      <trkpt lat="50.41867" lon="3.49966">
        <ele>24.8</ele>
        <time>2021-09-17T20:29:26.395Z</time>
      </trkpt>
      <trkpt lat="50.41871" lon="3.49955">
        <ele>24.6</ele>
        <time>2021-09-17T20:29:28.772Z</time>
      </trkpt>
      <trkpt lat="50.41875" lon="3.49947">
        <ele>24.5</ele>
        <time>2021-09-17T20:29:31.000Z</time>
      </trkpt>
      <trkpt lat="50.41879" lon="3.49937">
        <ele>24.4</ele>
        <time>2021-09-17T20:29:32.419Z</time>
      </trkpt>
      <trkpt lat="50.41881" lon="3.49931">
        <ele>24.3</ele>
        <time>2021-09-17T20:29:33.860Z</time>
      </trkpt>
      <trkpt lat="50.41884" lon="3.49925">
        <ele>24.2</ele>
        <time>2021-09-17T20:29:36.000Z</time>
      </trkpt>
      <trkpt lat="50.41878" lon="3.49927">
        <ele>24.4</ele>
        <time>2021-09-17T20:29:42.457Z</time>
      </trkpt>
      <trkpt lat="50.41875" lon="3.49936">
        <ele>24.5</ele>
        <time>2021-09-17T20:29:44.833Z</time>
      </trkpt>
      <trkpt lat="50.41873" lon="3.49942">
        <ele>24.6</ele>
        <time>2021-09-17T20:29:47.000Z</time>
      </trkpt>
      <trkpt lat="50.41868" lon="3.49953">
        <ele>24.8</ele>
        <time>2021-09-17T20:29:48.893Z</time>
      </trkpt>
      <trkpt lat="50.41863" lon="3.49964">
        <ele>24.9</ele>
        <time>2021-09-17T20:29:52.000Z</time>
      </trkpt>
      <trkpt lat="50.41859" lon="3.49977">
        <ele>25</ele>
        <time>2021-09-17T20:29:55.000Z</time>
      </trkpt>
      <trkpt lat="50.41856" lon="3.49986">
        <ele>25</ele>
        <time>2021-09-17T20:29:56.432Z</time>
      </trkpt>
      <trkpt lat="50.41854" lon="3.49993">
        <ele>25</ele>
        <time>2021-09-17T20:29:58.059Z</time>
      </trkpt>
      <trkpt lat="50.4185" lon="3.50009">
        <ele>25</ele>
        <time>2021-09-17T20:30:01.034Z</time>
      </trkpt>
      <trkpt lat="50.41847" lon="3.50017">
        <ele>25</ele>
        <time>2021-09-17T20:30:03.139Z</time>
      </trkpt>
      <trkpt lat="50.41841" lon="3.50027">
        <ele>25</ele>
        <time>2021-09-17T20:30:05.953Z</time>
      </trkpt>
      <trkpt lat="50.41833" lon="3.50027">
        <ele>25</ele>
        <time>2021-09-17T20:30:08.536Z</time>
      </trkpt>
      <trkpt lat="50.41827" lon="3.50019">
        <ele>25</ele>
        <time>2021-09-17T20:30:10.912Z</time>
      </trkpt>
      <trkpt lat="50.41823" lon="3.50007">
        <ele>25</ele>
        <time>2021-09-17T20:30:14.000Z</time>
      </trkpt>
      <trkpt lat="50.41821" lon="3.49999">
        <ele>25</ele>
        <time>2021-09-17T20:30:14.738Z</time>
      </trkpt>
      <trkpt lat="50.41817" lon="3.49988">
        <ele>25</ele>
        <time>2021-09-17T20:30:17.179Z</time>
      </trkpt>
      <trkpt lat="50.41814" lon="3.49973">
        <ele>25</ele>
        <time>2021-09-17T20:30:21.000Z</time>
      </trkpt>
      <trkpt lat="50.4181" lon="3.49964">
        <ele>25</ele>
        <time>2021-09-17T20:30:23.000Z</time>
      </trkpt>
      <trkpt lat="50.41806" lon="3.49952">
        <ele>25</ele>
        <time>2021-09-17T20:30:24.916Z</time>
      </trkpt>
      <trkpt lat="50.41803" lon="3.49945">
        <ele>25</ele>
        <time>2021-09-17T20:30:26.393Z</time>
      </trkpt>
      <trkpt lat="50.418" lon="3.49937">
        <ele>25</ele>
        <time>2021-09-17T20:30:29.000Z</time>
      </trkpt>
      <trkpt lat="50.41797" lon="3.4993">
        <ele>25</ele>
        <time>2021-09-17T20:30:29.662Z</time>
      </trkpt>
      <trkpt lat="50.41794" lon="3.49923">
        <ele>25</ele>
        <time>2021-09-17T20:30:31.136Z</time>
      </trkpt>
      <trkpt lat="50.41789" lon="3.49912">
        <ele>25</ele>
        <time>2021-09-17T20:30:33.704Z</time>
      </trkpt>
      <trkpt lat="50.41787" lon="3.49905">
        <ele>25</ele>
        <time>2021-09-17T20:30:35.075Z</time>
      </trkpt>
      <trkpt lat="50.41786" lon="3.49897">
        <ele>25</ele>
        <time>2021-09-17T20:30:36.736Z</time>
      </trkpt>
      <trkpt lat="50.41788" lon="3.49904">
        <ele>25</ele>
        <time>2021-09-17T20:30:42.755Z</time>
      </trkpt>
      <trkpt lat="50.41792" lon="3.49911">
        <ele>25</ele>
        <time>2021-09-17T20:30:45.018Z</time>
      </trkpt>
      <trkpt lat="50.41795" lon="3.4992">
        <ele>25</ele>
        <time>2021-09-17T20:30:47.198Z</time>
      </trkpt>
      <trkpt lat="50.41797" lon="3.49929">
        <ele>25</ele>
        <time>2021-09-17T20:30:50.000Z</time>
      </trkpt>
      <trkpt lat="50.41801" lon="3.49942">
        <ele>25</ele>
        <time>2021-09-17T20:30:51.959Z</time>
      </trkpt>
      <trkpt lat="50.41804" lon="3.49952">
        <ele>25</ele>
        <time>2021-09-17T20:30:55.000Z</time>
      </trkpt>
      <trkpt lat="50.41808" lon="3.49962">
        <ele>25</ele>
        <time>2021-09-17T20:30:56.739Z</time>
      </trkpt>
      <trkpt lat="50.41811" lon="3.49968">
        <ele>25</ele>
        <time>2021-09-17T20:30:59.000Z</time>
      </trkpt>
      <trkpt lat="50.41816" lon="3.49979">
        <ele>25</ele>
        <time>2021-09-17T20:31:00.778Z</time>
      </trkpt>
      <trkpt lat="50.41821" lon="3.49989">
        <ele>25</ele>
        <time>2021-09-17T20:31:04.000Z</time>
      </trkpt>
      <trkpt lat="50.41825" lon="3.49999">
        <ele>25</ele>
        <time>2021-09-17T20:31:05.720Z</time>
      </trkpt>
      <trkpt lat="50.41829" lon="3.50008">
        <ele>25</ele>
        <time>2021-09-17T20:31:07.916Z</time>
      </trkpt>
      <trkpt lat="50.41834" lon="3.50016">
        <ele>25</ele>
        <time>2021-09-17T20:31:11.000Z</time>
      </trkpt>
      <trkpt lat="50.41838" lon="3.50023">
        <ele>25</ele>
        <time>2021-09-17T20:31:13.000Z</time>
      </trkpt>
      <trkpt lat="50.41846" lon="3.50028">
        <ele>25</ele>
        <time>2021-09-17T20:31:14.717Z</time>
      </trkpt>
      <trkpt lat="50.4185" lon="3.50026">
        <ele>25</ele>
        <time>2021-09-17T20:31:17.000Z</time>
      </trkpt>
      <trkpt lat="50.41856" lon="3.50018">
        <ele>25</ele>
        <time>2021-09-17T20:31:18.179Z</time>
      </trkpt>
      <trkpt lat="50.4186" lon="3.50006">
        <ele>25</ele>
        <time>2021-09-17T20:31:20.695Z</time>
      </trkpt>
      <trkpt lat="50.41864" lon="3.49993">
        <ele>24.9</ele>
        <time>2021-09-17T20:31:22.958Z</time>
      </trkpt>
      <trkpt lat="50.4187" lon="3.49978">
        <ele>24.7</ele>
        <time>2021-09-17T20:31:25.876Z</time>
      </trkpt>
      <trkpt lat="50.41872" lon="3.49972">
        <ele>24.6</ele>
        <time>2021-09-17T20:31:28.000Z</time>
      </trkpt>
      <trkpt lat="50.41875" lon="3.49965">
        <ele>24.5</ele>
        <time>2021-09-17T20:31:28.552Z</time>
      </trkpt>
      <trkpt lat="50.41879" lon="3.49953">
        <ele>24.4</ele>
        <time>2021-09-17T20:31:30.816Z</time>
      </trkpt>
      <trkpt lat="50.41881" lon="3.49947">
        <ele>24.3</ele>
        <time>2021-09-17T20:31:32.175Z</time>
      </trkpt>
      <trkpt lat="50.41885" lon="3.49935">
        <ele>24.1</ele>
        <time>2021-09-17T20:31:34.491Z</time>
      </trkpt>
      <trkpt lat="50.41887" lon="3.49928">
        <ele>24.1</ele>
        <time>2021-09-17T20:31:35.979Z</time>
      </trkpt>
      <trkpt lat="50.4189" lon="3.49921">
        <ele>24</ele>
        <time>2021-09-17T20:31:38.000Z</time>
      </trkpt>
      <trkpt lat="50.41894" lon="3.49913">
        <ele>24.1</ele>
        <time>2021-09-17T20:31:38.618Z</time>
      </trkpt>
      <trkpt lat="50.41896" lon="3.49907">
        <ele>24.3</ele>
        <time>2021-09-17T20:31:39.994Z</time>
      </trkpt>
      <trkpt lat="50.41902" lon="3.49893">
        <ele>24.4</ele>
        <time>2021-09-17T20:31:44.000Z</time>
      </trkpt>
      <trkpt lat="50.41907" lon="3.49881">
        <ele>24.5</ele>
        <time>2021-09-17T20:31:45.617Z</time>
      </trkpt>
      <trkpt lat="50.41911" lon="3.49874">
        <ele>24.6</ele>
        <time>2021-09-17T20:31:47.017Z</time>
      </trkpt>
      <trkpt lat="50.41913" lon="3.49863">
        <ele>24.9</ele>
        <time>2021-09-17T20:31:49.212Z</time>
      </trkpt>
      <trkpt lat="50.41917" lon="3.49849">
        <ele>25</ele>
        <time>2021-09-17T20:31:51.180Z</time>
      </trkpt>
      <trkpt lat="50.41921" lon="3.49836">
        <ele>24.8</ele>
        <time>2021-09-17T20:31:53.977Z</time>
      </trkpt>
      <trkpt lat="50.41926" lon="3.49826">
        <ele>24.8</ele>
        <time>2021-09-17T20:31:57.000Z</time>
      </trkpt>
      <trkpt lat="50.41932" lon="3.49813">
        <ele>24.9</ele>
        <time>2021-09-17T20:31:58.623Z</time>
      </trkpt>
      <trkpt lat="50.41936" lon="3.49801">
        <ele>25</ele>
        <time>2021-09-17T20:32:00.899Z</time>
      </trkpt>
      <trkpt lat="50.41939" lon="3.49794">
        <ele>25</ele>
        <time>2021-09-17T20:32:03.000Z</time>
      </trkpt>
      <trkpt lat="50.41942" lon="3.49786">
        <ele>25</ele>
        <time>2021-09-17T20:32:03.696Z</time>
      </trkpt>
      <trkpt lat="50.41947" lon="3.49772">
        <ele>24.7</ele>
        <time>2021-09-17T20:32:07.000Z</time>
      </trkpt>
      <trkpt lat="50.41949" lon="3.49765">
        <ele>24.5</ele>
        <time>2021-09-17T20:32:07.232Z</time>
      </trkpt>
      <trkpt lat="50.41952" lon="3.49759">
        <ele>24.2</ele>
        <time>2021-09-17T20:32:08.736Z</time>
      </trkpt>
      <trkpt lat="50.41954" lon="3.49751">
        <ele>24</ele>
        <time>2021-09-17T20:32:10.132Z</time>
      </trkpt>
      <trkpt lat="50.41958" lon="3.4974">
        <ele>24</ele>
        <time>2021-09-17T20:32:13.000Z</time>
      </trkpt>
      <trkpt lat="50.41961" lon="3.49734">
        <ele>24</ele>
        <time>2021-09-17T20:32:13.396Z</time>
      </trkpt>
      <trkpt lat="50.41964" lon="3.49728">
        <ele>24</ele>
        <time>2021-09-17T20:32:14.613Z</time>
      </trkpt>
      <trkpt lat="50.41967" lon="3.4972">
        <ele>24</ele>
        <time>2021-09-17T20:32:16.051Z</time>
      </trkpt>
      <trkpt lat="50.41968" lon="3.49713">
        <ele>24</ele>
        <time>2021-09-17T20:32:18.000Z</time>
      </trkpt>
      <trkpt lat="50.41972" lon="3.49699">
        <ele>24</ele>
        <time>2021-09-17T20:32:19.718Z</time>
      </trkpt>
      <trkpt lat="50.41977" lon="3.49687">
        <ele>24</ele>
        <time>2021-09-17T20:32:21.851Z</time>
      </trkpt>
      <trkpt lat="50.41982" lon="3.49676">
        <ele>24</ele>
        <time>2021-09-17T20:32:25.000Z</time>
      </trkpt>
      <trkpt lat="50.41989" lon="3.49661">
        <ele>24</ele>
        <time>2021-09-17T20:32:28.000Z</time>
      </trkpt>
      <trkpt lat="50.41994" lon="3.49649">
        <ele>24</ele>
        <time>2021-09-17T20:32:29.636Z</time>
      </trkpt>
      <trkpt lat="50.41997" lon="3.49643">
        <ele>24</ele>
        <time>2021-09-17T20:32:31.019Z</time>
      </trkpt>
      <trkpt lat="50.42001" lon="3.49635">
        <ele>24</ele>
        <time>2021-09-17T20:32:33.000Z</time>
      </trkpt>
      <trkpt lat="50.42005" lon="3.49627">
        <ele>23.8</ele>
        <time>2021-09-17T20:32:34.059Z</time>
      </trkpt>
      <trkpt lat="50.42009" lon="3.49616">
        <ele>23.7</ele>
        <time>2021-09-17T20:32:36.099Z</time>
      </trkpt>
      <trkpt lat="50.42012" lon="3.49605">
        <ele>23.7</ele>
        <time>2021-09-17T20:32:39.000Z</time>
      </trkpt>
      <trkpt lat="50.42017" lon="3.49588">
        <ele>23.9</ele>
        <time>2021-09-17T20:32:40.953Z</time>
      </trkpt>
      <trkpt lat="50.42019" lon="3.49582">
        <ele>24</ele>
        <time>2021-09-17T20:32:43.000Z</time>
      </trkpt>
      <trkpt lat="50.42023" lon="3.49572">
        <ele>24</ele>
        <time>2021-09-17T20:32:45.000Z</time>
      </trkpt>
      <trkpt lat="50.42026" lon="3.49565">
        <ele>24</ele>
        <time>2021-09-17T20:32:45.554Z</time>
      </trkpt>
      <trkpt lat="50.42029" lon="3.49558">
        <ele>24</ele>
        <time>2021-09-17T20:32:46.838Z</time>
      </trkpt>
      <trkpt lat="50.42031" lon="3.49552">
        <ele>23.9</ele>
        <time>2021-09-17T20:32:48.100Z</time>
      </trkpt>
      <trkpt lat="50.42038" lon="3.49535">
        <ele>23.6</ele>
        <time>2021-09-17T20:32:52.000Z</time>
      </trkpt>
      <trkpt lat="50.42042" lon="3.49525">
        <ele>23.5</ele>
        <time>2021-09-17T20:32:52.618Z</time>
      </trkpt>
      <trkpt lat="50.42048" lon="3.49512">
        <ele>23.3</ele>
        <time>2021-09-17T20:32:55.078Z</time>
      </trkpt>
      <trkpt lat="50.42053" lon="3.495">
        <ele>23.1</ele>
        <time>2021-09-17T20:32:57.520Z</time>
      </trkpt>
      <trkpt lat="50.42056" lon="3.49493">
        <ele>23</ele>
        <time>2021-09-17T20:32:58.821Z</time>
      </trkpt>
      <trkpt lat="50.42059" lon="3.49486">
        <ele>23</ele>
        <time>2021-09-17T20:33:00.072Z</time>
      </trkpt>
      <trkpt lat="50.42062" lon="3.49478">
        <ele>23</ele>
        <time>2021-09-17T20:33:02.000Z</time>
      </trkpt>
      <trkpt lat="50.42066" lon="3.49466">
        <ele>23</ele>
        <time>2021-09-17T20:33:03.412Z</time>
      </trkpt>
      <trkpt lat="50.42068" lon="3.4946">
        <ele>23</ele>
        <time>2021-09-17T20:33:04.613Z</time>
      </trkpt>
      <trkpt lat="50.4207" lon="3.49453">
        <ele>23</ele>
        <time>2021-09-17T20:33:05.835Z</time>
      </trkpt>
      <trkpt lat="50.42072" lon="3.49446">
        <ele>23</ele>
        <time>2021-09-17T20:33:08.000Z</time>
      </trkpt>
      <trkpt lat="50.42078" lon="3.49432">
        <ele>23</ele>
        <time>2021-09-17T20:33:09.774Z</time>
      </trkpt>
      <trkpt lat="50.42082" lon="3.49421">
        <ele>23</ele>
        <time>2021-09-17T20:33:11.951Z</time>
      </trkpt>
      <trkpt lat="50.42085" lon="3.49408">
        <ele>23</ele>
        <time>2021-09-17T20:33:14.133Z</time>
      </trkpt>
      <trkpt lat="50.4209" lon="3.49396">
        <ele>23</ele>
        <time>2021-09-17T20:33:16.499Z</time>
      </trkpt>
      <trkpt lat="50.42092" lon="3.49388">
        <ele>23</ele>
        <time>2021-09-17T20:33:18.034Z</time>
      </trkpt>
      <trkpt lat="50.42094" lon="3.49382">
        <ele>23</ele>
        <time>2021-09-17T20:33:20.000Z</time>
      </trkpt>
      <trkpt lat="50.42099" lon="3.49368">
        <ele>23</ele>
        <time>2021-09-17T20:33:21.859Z</time>
      </trkpt>
      <trkpt lat="50.42102" lon="3.49362">
        <ele>23</ele>
        <time>2021-09-17T20:33:24.000Z</time>
      </trkpt>
      <trkpt lat="50.42107" lon="3.49351">
        <ele>23</ele>
        <time>2021-09-17T20:33:26.000Z</time>
      </trkpt>
      <trkpt lat="50.42111" lon="3.49342">
        <ele>23</ele>
        <time>2021-09-17T20:33:26.872Z</time>
      </trkpt>
      <trkpt lat="50.42117" lon="3.49331">
        <ele>23</ele>
        <time>2021-09-17T20:33:30.000Z</time>
      </trkpt>
      <trkpt lat="50.42121" lon="3.49321">
        <ele>23</ele>
        <time>2021-09-17T20:33:32.000Z</time>
      </trkpt>
      <trkpt lat="50.42124" lon="3.49311">
        <ele>23</ele>
        <time>2021-09-17T20:33:32.758Z</time>
      </trkpt>
      <trkpt lat="50.42128" lon="3.49303">
        <ele>23</ele>
        <time>2021-09-17T20:33:33.973Z</time>
      </trkpt>
      <trkpt lat="50.4213" lon="3.49296">
        <ele>23</ele>
        <time>2021-09-17T20:33:35.198Z</time>
      </trkpt>
      <trkpt lat="50.42134" lon="3.49286">
        <ele>23</ele>
        <time>2021-09-17T20:33:37.275Z</time>
      </trkpt>
      <trkpt lat="50.42137" lon="3.49278">
        <ele>23</ele>
        <time>2021-09-17T20:33:38.716Z</time>
      </trkpt>
      <trkpt lat="50.42142" lon="3.49267">
        <ele>23</ele>
        <time>2021-09-17T20:33:40.830Z</time>
      </trkpt>
      <trkpt lat="50.42145" lon="3.49258">
        <ele>23</ele>
        <time>2021-09-17T20:33:43.000Z</time>
      </trkpt>
      <trkpt lat="50.42147" lon="3.49251">
        <ele>23</ele>
        <time>2021-09-17T20:33:43.617Z</time>
      </trkpt>
      <trkpt lat="50.42153" lon="3.49238">
        <ele>23</ele>
        <time>2021-09-17T20:33:47.000Z</time>
      </trkpt>
      <trkpt lat="50.42156" lon="3.49229">
        <ele>23</ele>
        <time>2021-09-17T20:33:47.959Z</time>
      </trkpt>
      <trkpt lat="50.42158" lon="3.49222">
        <ele>23</ele>
        <time>2021-09-17T20:33:50.000Z</time>
      </trkpt>
      <trkpt lat="50.42162" lon="3.49212">
        <ele>23</ele>
        <time>2021-09-17T20:33:50.858Z</time>
      </trkpt>
      <trkpt lat="50.42167" lon="3.49198">
        <ele>23</ele>
        <time>2021-09-17T20:33:53.458Z</time>
      </trkpt>
      <trkpt lat="50.42172" lon="3.49185">
        <ele>23</ele>
        <time>2021-09-17T20:33:55.613Z</time>
      </trkpt>
      <trkpt lat="50.42175" lon="3.49179">
        <ele>23</ele>
        <time>2021-09-17T20:33:56.750Z</time>
      </trkpt>
      <trkpt lat="50.42178" lon="3.49171">
        <ele>23</ele>
        <time>2021-09-17T20:33:59.000Z</time>
      </trkpt>
      <trkpt lat="50.42182" lon="3.49163">
        <ele>22.9</ele>
        <time>2021-09-17T20:33:59.679Z</time>
      </trkpt>
      <trkpt lat="50.42186" lon="3.49154">
        <ele>22.7</ele>
        <time>2021-09-17T20:34:02.000Z</time>
      </trkpt>
      <trkpt lat="50.42192" lon="3.49138">
        <ele>22.1</ele>
        <time>2021-09-17T20:34:03.833Z</time>
      </trkpt>
      <trkpt lat="50.42195" lon="3.49133">
        <ele>22</ele>
        <time>2021-09-17T20:34:05.149Z</time>
      </trkpt>
      <trkpt lat="50.422" lon="3.49122">
        <ele>22</ele>
        <time>2021-09-17T20:34:08.000Z</time>
      </trkpt>
      <trkpt lat="50.42204" lon="3.49112">
        <ele>22</ele>
        <time>2021-09-17T20:34:09.211Z</time>
      </trkpt>
      <trkpt lat="50.42207" lon="3.49107">
        <ele>22</ele>
        <time>2021-09-17T20:34:10.258Z</time>
      </trkpt>
      <trkpt lat="50.4221" lon="3.491">
        <ele>22</ele>
        <time>2021-09-17T20:34:11.531Z</time>
      </trkpt>
      <trkpt lat="50.42214" lon="3.49092">
        <ele>22</ele>
        <time>2021-09-17T20:34:14.000Z</time>
      </trkpt>
      <trkpt lat="50.42217" lon="3.49085">
        <ele>22</ele>
        <time>2021-09-17T20:34:14.617Z</time>
      </trkpt>
      <trkpt lat="50.42221" lon="3.49073">
        <ele>22</ele>
        <time>2021-09-17T20:34:16.975Z</time>
      </trkpt>
      <trkpt lat="50.42224" lon="3.49066">
        <ele>22</ele>
        <time>2021-09-17T20:34:18.190Z</time>
      </trkpt>
      <trkpt lat="50.42229" lon="3.49053">
        <ele>22</ele>
        <time>2021-09-17T20:34:20.511Z</time>
      </trkpt>
      <trkpt lat="50.4223" lon="3.49046">
        <ele>22</ele>
        <time>2021-09-17T20:34:21.895Z</time>
      </trkpt>
      <trkpt lat="50.42232" lon="3.49039">
        <ele>22</ele>
        <time>2021-09-17T20:34:24.000Z</time>
      </trkpt>
      <trkpt lat="50.42237" lon="3.49026">
        <ele>22</ele>
        <time>2021-09-17T20:34:25.713Z</time>
      </trkpt>
      <trkpt lat="50.42242" lon="3.49014">
        <ele>22</ele>
        <time>2021-09-17T20:34:28.077Z</time>
      </trkpt>
      <trkpt lat="50.42246" lon="3.49006">
        <ele>22</ele>
        <time>2021-09-17T20:34:29.616Z</time>
      </trkpt>
      <trkpt lat="50.4225" lon="3.48996">
        <ele>22</ele>
        <time>2021-09-17T20:34:32.000Z</time>
      </trkpt>
      <trkpt lat="50.42254" lon="3.48985">
        <ele>22</ele>
        <time>2021-09-17T20:34:34.000Z</time>
      </trkpt>
      <trkpt lat="50.42256" lon="3.48979">
        <ele>22</ele>
        <time>2021-09-17T20:34:34.270Z</time>
      </trkpt>
      <trkpt lat="50.4226" lon="3.48971">
        <ele>22</ele>
        <time>2021-09-17T20:34:35.815Z</time>
      </trkpt>
      <trkpt lat="50.42264" lon="3.48958">
        <ele>22</ele>
        <time>2021-09-17T20:34:38.134Z</time>
      </trkpt>
      <trkpt lat="50.42267" lon="3.48951">
        <ele>22</ele>
        <time>2021-09-17T20:34:40.000Z</time>
      </trkpt>
      <trkpt lat="50.42269" lon="3.48943">
        <ele>22</ele>
        <time>2021-09-17T20:34:40.557Z</time>
      </trkpt>
      <trkpt lat="50.42273" lon="3.48931">
        <ele>22</ele>
        <time>2021-09-17T20:34:42.914Z</time>
      </trkpt>
      <trkpt lat="50.42276" lon="3.48924">
        <ele>22</ele>
        <time>2021-09-17T20:34:45.000Z</time>
      </trkpt>
      <trkpt lat="50.42282" lon="3.48909">
        <ele>22</ele>
        <time>2021-09-17T20:34:47.151Z</time>
      </trkpt>
      <trkpt lat="50.42285" lon="3.48899">
        <ele>22</ele>
        <time>2021-09-17T20:34:50.000Z</time>
      </trkpt>
      <trkpt lat="50.42291" lon="3.48886">
        <ele>22</ele>
        <time>2021-09-17T20:34:51.857Z</time>
      </trkpt>
      <trkpt lat="50.42295" lon="3.48875">
        <ele>22</ele>
        <time>2021-09-17T20:34:55.000Z</time>
      </trkpt>
      <trkpt lat="50.42298" lon="3.48866">
        <ele>22</ele>
        <time>2021-09-17T20:34:55.954Z</time>
      </trkpt>
      <trkpt lat="50.42301" lon="3.48855">
        <ele>22</ele>
        <time>2021-09-17T20:34:59.000Z</time>
      </trkpt>
      <trkpt lat="50.42306" lon="3.48843">
        <ele>22</ele>
        <time>2021-09-17T20:35:00.616Z</time>
      </trkpt>
      <trkpt lat="50.42312" lon="3.48832">
        <ele>22</ele>
        <time>2021-09-17T20:35:04.000Z</time>
      </trkpt>
      <trkpt lat="50.42314" lon="3.48824">
        <ele>22</ele>
        <time>2021-09-17T20:35:04.719Z</time>
      </trkpt>
      <trkpt lat="50.42317" lon="3.48817">
        <ele>22</ele>
        <time>2021-09-17T20:35:06.161Z</time>
      </trkpt>
      <trkpt lat="50.4232" lon="3.48807">
        <ele>22</ele>
        <time>2021-09-17T20:35:09.000Z</time>
      </trkpt>
      <trkpt lat="50.42324" lon="3.48797">
        <ele>22</ele>
        <time>2021-09-17T20:35:10.154Z</time>
      </trkpt>
      <trkpt lat="50.42327" lon="3.48788">
        <ele>22</ele>
        <time>2021-09-17T20:35:11.632Z</time>
      </trkpt>
      <trkpt lat="50.42331" lon="3.48776">
        <ele>22</ele>
        <time>2021-09-17T20:35:13.811Z</time>
      </trkpt>
      <trkpt lat="50.42336" lon="3.48765">
        <ele>22</ele>
        <time>2021-09-17T20:35:16.094Z</time>
      </trkpt>
      <trkpt lat="50.42339" lon="3.48757">
        <ele>22</ele>
        <time>2021-09-17T20:35:17.779Z</time>
      </trkpt>
      <trkpt lat="50.42343" lon="3.48747">
        <ele>22</ele>
        <time>2021-09-17T20:35:19.714Z</time>
      </trkpt>
      <trkpt lat="50.42348" lon="3.48734">
        <ele>22</ele>
        <time>2021-09-17T20:35:23.000Z</time>
      </trkpt>
      <trkpt lat="50.4235" lon="3.48725">
        <ele>22</ele>
        <time>2021-09-17T20:35:23.350Z</time>
      </trkpt>
      <trkpt lat="50.42352" lon="3.48718">
        <ele>22</ele>
        <time>2021-09-17T20:35:24.619Z</time>
      </trkpt>
      <trkpt lat="50.42357" lon="3.48707">
        <ele>22</ele>
        <time>2021-09-17T20:35:26.990Z</time>
      </trkpt>
      <trkpt lat="50.42359" lon="3.487">
        <ele>22</ele>
        <time>2021-09-17T20:35:29.000Z</time>
      </trkpt>
      <trkpt lat="50.42361" lon="3.48694">
        <ele>22</ele>
        <time>2021-09-17T20:35:29.553Z</time>
      </trkpt>
      <trkpt lat="50.42364" lon="3.48687">
        <ele>22</ele>
        <time>2021-09-17T20:35:30.797Z</time>
      </trkpt>
      <trkpt lat="50.42366" lon="3.4868">
        <ele>22</ele>
        <time>2021-09-17T20:35:32.099Z</time>
      </trkpt>
      <trkpt lat="50.42368" lon="3.48673">
        <ele>22</ele>
        <time>2021-09-17T20:35:33.100Z</time>
      </trkpt>
      <trkpt lat="50.42371" lon="3.48664">
        <ele>22.1</ele>
        <time>2021-09-17T20:35:36.000Z</time>
      </trkpt>
      <trkpt lat="50.42376" lon="3.48655">
        <ele>22.2</ele>
        <time>2021-09-17T20:35:38.000Z</time>
      </trkpt>
      <trkpt lat="50.42379" lon="3.48648">
        <ele>22.2</ele>
        <time>2021-09-17T20:35:38.814Z</time>
      </trkpt>
      <trkpt lat="50.42381" lon="3.48642">
        <ele>22.3</ele>
        <time>2021-09-17T20:35:40.059Z</time>
      </trkpt>
      <trkpt lat="50.42384" lon="3.48631">
        <ele>22.2</ele>
        <time>2021-09-17T20:35:41.875Z</time>
      </trkpt>
      <trkpt lat="50.42387" lon="3.4862">
        <ele>22.1</ele>
        <time>2021-09-17T20:35:44.121Z</time>
      </trkpt>
      <trkpt lat="50.42391" lon="3.4861">
        <ele>22</ele>
        <time>2021-09-17T20:35:47.000Z</time>
      </trkpt>
      <trkpt lat="50.42394" lon="3.48604">
        <ele>22</ele>
        <time>2021-09-17T20:35:47.694Z</time>
      </trkpt>
      <trkpt lat="50.42397" lon="3.48597">
        <ele>22</ele>
        <time>2021-09-17T20:35:49.113Z</time>
      </trkpt>
      <trkpt lat="50.42402" lon="3.48587">
        <ele>22</ele>
        <time>2021-09-17T20:35:52.000Z</time>
      </trkpt>
      <trkpt lat="50.42404" lon="3.48579">
        <ele>22</ele>
        <time>2021-09-17T20:35:52.697Z</time>
      </trkpt>
      <trkpt lat="50.42407" lon="3.48572">
        <ele>22</ele>
        <time>2021-09-17T20:35:53.718Z</time>
      </trkpt>
      <trkpt lat="50.42412" lon="3.48559">
        <ele>22</ele>
        <time>2021-09-17T20:35:56.139Z</time>
      </trkpt>
      <trkpt lat="50.42418" lon="3.48543">
        <ele>22</ele>
        <time>2021-09-17T20:36:00.000Z</time>
      </trkpt>
      <trkpt lat="50.42425" lon="3.48527">
        <ele>22</ele>
        <time>2021-09-17T20:36:01.892Z</time>
      </trkpt>
      <trkpt lat="50.42427" lon="3.4852">
        <ele>22</ele>
        <time>2021-09-17T20:36:03.135Z</time>
      </trkpt>
      <trkpt lat="50.42434" lon="3.48504">
        <ele>22</ele>
        <time>2021-09-17T20:36:07.000Z</time>
      </trkpt>
      <trkpt lat="50.42439" lon="3.48491">
        <ele>22</ele>
        <time>2021-09-17T20:36:09.000Z</time>
      </trkpt>
      <trkpt lat="50.42438" lon="3.4848">
        <ele>22</ele>
        <time>2021-09-17T20:36:11.000Z</time>
      </trkpt>
      <trkpt lat="50.42445" lon="3.48471">
        <ele>22</ele>
        <time>2021-09-17T20:36:12.537Z</time>
      </trkpt>
      <trkpt lat="50.42453" lon="3.48456">
        <ele>21.9</ele>
        <time>2021-09-17T20:36:15.000Z</time>
      </trkpt>
      <trkpt lat="50.42456" lon="3.48449">
        <ele>21.9</ele>
        <time>2021-09-17T20:36:16.000Z</time>
      </trkpt>
      <trkpt lat="50.42462" lon="3.48435">
        <ele>21.8</ele>
        <time>2021-09-17T20:36:18.000Z</time>
      </trkpt>
      <trkpt lat="50.42468" lon="3.48424">
        <ele>21.4</ele>
        <time>2021-09-17T20:36:20.000Z</time>
      </trkpt>
      <trkpt lat="50.4247" lon="3.48417">
        <ele>21.1</ele>
        <time>2021-09-17T20:36:21.000Z</time>
      </trkpt>
      <trkpt lat="50.42473" lon="3.48411">
        <ele>21</ele>
        <time>2021-09-17T20:36:22.000Z</time>
      </trkpt>
      <trkpt lat="50.42475" lon="3.48405">
        <ele>21</ele>
        <time>2021-09-17T20:36:23.000Z</time>
      </trkpt>
      <trkpt lat="50.42478" lon="3.48398">
        <ele>21</ele>
        <time>2021-09-17T20:36:24.000Z</time>
      </trkpt>
      <trkpt lat="50.42483" lon="3.48384">
        <ele>21</ele>
        <time>2021-09-17T20:36:26.000Z</time>
      </trkpt>
      <trkpt lat="50.42487" lon="3.48377">
        <ele>21</ele>
        <time>2021-09-17T20:36:27.000Z</time>
      </trkpt>
      <trkpt lat="50.42494" lon="3.48363">
        <ele>21</ele>
        <time>2021-09-17T20:36:29.000Z</time>
      </trkpt>
      <trkpt lat="50.42497" lon="3.48356">
        <ele>20.8</ele>
        <time>2021-09-17T20:36:30.000Z</time>
      </trkpt>
      <trkpt lat="50.425" lon="3.48347">
        <ele>20.5</ele>
        <time>2021-09-17T20:36:31.000Z</time>
      </trkpt>
      <trkpt lat="50.42503" lon="3.4834">
        <ele>20.2</ele>
        <time>2021-09-17T20:36:32.000Z</time>
      </trkpt>
      <trkpt lat="50.42512" lon="3.48324">
        <ele>20</ele>
        <time>2021-09-17T20:36:34.000Z</time>
      </trkpt>
      <trkpt lat="50.42519" lon="3.48309">
        <ele>20</ele>
        <time>2021-09-17T20:36:36.000Z</time>
      </trkpt>
      <trkpt lat="50.42524" lon="3.48296">
        <ele>20</ele>
        <time>2021-09-17T20:36:38.000Z</time>
      </trkpt>
      <trkpt lat="50.42528" lon="3.48292">
        <ele>20</ele>
        <time>2021-09-17T20:36:39.000Z</time>
      </trkpt>
      <trkpt lat="50.42536" lon="3.48282">
        <ele>19.7</ele>
        <time>2021-09-17T20:36:41.000Z</time>
      </trkpt>
      <trkpt lat="50.42541" lon="3.48271">
        <ele>19.5</ele>
        <time>2021-09-17T20:36:43.000Z</time>
      </trkpt>
      <trkpt lat="50.42547" lon="3.48263">
        <ele>19.3</ele>
        <time>2021-09-17T20:36:46.000Z</time>
      </trkpt>
      <trkpt lat="50.42549" lon="3.48255">
        <ele>19.2</ele>
        <time>2021-09-17T20:36:47.296Z</time>
      </trkpt>
      <trkpt lat="50.42552" lon="3.4825">
        <ele>19.1</ele>
        <time>2021-09-17T20:36:51.000Z</time>
      </trkpt>
      <trkpt lat="50.42552" lon="3.4824">
        <ele>19.1</ele>
        <time>2021-09-17T20:36:52.809Z</time>
      </trkpt>
      <trkpt lat="50.4255" lon="3.48233">
        <ele>19.2</ele>
        <time>2021-09-17T20:36:56.000Z</time>
      </trkpt>
      <trkpt lat="50.42554" lon="3.48225">
        <ele>19.1</ele>
        <time>2021-09-17T20:37:17.069Z</time>
      </trkpt>
      <trkpt lat="50.42561" lon="3.48221">
        <ele>19</ele>
        <time>2021-09-17T20:37:20.000Z</time>
      </trkpt>
      <trkpt lat="50.42566" lon="3.48218">
        <ele>19</ele>
        <time>2021-09-17T20:37:21.589Z</time>
      </trkpt>
      <trkpt lat="50.42574" lon="3.48217">
        <ele>19</ele>
        <time>2021-09-17T20:37:25.000Z</time>
      </trkpt>
      <trkpt lat="50.42584" lon="3.48214">
        <ele>19</ele>
        <time>2021-09-17T20:37:28.000Z</time>
      </trkpt>
      <trkpt lat="50.42589" lon="3.48212">
        <ele>18.8</ele>
        <time>2021-09-17T20:37:28.968Z</time>
      </trkpt>
      <trkpt lat="50.42595" lon="3.4821">
        <ele>18.6</ele>
        <time>2021-09-17T20:37:32.000Z</time>
      </trkpt>
      <trkpt lat="50.426" lon="3.4821">
        <ele>18.4</ele>
        <time>2021-09-17T20:37:32.710Z</time>
      </trkpt>
      <trkpt lat="50.42604" lon="3.4821">
        <ele>18.3</ele>
        <time>2021-09-17T20:37:34.168Z</time>
      </trkpt>
      <trkpt lat="50.42611" lon="3.48209">
        <ele>18</ele>
        <time>2021-09-17T20:37:36.031Z</time>
      </trkpt>
      <trkpt lat="50.42622" lon="3.48207">
        <ele>18</ele>
        <time>2021-09-17T20:37:40.000Z</time>
      </trkpt>
      <trkpt lat="50.42628" lon="3.48206">
        <ele>18</ele>
        <time>2021-09-17T20:37:40.529Z</time>
      </trkpt>
      <trkpt lat="50.42635" lon="3.48204">
        <ele>18</ele>
        <time>2021-09-17T20:37:43.000Z</time>
      </trkpt>
      <trkpt lat="50.42649" lon="3.48202">
        <ele>18</ele>
        <time>2021-09-17T20:37:46.000Z</time>
      </trkpt>
      <trkpt lat="50.42656" lon="3.48201">
        <ele>18</ele>
        <time>2021-09-17T20:37:47.172Z</time>
      </trkpt>
      <trkpt lat="50.42665" lon="3.48197">
        <ele>18</ele>
        <time>2021-09-17T20:37:49.446Z</time>
      </trkpt>
      <trkpt lat="50.42672" lon="3.48195">
        <ele>18</ele>
        <time>2021-09-17T20:37:52.000Z</time>
      </trkpt>
      <trkpt lat="50.4268" lon="3.48193">
        <ele>18</ele>
        <time>2021-09-17T20:37:54.000Z</time>
      </trkpt>
      <trkpt lat="50.42691" lon="3.48191">
        <ele>18</ele>
        <time>2021-09-17T20:37:55.992Z</time>
      </trkpt>
      <trkpt lat="50.42696" lon="3.48191">
        <ele>18</ele>
        <time>2021-09-17T20:37:57.209Z</time>
      </trkpt>
      <trkpt lat="50.42704" lon="3.48189">
        <ele>18</ele>
        <time>2021-09-17T20:37:59.108Z</time>
      </trkpt>
      <trkpt lat="50.42709" lon="3.48188">
        <ele>18</ele>
        <time>2021-09-17T20:38:00.126Z</time>
      </trkpt>
      <trkpt lat="50.42714" lon="3.48187">
        <ele>18</ele>
        <time>2021-09-17T20:38:02.000Z</time>
      </trkpt>
      <trkpt lat="50.42723" lon="3.48185">
        <ele>18</ele>
        <time>2021-09-17T20:38:04.000Z</time>
      </trkpt>
      <trkpt lat="50.42732" lon="3.48184">
        <ele>18.4</ele>
        <time>2021-09-17T20:38:05.672Z</time>
      </trkpt>
      <trkpt lat="50.42739" lon="3.48184">
        <ele>18.6</ele>
        <time>2021-09-17T20:38:08.000Z</time>
      </trkpt>
      <trkpt lat="50.42745" lon="3.48184">
        <ele>18.8</ele>
        <time>2021-09-17T20:38:08.509Z</time>
      </trkpt>
      <trkpt lat="50.42752" lon="3.48184">
        <ele>19</ele>
        <time>2021-09-17T20:38:11.000Z</time>
      </trkpt>
      <trkpt lat="50.4276" lon="3.48182">
        <ele>19</ele>
        <time>2021-09-17T20:38:13.000Z</time>
      </trkpt>
      <trkpt lat="50.42769" lon="3.48182">
        <ele>19</ele>
        <time>2021-09-17T20:38:15.000Z</time>
      </trkpt>
      <trkpt lat="50.42781" lon="3.4818">
        <ele>19</ele>
        <time>2021-09-17T20:38:16.862Z</time>
      </trkpt>
      <trkpt lat="50.42788" lon="3.48179">
        <ele>19</ele>
        <time>2021-09-17T20:38:19.000Z</time>
      </trkpt>
      <trkpt lat="50.42794" lon="3.48177">
        <ele>19</ele>
        <time>2021-09-17T20:38:21.000Z</time>
      </trkpt>
      <trkpt lat="50.42801" lon="3.48176">
        <ele>19</ele>
        <time>2021-09-17T20:38:21.811Z</time>
      </trkpt>
      <trkpt lat="50.4281" lon="3.48173">
        <ele>19</ele>
        <time>2021-09-17T20:38:24.071Z</time>
      </trkpt>
      <trkpt lat="50.42819" lon="3.4817">
        <ele>19</ele>
        <time>2021-09-17T20:38:27.000Z</time>
      </trkpt>
      <trkpt lat="50.42825" lon="3.48169">
        <ele>19</ele>
        <time>2021-09-17T20:38:27.714Z</time>
      </trkpt>
      <trkpt lat="50.42837" lon="3.48168">
        <ele>19</ele>
        <time>2021-09-17T20:38:30.483Z</time>
      </trkpt>
      <trkpt lat="50.42843" lon="3.48167">
        <ele>19</ele>
        <time>2021-09-17T20:38:31.968Z</time>
      </trkpt>
      <trkpt lat="50.42848" lon="3.48166">
        <ele>19</ele>
        <time>2021-09-17T20:38:34.000Z</time>
      </trkpt>
      <trkpt lat="50.42855" lon="3.48166">
        <ele>19</ele>
        <time>2021-09-17T20:38:34.806Z</time>
      </trkpt>
      <trkpt lat="50.42859" lon="3.48166">
        <ele>19</ele>
        <time>2021-09-17T20:38:35.917Z</time>
      </trkpt>
      <trkpt lat="50.42864" lon="3.48166">
        <ele>19</ele>
        <time>2021-09-17T20:38:37.207Z</time>
      </trkpt>
      <trkpt lat="50.42872" lon="3.48164">
        <ele>19</ele>
        <time>2021-09-17T20:38:39.049Z</time>
      </trkpt>
      <trkpt lat="50.42882" lon="3.48164">
        <ele>19</ele>
        <time>2021-09-17T20:38:41.718Z</time>
      </trkpt>
      <trkpt lat="50.42887" lon="3.48164">
        <ele>19</ele>
        <time>2021-09-17T20:38:43.193Z</time>
      </trkpt>
      <trkpt lat="50.42895" lon="3.48164">
        <ele>19</ele>
        <time>2021-09-17T20:38:45.354Z</time>
      </trkpt>
      <trkpt lat="50.42902" lon="3.48164">
        <ele>19</ele>
        <time>2021-09-17T20:38:46.819Z</time>
      </trkpt>
      <trkpt lat="50.42907" lon="3.48163">
        <ele>19</ele>
        <time>2021-09-17T20:38:49.000Z</time>
      </trkpt>
      <trkpt lat="50.42915" lon="3.48162">
        <ele>19</ele>
        <time>2021-09-17T20:38:50.311Z</time>
      </trkpt>
      <trkpt lat="50.42923" lon="3.4816">
        <ele>19</ele>
        <time>2021-09-17T20:38:52.501Z</time>
      </trkpt>
      <trkpt lat="50.42928" lon="3.48159">
        <ele>19</ele>
        <time>2021-09-17T20:38:53.910Z</time>
      </trkpt>
      <trkpt lat="50.42935" lon="3.48159">
        <ele>19</ele>
        <time>2021-09-17T20:38:55.504Z</time>
      </trkpt>
      <trkpt lat="50.42944" lon="3.48158">
        <ele>19</ele>
        <time>2021-09-17T20:38:57.807Z</time>
      </trkpt>
      <trkpt lat="50.42952" lon="3.48159">
        <ele>19</ele>
        <time>2021-09-17T20:39:00.031Z</time>
      </trkpt>
      <trkpt lat="50.42963" lon="3.48157">
        <ele>19</ele>
        <time>2021-09-17T20:39:02.804Z</time>
      </trkpt>
      <trkpt lat="50.42968" lon="3.48156">
        <ele>19</ele>
        <time>2021-09-17T20:39:05.000Z</time>
      </trkpt>
      <trkpt lat="50.42977" lon="3.48153">
        <ele>19</ele>
        <time>2021-09-17T20:39:06.654Z</time>
      </trkpt>
      <trkpt lat="50.42984" lon="3.4815">
        <ele>19</ele>
        <time>2021-09-17T20:39:09.000Z</time>
      </trkpt>
      <trkpt lat="50.4299" lon="3.48149">
        <ele>19</ele>
        <time>2021-09-17T20:39:09.816Z</time>
      </trkpt>
      <trkpt lat="50.42998" lon="3.4815">
        <ele>19</ele>
        <time>2021-09-17T20:39:13.000Z</time>
      </trkpt>
      <trkpt lat="50.43004" lon="3.4815">
        <ele>19</ele>
        <time>2021-09-17T20:39:13.736Z</time>
      </trkpt>
      <trkpt lat="50.4301" lon="3.48149">
        <ele>19</ele>
        <time>2021-09-17T20:39:15.277Z</time>
      </trkpt>
      <trkpt lat="50.43016" lon="3.48148">
        <ele>19</ele>
        <time>2021-09-17T20:39:17.133Z</time>
      </trkpt>
      <trkpt lat="50.43023" lon="3.48146">
        <ele>19</ele>
        <time>2021-09-17T20:39:18.973Z</time>
      </trkpt>
      <trkpt lat="50.43032" lon="3.48146">
        <ele>19</ele>
        <time>2021-09-17T20:39:21.472Z</time>
      </trkpt>
      <trkpt lat="50.43037" lon="3.48145">
        <ele>19</ele>
        <time>2021-09-17T20:39:22.813Z</time>
      </trkpt>
      <trkpt lat="50.43043" lon="3.48144">
        <ele>19</ele>
        <time>2021-09-17T20:39:25.000Z</time>
      </trkpt>
      <trkpt lat="50.43051" lon="3.48143">
        <ele>19</ele>
        <time>2021-09-17T20:39:26.151Z</time>
      </trkpt>
      <trkpt lat="50.43058" lon="3.48142">
        <ele>19</ele>
        <time>2021-09-17T20:39:28.010Z</time>
      </trkpt>
      <trkpt lat="50.43063" lon="3.48142">
        <ele>19</ele>
        <time>2021-09-17T20:39:30.000Z</time>
      </trkpt>
      <trkpt lat="50.43073" lon="3.48141">
        <ele>19</ele>
        <time>2021-09-17T20:39:31.697Z</time>
      </trkpt>
      <trkpt lat="50.4308" lon="3.48141">
        <ele>19</ele>
        <time>2021-09-17T20:39:34.000Z</time>
      </trkpt>
      <trkpt lat="50.43084" lon="3.4814">
        <ele>19</ele>
        <time>2021-09-17T20:39:35.000Z</time>
      </trkpt>
      <trkpt lat="50.43089" lon="3.48138">
        <ele>19</ele>
        <time>2021-09-17T20:39:36.000Z</time>
      </trkpt>
      <trkpt lat="50.43095" lon="3.48137">
        <ele>19</ele>
        <time>2021-09-17T20:39:36.424Z</time>
      </trkpt>
      <trkpt lat="50.43101" lon="3.48135">
        <ele>19</ele>
        <time>2021-09-17T20:39:37.820Z</time>
      </trkpt>
      <trkpt lat="50.43107" lon="3.48134">
        <ele>19</ele>
        <time>2021-09-17T20:39:40.000Z</time>
      </trkpt>
      <trkpt lat="50.43115" lon="3.48134">
        <ele>19</ele>
        <time>2021-09-17T20:39:42.000Z</time>
      </trkpt>
      <trkpt lat="50.4312" lon="3.48134">
        <ele>19</ele>
        <time>2021-09-17T20:39:42.421Z</time>
      </trkpt>
      <trkpt lat="50.43126" lon="3.48134">
        <ele>19</ele>
        <time>2021-09-17T20:39:44.041Z</time>
      </trkpt>
      <trkpt lat="50.43135" lon="3.48132">
        <ele>19</ele>
        <time>2021-09-17T20:39:46.986Z</time>
      </trkpt>
      <trkpt lat="50.43142" lon="3.48131">
        <ele>19</ele>
        <time>2021-09-17T20:39:50.000Z</time>
      </trkpt>
      <trkpt lat="50.43149" lon="3.48132">
        <ele>19</ele>
        <time>2021-09-17T20:39:51.261Z</time>
      </trkpt>
      <trkpt lat="50.43159" lon="3.48131">
        <ele>19</ele>
        <time>2021-09-17T20:39:55.000Z</time>
      </trkpt>
      <trkpt lat="50.43166" lon="3.48131">
        <ele>19</ele>
        <time>2021-09-17T20:39:57.000Z</time>
      </trkpt>
      <trkpt lat="50.43172" lon="3.48129">
        <ele>19</ele>
        <time>2021-09-17T20:39:57.979Z</time>
      </trkpt>
      <trkpt lat="50.43179" lon="3.48128">
        <ele>19</ele>
        <time>2021-09-17T20:40:01.000Z</time>
      </trkpt>
      <trkpt lat="50.43184" lon="3.48127">
        <ele>19</ele>
        <time>2021-09-17T20:40:01.439Z</time>
      </trkpt>
      <trkpt lat="50.4319" lon="3.48125">
        <ele>19</ele>
        <time>2021-09-17T20:40:02.675Z</time>
      </trkpt>
      <trkpt lat="50.43196" lon="3.48124">
        <ele>19</ele>
        <time>2021-09-17T20:40:05.000Z</time>
      </trkpt>
      <trkpt lat="50.43204" lon="3.48121">
        <ele>19</ele>
        <time>2021-09-17T20:40:07.000Z</time>
      </trkpt>
      <trkpt lat="50.43211" lon="3.4812">
        <ele>19</ele>
        <time>2021-09-17T20:40:07.959Z</time>
      </trkpt>
      <trkpt lat="50.43217" lon="3.48118">
        <ele>19</ele>
        <time>2021-09-17T20:40:10.000Z</time>
      </trkpt>
      <trkpt lat="50.43222" lon="3.48118">
        <ele>19</ele>
        <time>2021-09-17T20:40:10.345Z</time>
      </trkpt>
      <trkpt lat="50.43229" lon="3.48117">
        <ele>19</ele>
        <time>2021-09-17T20:40:11.905Z</time>
      </trkpt>
      <trkpt lat="50.43234" lon="3.48118">
        <ele>19</ele>
        <time>2021-09-17T20:40:12.982Z</time>
      </trkpt>
      <trkpt lat="50.43239" lon="3.48117">
        <ele>19</ele>
        <time>2021-09-17T20:40:14.123Z</time>
      </trkpt>
      <trkpt lat="50.43244" lon="3.48116">
        <ele>19</ele>
        <time>2021-09-17T20:40:16.000Z</time>
      </trkpt>
      <trkpt lat="50.43249" lon="3.48114">
        <ele>19</ele>
        <time>2021-09-17T20:40:16.640Z</time>
      </trkpt>
      <trkpt lat="50.43256" lon="3.48112">
        <ele>19</ele>
        <time>2021-09-17T20:40:19.000Z</time>
      </trkpt>
      <trkpt lat="50.43268" lon="3.48108">
        <ele>19</ele>
        <time>2021-09-17T20:40:20.926Z</time>
      </trkpt>
      <trkpt lat="50.43276" lon="3.48108">
        <ele>19</ele>
        <time>2021-09-17T20:40:24.000Z</time>
      </trkpt>
      <trkpt lat="50.43289" lon="3.4811">
        <ele>19</ele>
        <time>2021-09-17T20:40:27.000Z</time>
      </trkpt>
      <trkpt lat="50.43297" lon="3.48111">
        <ele>19</ele>
        <time>2021-09-17T20:40:29.000Z</time>
      </trkpt>
      <trkpt lat="50.4329" lon="3.48103">
        <ele>19</ele>
        <time>2021-09-17T20:40:33.122Z</time>
      </trkpt>
      <trkpt lat="50.43285" lon="3.48107">
        <ele>19</ele>
        <time>2021-09-17T20:40:36.000Z</time>
      </trkpt>
      <trkpt lat="50.4328" lon="3.48108">
        <ele>19</ele>
        <time>2021-09-17T20:40:38.000Z</time>
      </trkpt>
      <trkpt lat="50.43273" lon="3.48108">
        <ele>19</ele>
        <time>2021-09-17T20:40:39.867Z</time>
      </trkpt>
      <trkpt lat="50.43265" lon="3.48111">
        <ele>19</ele>
        <time>2021-09-17T20:40:42.440Z</time>
      </trkpt>
      <trkpt lat="50.43258" lon="3.48115">
        <ele>19</ele>
        <time>2021-09-17T20:40:44.861Z</time>
      </trkpt>
      <trkpt lat="50.43253" lon="3.48124">
        <ele>19</ele>
        <time>2021-09-17T20:40:47.685Z</time>
      </trkpt>
      <trkpt lat="50.43257" lon="3.48134">
        <ele>19</ele>
        <time>2021-09-17T20:40:52.000Z</time>
      </trkpt>
      <trkpt lat="50.43261" lon="3.48137">
        <ele>19</ele>
        <time>2021-09-17T20:40:52.224Z</time>
      </trkpt>
      <trkpt lat="50.43266" lon="3.4814">
        <ele>19</ele>
        <time>2021-09-17T20:40:53.681Z</time>
      </trkpt>
      <trkpt lat="50.43271" lon="3.48144">
        <ele>19</ele>
        <time>2021-09-17T20:40:54.841Z</time>
      </trkpt>
      <trkpt lat="50.43278" lon="3.48152">
        <ele>19</ele>
        <time>2021-09-17T20:40:57.247Z</time>
      </trkpt>
      <trkpt lat="50.43285" lon="3.4816">
        <ele>19</ele>
        <time>2021-09-17T20:40:59.604Z</time>
      </trkpt>
      <trkpt lat="50.43292" lon="3.48168">
        <ele>19</ele>
        <time>2021-09-17T20:41:03.000Z</time>
      </trkpt>
      <trkpt lat="50.43298" lon="3.48175">
        <ele>19</ele>
        <time>2021-09-17T20:41:04.261Z</time>
      </trkpt>
      <trkpt lat="50.43301" lon="3.4818">
        <ele>19</ele>
        <time>2021-09-17T20:41:05.560Z</time>
      </trkpt>
      <trkpt lat="50.43308" lon="3.48189">
        <ele>19</ele>
        <time>2021-09-17T20:41:07.967Z</time>
      </trkpt>
      <trkpt lat="50.43317" lon="3.48198">
        <ele>19</ele>
        <time>2021-09-17T20:41:10.661Z</time>
      </trkpt>
      <trkpt lat="50.43323" lon="3.48206">
        <ele>19</ele>
        <time>2021-09-17T20:41:12.747Z</time>
      </trkpt>
      <trkpt lat="50.4333" lon="3.48213">
        <ele>19</ele>
        <time>2021-09-17T20:41:14.822Z</time>
      </trkpt>
      <trkpt lat="50.43335" lon="3.48218">
        <ele>19</ele>
        <time>2021-09-17T20:41:17.000Z</time>
      </trkpt>
      <trkpt lat="50.43339" lon="3.48222">
        <ele>19</ele>
        <time>2021-09-17T20:41:18.000Z</time>
      </trkpt>
      <trkpt lat="50.43345" lon="3.48228">
        <ele>19</ele>
        <time>2021-09-17T20:41:18.584Z</time>
      </trkpt>
      <trkpt lat="50.43349" lon="3.48233">
        <ele>19</ele>
        <time>2021-09-17T20:41:19.602Z</time>
      </trkpt>
      <trkpt lat="50.43354" lon="3.48237">
        <ele>19</ele>
        <time>2021-09-17T20:41:20.940Z</time>
      </trkpt>
      <trkpt lat="50.43359" lon="3.48242">
        <ele>19</ele>
        <time>2021-09-17T20:41:23.000Z</time>
      </trkpt>
      <trkpt lat="50.43365" lon="3.48248">
        <ele>19</ele>
        <time>2021-09-17T20:41:23.731Z</time>
      </trkpt>
      <trkpt lat="50.4337" lon="3.48253">
        <ele>19</ele>
        <time>2021-09-17T20:41:24.981Z</time>
      </trkpt>
      <trkpt lat="50.43374" lon="3.48257">
        <ele>19</ele>
        <time>2021-09-17T20:41:26.037Z</time>
      </trkpt>
      <trkpt lat="50.43378" lon="3.48261">
        <ele>19</ele>
        <time>2021-09-17T20:41:28.000Z</time>
      </trkpt>
      <trkpt lat="50.43383" lon="3.48267">
        <ele>19</ele>
        <time>2021-09-17T20:41:28.143Z</time>
      </trkpt>
      <trkpt lat="50.43387" lon="3.48271">
        <ele>19</ele>
        <time>2021-09-17T20:41:29.444Z</time>
      </trkpt>
      <trkpt lat="50.43391" lon="3.48276">
        <ele>19</ele>
        <time>2021-09-17T20:41:30.780Z</time>
      </trkpt>
      <trkpt lat="50.43394" lon="3.4828">
        <ele>19</ele>
        <time>2021-09-17T20:41:31.977Z</time>
      </trkpt>
      <trkpt lat="50.43398" lon="3.48286">
        <ele>19</ele>
        <time>2021-09-17T20:41:34.000Z</time>
      </trkpt>
      <trkpt lat="50.43402" lon="3.4829">
        <ele>19</ele>
        <time>2021-09-17T20:41:34.364Z</time>
      </trkpt>
      <trkpt lat="50.43406" lon="3.48297">
        <ele>19</ele>
        <time>2021-09-17T20:41:35.504Z</time>
      </trkpt>
      <trkpt lat="50.4341" lon="3.48301">
        <ele>19</ele>
        <time>2021-09-17T20:41:36.760Z</time>
      </trkpt>
      <trkpt lat="50.43416" lon="3.48309">
        <ele>19</ele>
        <time>2021-09-17T20:41:38.919Z</time>
      </trkpt>
      <trkpt lat="50.43422" lon="3.48318">
        <ele>19</ele>
        <time>2021-09-17T20:41:42.000Z</time>
      </trkpt>
      <trkpt lat="50.43431" lon="3.48331">
        <ele>19</ele>
        <time>2021-09-17T20:41:45.000Z</time>
      </trkpt>
      <trkpt lat="50.43437" lon="3.48338">
        <ele>19</ele>
        <time>2021-09-17T20:41:46.365Z</time>
      </trkpt>
      <trkpt lat="50.43441" lon="3.48343">
        <ele>19</ele>
        <time>2021-09-17T20:41:47.731Z</time>
      </trkpt>
      <trkpt lat="50.43446" lon="3.48348">
        <ele>19</ele>
        <time>2021-09-17T20:41:50.000Z</time>
      </trkpt>
      <trkpt lat="50.4345" lon="3.48353">
        <ele>19</ele>
        <time>2021-09-17T20:41:50.518Z</time>
      </trkpt>
      <trkpt lat="50.43457" lon="3.48362">
        <ele>19</ele>
        <time>2021-09-17T20:41:53.000Z</time>
      </trkpt>
      <trkpt lat="50.43467" lon="3.48376">
        <ele>19</ele>
        <time>2021-09-17T20:41:56.000Z</time>
      </trkpt>
      <trkpt lat="50.43478" lon="3.48386">
        <ele>19</ele>
        <time>2021-09-17T20:41:58.000Z</time>
      </trkpt>
      <trkpt lat="50.43483" lon="3.4839">
        <ele>19</ele>
        <time>2021-09-17T20:41:59.000Z</time>
      </trkpt>
      <trkpt lat="50.43493" lon="3.48398">
        <ele>19</ele>
        <time>2021-09-17T20:42:01.000Z</time>
      </trkpt>
      <trkpt lat="50.43498" lon="3.48403">
        <ele>19</ele>
        <time>2021-09-17T20:42:02.000Z</time>
      </trkpt>
      <trkpt lat="50.43503" lon="3.48407">
        <ele>19</ele>
        <time>2021-09-17T20:42:02.891Z</time>
      </trkpt>
      <trkpt lat="50.43511" lon="3.48415">
        <ele>19</ele>
        <time>2021-09-17T20:42:06.000Z</time>
      </trkpt>
      <trkpt lat="50.43515" lon="3.48422">
        <ele>19</ele>
        <time>2021-09-17T20:42:07.000Z</time>
      </trkpt>
      <trkpt lat="50.43518" lon="3.48426">
        <ele>19</ele>
        <time>2021-09-17T20:42:08.000Z</time>
      </trkpt>
      <trkpt lat="50.43526" lon="3.4844">
        <ele>19</ele>
        <time>2021-09-17T20:42:11.000Z</time>
      </trkpt>
      <trkpt lat="50.43529" lon="3.48449">
        <ele>19</ele>
        <time>2021-09-17T20:42:11.844Z</time>
      </trkpt>
      <trkpt lat="50.43533" lon="3.48455">
        <ele>19</ele>
        <time>2021-09-17T20:42:12.900Z</time>
      </trkpt>
      <trkpt lat="50.43538" lon="3.4846">
        <ele>19</ele>
        <time>2021-09-17T20:42:15.000Z</time>
      </trkpt>
      <trkpt lat="50.43544" lon="3.48467">
        <ele>19</ele>
        <time>2021-09-17T20:42:15.849Z</time>
      </trkpt>
      <trkpt lat="50.43548" lon="3.48471">
        <ele>19</ele>
        <time>2021-09-17T20:42:16.961Z</time>
      </trkpt>
      <trkpt lat="50.43553" lon="3.48474">
        <ele>19</ele>
        <time>2021-09-17T20:42:17.979Z</time>
      </trkpt>
      <trkpt lat="50.43561" lon="3.48482">
        <ele>19</ele>
        <time>2021-09-17T20:42:20.609Z</time>
      </trkpt>
      <trkpt lat="50.43567" lon="3.4849">
        <ele>19</ele>
        <time>2021-09-17T20:42:23.041Z</time>
      </trkpt>
      <trkpt lat="50.43573" lon="3.48499">
        <ele>19</ele>
        <time>2021-09-17T20:42:26.000Z</time>
      </trkpt>
      <trkpt lat="50.4358" lon="3.48507">
        <ele>19</ele>
        <time>2021-09-17T20:42:27.308Z</time>
      </trkpt>
      <trkpt lat="50.43583" lon="3.48512">
        <ele>19</ele>
        <time>2021-09-17T20:42:28.523Z</time>
      </trkpt>
      <trkpt lat="50.43587" lon="3.48516">
        <ele>19</ele>
        <time>2021-09-17T20:42:29.770Z</time>
      </trkpt>
      <trkpt lat="50.43592" lon="3.48522">
        <ele>19</ele>
        <time>2021-09-17T20:42:32.000Z</time>
      </trkpt>
      <trkpt lat="50.43597" lon="3.48529">
        <ele>19</ele>
        <time>2021-09-17T20:42:32.902Z</time>
      </trkpt>
      <trkpt lat="50.43601" lon="3.48535">
        <ele>19</ele>
        <time>2021-09-17T20:42:35.000Z</time>
      </trkpt>
      <trkpt lat="50.43607" lon="3.48541">
        <ele>19</ele>
        <time>2021-09-17T20:42:35.642Z</time>
      </trkpt>
      <trkpt lat="50.43614" lon="3.4855">
        <ele>19</ele>
        <time>2021-09-17T20:42:39.000Z</time>
      </trkpt>
      <trkpt lat="50.43619" lon="3.48556">
        <ele>19</ele>
        <time>2021-09-17T20:42:39.347Z</time>
      </trkpt>
      <trkpt lat="50.43625" lon="3.48563">
        <ele>19</ele>
        <time>2021-09-17T20:42:41.021Z</time>
      </trkpt>
      <trkpt lat="50.43629" lon="3.48568">
        <ele>19</ele>
        <time>2021-09-17T20:42:43.000Z</time>
      </trkpt>
      <trkpt lat="50.43634" lon="3.48575">
        <ele>19</ele>
        <time>2021-09-17T20:42:43.705Z</time>
      </trkpt>
      <trkpt lat="50.43639" lon="3.48581">
        <ele>19</ele>
        <time>2021-09-17T20:42:45.063Z</time>
      </trkpt>
      <trkpt lat="50.43643" lon="3.48587">
        <ele>19</ele>
        <time>2021-09-17T20:42:47.000Z</time>
      </trkpt>
      <trkpt lat="50.43651" lon="3.48596">
        <ele>19</ele>
        <time>2021-09-17T20:42:48.046Z</time>
      </trkpt>
      <trkpt lat="50.43658" lon="3.48605">
        <ele>19</ele>
        <time>2021-09-17T20:42:50.806Z</time>
      </trkpt>
      <trkpt lat="50.43664" lon="3.48613">
        <ele>19</ele>
        <time>2021-09-17T20:42:52.987Z</time>
      </trkpt>
      <trkpt lat="50.4367" lon="3.48621">
        <ele>19</ele>
        <time>2021-09-17T20:42:56.000Z</time>
      </trkpt>
      <trkpt lat="50.43679" lon="3.48632">
        <ele>19</ele>
        <time>2021-09-17T20:42:58.085Z</time>
      </trkpt>
      <trkpt lat="50.43686" lon="3.4864">
        <ele>19</ele>
        <time>2021-09-17T20:42:59.966Z</time>
      </trkpt>
      <trkpt lat="50.43691" lon="3.48644">
        <ele>19</ele>
        <time>2021-09-17T20:43:02.000Z</time>
      </trkpt>
      <trkpt lat="50.43696" lon="3.4865">
        <ele>19</ele>
        <time>2021-09-17T20:43:02.607Z</time>
      </trkpt>
      <trkpt lat="50.43699" lon="3.48654">
        <ele>19</ele>
        <time>2021-09-17T20:43:03.865Z</time>
      </trkpt>
      <trkpt lat="50.43704" lon="3.4866">
        <ele>19</ele>
        <time>2021-09-17T20:43:06.000Z</time>
      </trkpt>
      <trkpt lat="50.43708" lon="3.48665">
        <ele>19</ele>
        <time>2021-09-17T20:43:06.602Z</time>
      </trkpt>
      <trkpt lat="50.43715" lon="3.48674">
        <ele>19</ele>
        <time>2021-09-17T20:43:09.030Z</time>
      </trkpt>
      <trkpt lat="50.43723" lon="3.48685">
        <ele>19</ele>
        <time>2021-09-17T20:43:11.808Z</time>
      </trkpt>
      <trkpt lat="50.43728" lon="3.48691">
        <ele>19</ele>
        <time>2021-09-17T20:43:13.061Z</time>
      </trkpt>
      <trkpt lat="50.43734" lon="3.48698">
        <ele>19</ele>
        <time>2021-09-17T20:43:16.000Z</time>
      </trkpt>
      <trkpt lat="50.43738" lon="3.48702">
        <ele>19</ele>
        <time>2021-09-17T20:43:16.503Z</time>
      </trkpt>
      <trkpt lat="50.43743" lon="3.48707">
        <ele>19</ele>
        <time>2021-09-17T20:43:17.981Z</time>
      </trkpt>
      <trkpt lat="50.4375" lon="3.48717">
        <ele>19</ele>
        <time>2021-09-17T20:43:20.807Z</time>
      </trkpt>
      <trkpt lat="50.43754" lon="3.48721">
        <ele>19</ele>
        <time>2021-09-17T20:43:22.148Z</time>
      </trkpt>
      <trkpt lat="50.43759" lon="3.48727">
        <ele>19</ele>
        <time>2021-09-17T20:43:23.949Z</time>
      </trkpt>
      <trkpt lat="50.43763" lon="3.48733">
        <ele>19</ele>
        <time>2021-09-17T20:43:25.644Z</time>
      </trkpt>
      <trkpt lat="50.43767" lon="3.48738">
        <ele>19</ele>
        <time>2021-09-17T20:43:26.963Z</time>
      </trkpt>
      <trkpt lat="50.43776" lon="3.48747">
        <ele>19</ele>
        <time>2021-09-17T20:43:30.020Z</time>
      </trkpt>
      <trkpt lat="50.43785" lon="3.48754">
        <ele>19</ele>
        <time>2021-09-17T20:43:32.528Z</time>
      </trkpt>
      <trkpt lat="50.43789" lon="3.48758">
        <ele>19</ele>
        <time>2021-09-17T20:43:33.727Z</time>
      </trkpt>
      <trkpt lat="50.43794" lon="3.48763">
        <ele>19</ele>
        <time>2021-09-17T20:43:36.000Z</time>
      </trkpt>
      <trkpt lat="50.43801" lon="3.48774">
        <ele>19</ele>
        <time>2021-09-17T20:43:37.772Z</time>
      </trkpt>
      <trkpt lat="50.43803" lon="3.4878">
        <ele>19</ele>
        <time>2021-09-17T20:43:41.000Z</time>
      </trkpt>
      <trkpt lat="50.43807" lon="3.48784">
        <ele>19</ele>
        <time>2021-09-17T20:43:42.000Z</time>
      </trkpt>
      <trkpt lat="50.43813" lon="3.4879">
        <ele>19</ele>
        <time>2021-09-17T20:43:42.728Z</time>
      </trkpt>
      <trkpt lat="50.43817" lon="3.48795">
        <ele>19</ele>
        <time>2021-09-17T20:43:45.000Z</time>
      </trkpt>
      <trkpt lat="50.43821" lon="3.48799">
        <ele>19</ele>
        <time>2021-09-17T20:43:46.000Z</time>
      </trkpt>
      <trkpt lat="50.43829" lon="3.48806">
        <ele>19</ele>
        <time>2021-09-17T20:43:47.144Z</time>
      </trkpt>
      <trkpt lat="50.43837" lon="3.48816">
        <ele>19</ele>
        <time>2021-09-17T20:43:49.408Z</time>
      </trkpt>
      <trkpt lat="50.43841" lon="3.48821">
        <ele>19</ele>
        <time>2021-09-17T20:43:50.605Z</time>
      </trkpt>
      <trkpt lat="50.43845" lon="3.48825">
        <ele>19</ele>
        <time>2021-09-17T20:43:51.625Z</time>
      </trkpt>
      <trkpt lat="50.4385" lon="3.48832">
        <ele>19</ele>
        <time>2021-09-17T20:43:54.000Z</time>
      </trkpt>
      <trkpt lat="50.43854" lon="3.48836">
        <ele>19.1</ele>
        <time>2021-09-17T20:43:55.000Z</time>
      </trkpt>
      <trkpt lat="50.43863" lon="3.48848">
        <ele>19.6</ele>
        <time>2021-09-17T20:43:57.071Z</time>
      </trkpt>
      <trkpt lat="50.43868" lon="3.48858">
        <ele>19.9</ele>
        <time>2021-09-17T20:43:59.502Z</time>
      </trkpt>
      <trkpt lat="50.43871" lon="3.48863">
        <ele>20</ele>
        <time>2021-09-17T20:44:00.962Z</time>
      </trkpt>
      <trkpt lat="50.43877" lon="3.4887">
        <ele>20</ele>
        <time>2021-09-17T20:44:03.283Z</time>
      </trkpt>
      <trkpt lat="50.43882" lon="3.48874">
        <ele>20</ele>
        <time>2021-09-17T20:44:05.105Z</time>
      </trkpt>
      <trkpt lat="50.43886" lon="3.48881">
        <ele>20</ele>
        <time>2021-09-17T20:44:07.000Z</time>
      </trkpt>
      <trkpt lat="50.43894" lon="3.48892">
        <ele>20</ele>
        <time>2021-09-17T20:44:10.000Z</time>
      </trkpt>
      <trkpt lat="50.43903" lon="3.48906">
        <ele>20</ele>
        <time>2021-09-17T20:44:13.000Z</time>
      </trkpt>
      <trkpt lat="50.4391" lon="3.48915">
        <ele>20</ele>
        <time>2021-09-17T20:44:15.000Z</time>
      </trkpt>
      <trkpt lat="50.43916" lon="3.48922">
        <ele>20</ele>
        <time>2021-09-17T20:44:15.882Z</time>
      </trkpt>
      <trkpt lat="50.43922" lon="3.48931">
        <ele>20</ele>
        <time>2021-09-17T20:44:18.061Z</time>
      </trkpt>
      <trkpt lat="50.43926" lon="3.48935">
        <ele>20</ele>
        <time>2021-09-17T20:44:19.222Z</time>
      </trkpt>
      <trkpt lat="50.43932" lon="3.48943">
        <ele>20</ele>
        <time>2021-09-17T20:44:22.000Z</time>
      </trkpt>
      <trkpt lat="50.43938" lon="3.4895">
        <ele>20</ele>
        <time>2021-09-17T20:44:23.339Z</time>
      </trkpt>
      <trkpt lat="50.43945" lon="3.48956">
        <ele>20</ele>
        <time>2021-09-17T20:44:26.258Z</time>
      </trkpt>
      <trkpt lat="50.4395" lon="3.48963">
        <ele>20</ele>
        <time>2021-09-17T20:44:29.000Z</time>
      </trkpt>
      <trkpt lat="50.43955" lon="3.48968">
        <ele>20</ele>
        <time>2021-09-17T20:44:30.138Z</time>
      </trkpt>
      <trkpt lat="50.43961" lon="3.48975">
        <ele>20</ele>
        <time>2021-09-17T20:44:33.000Z</time>
      </trkpt>
      <trkpt lat="50.43966" lon="3.48982">
        <ele>20</ele>
        <time>2021-09-17T20:44:35.000Z</time>
      </trkpt>
      <trkpt lat="50.43972" lon="3.48989">
        <ele>20</ele>
        <time>2021-09-17T20:44:36.696Z</time>
      </trkpt>
      <trkpt lat="50.43977" lon="3.48994">
        <ele>20</ele>
        <time>2021-09-17T20:44:38.381Z</time>
      </trkpt>
      <trkpt lat="50.43985" lon="3.49002">
        <ele>20</ele>
        <time>2021-09-17T20:44:40.775Z</time>
      </trkpt>
      <trkpt lat="50.43992" lon="3.4901">
        <ele>20</ele>
        <time>2021-09-17T20:44:43.357Z</time>
      </trkpt>
      <trkpt lat="50.43996" lon="3.49014">
        <ele>20</ele>
        <time>2021-09-17T20:44:44.837Z</time>
      </trkpt>
      <trkpt lat="50.44" lon="3.49019">
        <ele>20</ele>
        <time>2021-09-17T20:44:46.274Z</time>
      </trkpt>
      <trkpt lat="50.44007" lon="3.49026">
        <ele>20</ele>
        <time>2021-09-17T20:44:49.000Z</time>
      </trkpt>
      <trkpt lat="50.44013" lon="3.49036">
        <ele>20</ele>
        <time>2021-09-17T20:44:51.037Z</time>
      </trkpt>
      <trkpt lat="50.44017" lon="3.49041">
        <ele>20</ele>
        <time>2021-09-17T20:44:53.000Z</time>
      </trkpt>
      <trkpt lat="50.4402" lon="3.49048">
        <ele>20</ele>
        <time>2021-09-17T20:45:39.000Z</time>
      </trkpt>
      <trkpt lat="50.44024" lon="3.49053">
        <ele>20</ele>
        <time>2021-09-17T20:45:40.682Z</time>
      </trkpt>
      <trkpt lat="50.44028" lon="3.49059">
        <ele>20</ele>
        <time>2021-09-17T20:45:44.000Z</time>
      </trkpt>
      <trkpt lat="50.44033" lon="3.49068">
        <ele>20</ele>
        <time>2021-09-17T20:45:48.000Z</time>
      </trkpt>
      <trkpt lat="50.44038" lon="3.49072">
        <ele>20</ele>
        <time>2021-09-17T20:45:50.000Z</time>
      </trkpt>
      <trkpt lat="50.44046" lon="3.49079">
        <ele>20</ele>
        <time>2021-09-17T20:45:54.000Z</time>
      </trkpt>
      <trkpt lat="50.44051" lon="3.49085">
        <ele>20</ele>
        <time>2021-09-17T20:45:55.822Z</time>
      </trkpt>
      <trkpt lat="50.44057" lon="3.4909">
        <ele>20</ele>
        <time>2021-09-17T20:45:58.415Z</time>
      </trkpt>
      <trkpt lat="50.44062" lon="3.49097">
        <ele>20</ele>
        <time>2021-09-17T20:46:01.015Z</time>
      </trkpt>
      <trkpt lat="50.44064" lon="3.49104">
        <ele>20</ele>
        <time>2021-09-17T20:46:04.000Z</time>
      </trkpt>
      <trkpt lat="50.44064" lon="3.49113">
        <ele>20</ele>
        <time>2021-09-17T20:46:07.000Z</time>
      </trkpt>
      <trkpt lat="50.44064" lon="3.4912">
        <ele>20</ele>
        <time>2021-09-17T20:46:09.164Z</time>
      </trkpt>
      <trkpt lat="50.44062" lon="3.49132">
        <ele>20</ele>
        <time>2021-09-17T20:46:13.000Z</time>
      </trkpt>
      <trkpt lat="50.4406" lon="3.49142">
        <ele>20</ele>
        <time>2021-09-17T20:46:16.000Z</time>
      </trkpt>
      <trkpt lat="50.44058" lon="3.4915">
        <ele>20</ele>
        <time>2021-09-17T20:46:18.000Z</time>
      </trkpt>
      <trkpt lat="50.44056" lon="3.49159">
        <ele>20</ele>
        <time>2021-09-17T20:46:20.000Z</time>
      </trkpt>
      <trkpt lat="50.44054" lon="3.49173">
        <ele>20</ele>
        <time>2021-09-17T20:46:21.960Z</time>
      </trkpt>
      <trkpt lat="50.44051" lon="3.49184">
        <ele>20</ele>
        <time>2021-09-17T20:46:25.000Z</time>
      </trkpt>
      <trkpt lat="50.44049" lon="3.49193">
        <ele>20</ele>
        <time>2021-09-17T20:46:26.215Z</time>
      </trkpt>
      <trkpt lat="50.44047" lon="3.49205">
        <ele>20.3</ele>
        <time>2021-09-17T20:46:29.000Z</time>
      </trkpt>
      <trkpt lat="50.44045" lon="3.49212">
        <ele>20.4</ele>
        <time>2021-09-17T20:46:29.677Z</time>
      </trkpt>
      <trkpt lat="50.44042" lon="3.49226">
        <ele>20.6</ele>
        <time>2021-09-17T20:46:32.135Z</time>
      </trkpt>
      <trkpt lat="50.44041" lon="3.49234">
        <ele>20.7</ele>
        <time>2021-09-17T20:46:34.000Z</time>
      </trkpt>
      <trkpt lat="50.44039" lon="3.49244">
        <ele>20.9</ele>
        <time>2021-09-17T20:46:35.157Z</time>
      </trkpt>
      <trkpt lat="50.44038" lon="3.49251">
        <ele>21</ele>
        <time>2021-09-17T20:46:36.318Z</time>
      </trkpt>
      <trkpt lat="50.44036" lon="3.49266">
        <ele>21</ele>
        <time>2021-09-17T20:46:39.000Z</time>
      </trkpt>
      <trkpt lat="50.44035" lon="3.49273">
        <ele>21</ele>
        <time>2021-09-17T20:46:39.721Z</time>
      </trkpt>
      <trkpt lat="50.44034" lon="3.49281">
        <ele>21</ele>
        <time>2021-09-17T20:46:41.079Z</time>
      </trkpt>
      <trkpt lat="50.44032" lon="3.49291">
        <ele>21</ele>
        <time>2021-09-17T20:46:42.594Z</time>
      </trkpt>
      <trkpt lat="50.4403" lon="3.49301">
        <ele>21</ele>
        <time>2021-09-17T20:46:44.138Z</time>
      </trkpt>
      <trkpt lat="50.44029" lon="3.4931">
        <ele>21</ele>
        <time>2021-09-17T20:46:46.000Z</time>
      </trkpt>
      <trkpt lat="50.44027" lon="3.49327">
        <ele>21</ele>
        <time>2021-09-17T20:46:48.000Z</time>
      </trkpt>
      <trkpt lat="50.44024" lon="3.49339">
        <ele>21</ele>
        <time>2021-09-17T20:46:49.278Z</time>
      </trkpt>
      <trkpt lat="50.44021" lon="3.49349">
        <ele>21</ele>
        <time>2021-09-17T20:46:50.812Z</time>
      </trkpt>
      <trkpt lat="50.44019" lon="3.49359">
        <ele>21</ele>
        <time>2021-09-17T20:46:53.000Z</time>
      </trkpt>
      <trkpt lat="50.44015" lon="3.49375">
        <ele>21</ele>
        <time>2021-09-17T20:46:55.116Z</time>
      </trkpt>
      <trkpt lat="50.44012" lon="3.49382">
        <ele>21</ele>
        <time>2021-09-17T20:46:56.397Z</time>
      </trkpt>
      <trkpt lat="50.4401" lon="3.49392">
        <ele>21</ele>
        <time>2021-09-17T20:46:58.021Z</time>
      </trkpt>
      <trkpt lat="50.44009" lon="3.49401">
        <ele>21</ele>
        <time>2021-09-17T20:46:59.231Z</time>
      </trkpt>
      <trkpt lat="50.44008" lon="3.49408">
        <ele>21</ele>
        <time>2021-09-17T20:47:01.000Z</time>
      </trkpt>
      <trkpt lat="50.44006" lon="3.49419">
        <ele>21</ele>
        <time>2021-09-17T20:47:02.215Z</time>
      </trkpt>
      <trkpt lat="50.44003" lon="3.49434">
        <ele>21</ele>
        <time>2021-09-17T20:47:04.852Z</time>
      </trkpt>
      <trkpt lat="50.44001" lon="3.49443">
        <ele>21</ele>
        <time>2021-09-17T20:47:07.000Z</time>
      </trkpt>
      <trkpt lat="50.43999" lon="3.49461">
        <ele>21</ele>
        <time>2021-09-17T20:47:10.000Z</time>
      </trkpt>
      <trkpt lat="50.43999" lon="3.49473">
        <ele>21</ele>
        <time>2021-09-17T20:47:12.000Z</time>
      </trkpt>
      <trkpt lat="50.43998" lon="3.49482">
        <ele>21</ele>
        <time>2021-09-17T20:47:13.130Z</time>
      </trkpt>
      <trkpt lat="50.43997" lon="3.4949">
        <ele>21</ele>
        <time>2021-09-17T20:47:15.000Z</time>
      </trkpt>
      <trkpt lat="50.43995" lon="3.49504">
        <ele>21</ele>
        <time>2021-09-17T20:47:16.775Z</time>
      </trkpt>
      <trkpt lat="50.43994" lon="3.49511">
        <ele>21</ele>
        <time>2021-09-17T20:47:17.959Z</time>
      </trkpt>
      <trkpt lat="50.43992" lon="3.49519">
        <ele>21</ele>
        <time>2021-09-17T20:47:19.352Z</time>
      </trkpt>
      <trkpt lat="50.43987" lon="3.49537">
        <ele>21</ele>
        <time>2021-09-17T20:47:23.000Z</time>
      </trkpt>
      <trkpt lat="50.43984" lon="3.49547">
        <ele>21</ele>
        <time>2021-09-17T20:47:24.019Z</time>
      </trkpt>
      <trkpt lat="50.4398" lon="3.49559">
        <ele>21</ele>
        <time>2021-09-17T20:47:27.000Z</time>
      </trkpt>
      <trkpt lat="50.43978" lon="3.49568">
        <ele>21</ele>
        <time>2021-09-17T20:47:27.782Z</time>
      </trkpt>
      <trkpt lat="50.43976" lon="3.49578">
        <ele>21</ele>
        <time>2021-09-17T20:47:30.000Z</time>
      </trkpt>
      <trkpt lat="50.43975" lon="3.49587">
        <ele>21</ele>
        <time>2021-09-17T20:47:30.880Z</time>
      </trkpt>
      <trkpt lat="50.43973" lon="3.49596">
        <ele>21</ele>
        <time>2021-09-17T20:47:33.000Z</time>
      </trkpt>
      <trkpt lat="50.43971" lon="3.49606">
        <ele>21</ele>
        <time>2021-09-17T20:47:34.252Z</time>
      </trkpt>
      <trkpt lat="50.43968" lon="3.49619">
        <ele>21</ele>
        <time>2021-09-17T20:47:37.000Z</time>
      </trkpt>
      <trkpt lat="50.43964" lon="3.49636">
        <ele>21</ele>
        <time>2021-09-17T20:47:39.294Z</time>
      </trkpt>
      <trkpt lat="50.43961" lon="3.49644">
        <ele>21</ele>
        <time>2021-09-17T20:47:41.000Z</time>
      </trkpt>
      <trkpt lat="50.43957" lon="3.49657">
        <ele>21</ele>
        <time>2021-09-17T20:47:43.110Z</time>
      </trkpt>
      <trkpt lat="50.43955" lon="3.49669">
        <ele>21</ele>
        <time>2021-09-17T20:47:45.076Z</time>
      </trkpt>
      <trkpt lat="50.43953" lon="3.49678">
        <ele>21</ele>
        <time>2021-09-17T20:47:47.000Z</time>
      </trkpt>
      <trkpt lat="50.43951" lon="3.49689">
        <ele>21</ele>
        <time>2021-09-17T20:47:49.000Z</time>
      </trkpt>
      <trkpt lat="50.43949" lon="3.49696">
        <ele>21</ele>
        <time>2021-09-17T20:47:49.819Z</time>
      </trkpt>
      <trkpt lat="50.43947" lon="3.49705">
        <ele>21</ele>
        <time>2021-09-17T20:47:52.000Z</time>
      </trkpt>
      <trkpt lat="50.43946" lon="3.49716">
        <ele>21</ele>
        <time>2021-09-17T20:47:53.316Z</time>
      </trkpt>
      <trkpt lat="50.43944" lon="3.49729">
        <ele>21</ele>
        <time>2021-09-17T20:47:55.882Z</time>
      </trkpt>
      <trkpt lat="50.43942" lon="3.49742">
        <ele>21</ele>
        <time>2021-09-17T20:47:59.000Z</time>
      </trkpt>
      <trkpt lat="50.43939" lon="3.49753">
        <ele>21</ele>
        <time>2021-09-17T20:48:01.000Z</time>
      </trkpt>
      <trkpt lat="50.43935" lon="3.49769">
        <ele>21</ele>
        <time>2021-09-17T20:48:04.000Z</time>
      </trkpt>
      <trkpt lat="50.43933" lon="3.4978">
        <ele>21</ele>
        <time>2021-09-17T20:48:06.000Z</time>
      </trkpt>
      <trkpt lat="50.43931" lon="3.49792">
        <ele>21</ele>
        <time>2021-09-17T20:48:08.000Z</time>
      </trkpt>
      <trkpt lat="50.4393" lon="3.49802">
        <ele>21</ele>
        <time>2021-09-17T20:48:08.924Z</time>
      </trkpt>
      <trkpt lat="50.43929" lon="3.4981">
        <ele>21</ele>
        <time>2021-09-17T20:48:11.000Z</time>
      </trkpt>
      <trkpt lat="50.43928" lon="3.49818">
        <ele>21</ele>
        <time>2021-09-17T20:48:12.072Z</time>
      </trkpt>
      <trkpt lat="50.43925" lon="3.49833">
        <ele>21</ele>
        <time>2021-09-17T20:48:16.000Z</time>
      </trkpt>
      <trkpt lat="50.43921" lon="3.49849">
        <ele>21</ele>
        <time>2021-09-17T20:48:18.083Z</time>
      </trkpt>
      <trkpt lat="50.43919" lon="3.49859">
        <ele>21</ele>
        <time>2021-09-17T20:48:21.000Z</time>
      </trkpt>
      <trkpt lat="50.43917" lon="3.49866">
        <ele>21</ele>
        <time>2021-09-17T20:48:21.869Z</time>
      </trkpt>
      <trkpt lat="50.43915" lon="3.49878">
        <ele>21</ele>
        <time>2021-09-17T20:48:24.406Z</time>
      </trkpt>
      <trkpt lat="50.43912" lon="3.49892">
        <ele>21.1</ele>
        <time>2021-09-17T20:48:27.184Z</time>
      </trkpt>
      <trkpt lat="50.4391" lon="3.49903">
        <ele>21.5</ele>
        <time>2021-09-17T20:48:30.000Z</time>
      </trkpt>
      <trkpt lat="50.43907" lon="3.49915">
        <ele>21.9</ele>
        <time>2021-09-17T20:48:32.000Z</time>
      </trkpt>
      <trkpt lat="50.43906" lon="3.49922">
        <ele>22</ele>
        <time>2021-09-17T20:48:32.965Z</time>
      </trkpt>
      <trkpt lat="50.43904" lon="3.4993">
        <ele>22</ele>
        <time>2021-09-17T20:48:35.000Z</time>
      </trkpt>
      <trkpt lat="50.43903" lon="3.49937">
        <ele>22</ele>
        <time>2021-09-17T20:48:36.000Z</time>
      </trkpt>
      <trkpt lat="50.43901" lon="3.49947">
        <ele>22</ele>
        <time>2021-09-17T20:48:38.000Z</time>
      </trkpt>
      <trkpt lat="50.43899" lon="3.49955">
        <ele>22</ele>
        <time>2021-09-17T20:48:39.028Z</time>
      </trkpt>
      <trkpt lat="50.43897" lon="3.49963">
        <ele>22</ele>
        <time>2021-09-17T20:48:41.000Z</time>
      </trkpt>
      <trkpt lat="50.43895" lon="3.49973">
        <ele>22</ele>
        <time>2021-09-17T20:48:42.668Z</time>
      </trkpt>
      <trkpt lat="50.43893" lon="3.49981">
        <ele>22</ele>
        <time>2021-09-17T20:48:45.000Z</time>
      </trkpt>
      <trkpt lat="50.43891" lon="3.49992">
        <ele>22</ele>
        <time>2021-09-17T20:48:46.528Z</time>
      </trkpt>
      <trkpt lat="50.43889" lon="3.50001">
        <ele>22</ele>
        <time>2021-09-17T20:48:48.186Z</time>
      </trkpt>
      <trkpt lat="50.43888" lon="3.50008">
        <ele>22</ele>
        <time>2021-09-17T20:48:49.343Z</time>
      </trkpt>
      <trkpt lat="50.43884" lon="3.50025">
        <ele>22</ele>
        <time>2021-09-17T20:48:52.150Z</time>
      </trkpt>
      <trkpt lat="50.43883" lon="3.50032">
        <ele>22</ele>
        <time>2021-09-17T20:48:54.000Z</time>
      </trkpt>
      <trkpt lat="50.43881" lon="3.5004">
        <ele>22</ele>
        <time>2021-09-17T20:48:55.023Z</time>
      </trkpt>
      <trkpt lat="50.4388" lon="3.50047">
        <ele>22</ele>
        <time>2021-09-17T20:48:57.000Z</time>
      </trkpt>
      <trkpt lat="50.43878" lon="3.50058">
        <ele>22</ele>
        <time>2021-09-17T20:48:59.000Z</time>
      </trkpt>
      <trkpt lat="50.43875" lon="3.50071">
        <ele>22</ele>
        <time>2021-09-17T20:49:00.747Z</time>
      </trkpt>
      <trkpt lat="50.43873" lon="3.50085">
        <ele>22</ele>
        <time>2021-09-17T20:49:04.000Z</time>
      </trkpt>
      <trkpt lat="50.43872" lon="3.50094">
        <ele>22</ele>
        <time>2021-09-17T20:49:05.069Z</time>
      </trkpt>
      <trkpt lat="50.43871" lon="3.50101">
        <ele>22</ele>
        <time>2021-09-17T20:49:07.000Z</time>
      </trkpt>
      <trkpt lat="50.43869" lon="3.5011">
        <ele>22</ele>
        <time>2021-09-17T20:49:08.238Z</time>
      </trkpt>
      <trkpt lat="50.43866" lon="3.50122">
        <ele>22.3</ele>
        <time>2021-09-17T20:49:11.000Z</time>
      </trkpt>
      <trkpt lat="50.43864" lon="3.50132">
        <ele>22.7</ele>
        <time>2021-09-17T20:49:12.261Z</time>
      </trkpt>
      <trkpt lat="50.43862" lon="3.50138">
        <ele>22.9</ele>
        <time>2021-09-17T20:49:14.000Z</time>
      </trkpt>
      <trkpt lat="50.43858" lon="3.50148">
        <ele>23</ele>
        <time>2021-09-17T20:49:15.985Z</time>
      </trkpt>
      <trkpt lat="50.43856" lon="3.5016">
        <ele>23</ele>
        <time>2021-09-17T20:49:18.229Z</time>
      </trkpt>
      <trkpt lat="50.43855" lon="3.50171">
        <ele>23</ele>
        <time>2021-09-17T20:49:21.000Z</time>
      </trkpt>
      <trkpt lat="50.43853" lon="3.50179">
        <ele>23</ele>
        <time>2021-09-17T20:49:22.064Z</time>
      </trkpt>
      <trkpt lat="50.4385" lon="3.5019">
        <ele>23</ele>
        <time>2021-09-17T20:49:24.563Z</time>
      </trkpt>
      <trkpt lat="50.43847" lon="3.50197">
        <ele>23</ele>
        <time>2021-09-17T20:49:25.862Z</time>
      </trkpt>
      <trkpt lat="50.43843" lon="3.50209">
        <ele>23</ele>
        <time>2021-09-17T20:49:29.000Z</time>
      </trkpt>
      <trkpt lat="50.43841" lon="3.5022">
        <ele>23</ele>
        <time>2021-09-17T20:49:30.062Z</time>
      </trkpt>
      <trkpt lat="50.4384" lon="3.50233">
        <ele>23</ele>
        <time>2021-09-17T20:49:33.000Z</time>
      </trkpt>
      <trkpt lat="50.43839" lon="3.50244">
        <ele>23</ele>
        <time>2021-09-17T20:49:35.000Z</time>
      </trkpt>
      <trkpt lat="50.43838" lon="3.50255">
        <ele>23</ele>
        <time>2021-09-17T20:49:37.000Z</time>
      </trkpt>
      <trkpt lat="50.43837" lon="3.50263">
        <ele>23</ele>
        <time>2021-09-17T20:49:37.884Z</time>
      </trkpt>
      <trkpt lat="50.43836" lon="3.50271">
        <ele>23</ele>
        <time>2021-09-17T20:49:40.000Z</time>
      </trkpt>
      <trkpt lat="50.43834" lon="3.50281">
        <ele>23</ele>
        <time>2021-09-17T20:49:41.222Z</time>
      </trkpt>
      <trkpt lat="50.43832" lon="3.5029">
        <ele>23</ele>
        <time>2021-09-17T20:49:43.000Z</time>
      </trkpt>
      <trkpt lat="50.4383" lon="3.50302">
        <ele>23</ele>
        <time>2021-09-17T20:49:45.000Z</time>
      </trkpt>
      <trkpt lat="50.43829" lon="3.5031">
        <ele>23</ele>
        <time>2021-09-17T20:49:45.747Z</time>
      </trkpt>
      <trkpt lat="50.43827" lon="3.50317">
        <ele>23</ele>
        <time>2021-09-17T20:49:46.851Z</time>
      </trkpt>
      <trkpt lat="50.43825" lon="3.50327">
        <ele>23</ele>
        <time>2021-09-17T20:49:49.000Z</time>
      </trkpt>
      <trkpt lat="50.43823" lon="3.50337">
        <ele>23</ele>
        <time>2021-09-17T20:49:50.109Z</time>
      </trkpt>
      <trkpt lat="50.43821" lon="3.50349">
        <ele>23</ele>
        <time>2021-09-17T20:49:52.364Z</time>
      </trkpt>
      <trkpt lat="50.43819" lon="3.50356">
        <ele>23</ele>
        <time>2021-09-17T20:49:54.000Z</time>
      </trkpt>
      <trkpt lat="50.43817" lon="3.50363">
        <ele>23</ele>
        <time>2021-09-17T20:49:55.000Z</time>
      </trkpt>
      <trkpt lat="50.43814" lon="3.50374">
        <ele>23</ele>
        <time>2021-09-17T20:49:56.302Z</time>
      </trkpt>
      <trkpt lat="50.43812" lon="3.50381">
        <ele>23</ele>
        <time>2021-09-17T20:49:58.000Z</time>
      </trkpt>
      <trkpt lat="50.43807" lon="3.50399">
        <ele>23</ele>
        <time>2021-09-17T20:50:01.000Z</time>
      </trkpt>
      <trkpt lat="50.43806" lon="3.50409">
        <ele>23</ele>
        <time>2021-09-17T20:50:02.007Z</time>
      </trkpt>
      <trkpt lat="50.43804" lon="3.50417">
        <ele>23</ele>
        <time>2021-09-17T20:50:03.187Z</time>
      </trkpt>
      <trkpt lat="50.438" lon="3.50427">
        <ele>23</ele>
        <time>2021-09-17T20:50:05.000Z</time>
      </trkpt>
      <trkpt lat="50.43797" lon="3.50432">
        <ele>23</ele>
        <time>2021-09-17T20:50:06.000Z</time>
      </trkpt>
      <trkpt lat="50.43789" lon="3.5045">
        <ele>23</ele>
        <time>2021-09-17T20:50:09.000Z</time>
      </trkpt>
      <trkpt lat="50.43784" lon="3.50458">
        <ele>23</ele>
        <time>2021-09-17T20:50:10.424Z</time>
      </trkpt>
      <trkpt lat="50.43778" lon="3.50462">
        <ele>23</ele>
        <time>2021-09-17T20:50:12.378Z</time>
      </trkpt>
      <trkpt lat="50.43774" lon="3.50476">
        <ele>23.1</ele>
        <time>2021-09-17T20:50:14.000Z</time>
      </trkpt>
      <trkpt lat="50.43769" lon="3.50486">
        <ele>23.3</ele>
        <time>2021-09-17T20:50:16.000Z</time>
      </trkpt>
      <trkpt lat="50.43765" lon="3.50498">
        <ele>23.5</ele>
        <time>2021-09-17T20:50:18.000Z</time>
      </trkpt>
      <trkpt lat="50.43759" lon="3.50508">
        <ele>23.8</ele>
        <time>2021-09-17T20:50:20.000Z</time>
      </trkpt>
      <trkpt lat="50.4375" lon="3.50518">
        <ele>24</ele>
        <time>2021-09-17T20:50:22.000Z</time>
      </trkpt>
      <trkpt lat="50.43744" lon="3.5052">
        <ele>24</ele>
        <time>2021-09-17T20:50:23.275Z</time>
      </trkpt>
      <trkpt lat="50.43739" lon="3.50526">
        <ele>24</ele>
        <time>2021-09-17T20:50:26.000Z</time>
      </trkpt>
      <trkpt lat="50.43734" lon="3.50536">
        <ele>24</ele>
        <time>2021-09-17T20:50:27.130Z</time>
      </trkpt>
      <trkpt lat="50.4373" lon="3.50544">
        <ele>24</ele>
        <time>2021-09-17T20:50:29.000Z</time>
      </trkpt>
      <trkpt lat="50.43724" lon="3.50554">
        <ele>24</ele>
        <time>2021-09-17T20:50:31.000Z</time>
      </trkpt>
      <trkpt lat="50.43719" lon="3.50564">
        <ele>24</ele>
        <time>2021-09-17T20:50:33.000Z</time>
      </trkpt>
      <trkpt lat="50.43716" lon="3.50572">
        <ele>24</ele>
        <time>2021-09-17T20:50:33.978Z</time>
      </trkpt>
      <trkpt lat="50.43712" lon="3.50581">
        <ele>24</ele>
        <time>2021-09-17T20:50:36.000Z</time>
      </trkpt>
      <trkpt lat="50.43709" lon="3.50587">
        <ele>23.9</ele>
        <time>2021-09-17T20:50:36.628Z</time>
      </trkpt>
      <trkpt lat="50.43702" lon="3.506">
        <ele>23.6</ele>
        <time>2021-09-17T20:50:39.235Z</time>
      </trkpt>
      <trkpt lat="50.43698" lon="3.50605">
        <ele>23.3</ele>
        <time>2021-09-17T20:50:41.000Z</time>
      </trkpt>
      <trkpt lat="50.43692" lon="3.50615">
        <ele>23</ele>
        <time>2021-09-17T20:50:42.994Z</time>
      </trkpt>
      <trkpt lat="50.43688" lon="3.5062">
        <ele>23</ele>
        <time>2021-09-17T20:50:44.295Z</time>
      </trkpt>
      <trkpt lat="50.43683" lon="3.5063">
        <ele>23</ele>
        <time>2021-09-17T20:50:47.000Z</time>
      </trkpt>
      <trkpt lat="50.43682" lon="3.50644">
        <ele>23</ele>
        <time>2021-09-17T20:50:50.000Z</time>
      </trkpt>
      <trkpt lat="50.43687" lon="3.50655">
        <ele>23</ele>
        <time>2021-09-17T20:50:52.000Z</time>
      </trkpt>
      <trkpt lat="50.43694" lon="3.50669">
        <ele>23</ele>
        <time>2021-09-17T20:50:54.136Z</time>
      </trkpt>
      <trkpt lat="50.43698" lon="3.50675">
        <ele>23</ele>
        <time>2021-09-17T20:50:56.000Z</time>
      </trkpt>
      <trkpt lat="50.43703" lon="3.50689">
        <ele>23</ele>
        <time>2021-09-17T20:50:58.215Z</time>
      </trkpt>
      <trkpt lat="50.43707" lon="3.50701">
        <ele>23</ele>
        <time>2021-09-17T20:51:01.000Z</time>
      </trkpt>
      <trkpt lat="50.4371" lon="3.50708">
        <ele>23</ele>
        <time>2021-09-17T20:51:01.938Z</time>
      </trkpt>
      <trkpt lat="50.43714" lon="3.50721">
        <ele>23</ele>
        <time>2021-09-17T20:51:05.000Z</time>
      </trkpt>
      <trkpt lat="50.43718" lon="3.50733">
        <ele>23</ele>
        <time>2021-09-17T20:51:07.000Z</time>
      </trkpt>
      <trkpt lat="50.43721" lon="3.50745">
        <ele>23</ele>
        <time>2021-09-17T20:51:08.495Z</time>
      </trkpt>
      <trkpt lat="50.43724" lon="3.50751">
        <ele>23</ele>
        <time>2021-09-17T20:51:10.151Z</time>
      </trkpt>
      <trkpt lat="50.43726" lon="3.50757">
        <ele>23</ele>
        <time>2021-09-17T20:51:12.000Z</time>
      </trkpt>
      <trkpt lat="50.4373" lon="3.50764">
        <ele>23.1</ele>
        <time>2021-09-17T20:51:13.134Z</time>
      </trkpt>
      <trkpt lat="50.43735" lon="3.50774">
        <ele>23.4</ele>
        <time>2021-09-17T20:51:16.000Z</time>
      </trkpt>
      <trkpt lat="50.43739" lon="3.50783">
        <ele>23.7</ele>
        <time>2021-09-17T20:51:18.000Z</time>
      </trkpt>
      <trkpt lat="50.43743" lon="3.50792">
        <ele>23.9</ele>
        <time>2021-09-17T20:51:20.000Z</time>
      </trkpt>
      <trkpt lat="50.43749" lon="3.50803">
        <ele>24</ele>
        <time>2021-09-17T20:51:23.000Z</time>
      </trkpt>
      <trkpt lat="50.43754" lon="3.50814">
        <ele>24</ele>
        <time>2021-09-17T20:51:26.000Z</time>
      </trkpt>
      <trkpt lat="50.43757" lon="3.50822">
        <ele>24</ele>
        <time>2021-09-17T20:51:28.000Z</time>
      </trkpt>
      <trkpt lat="50.4376" lon="3.50828">
        <ele>24</ele>
        <time>2021-09-17T20:51:28.671Z</time>
      </trkpt>
      <trkpt lat="50.43765" lon="3.50838">
        <ele>24.2</ele>
        <time>2021-09-17T20:51:31.311Z</time>
      </trkpt>
      <trkpt lat="50.43769" lon="3.50848">
        <ele>24.5</ele>
        <time>2021-09-17T20:51:34.000Z</time>
      </trkpt>
      <trkpt lat="50.43772" lon="3.50857">
        <ele>24.9</ele>
        <time>2021-09-17T20:51:35.370Z</time>
      </trkpt>
      <trkpt lat="50.43777" lon="3.50872">
        <ele>25</ele>
        <time>2021-09-17T20:51:38.297Z</time>
      </trkpt>
      <trkpt lat="50.43782" lon="3.50886">
        <ele>25</ele>
        <time>2021-09-17T20:51:41.094Z</time>
      </trkpt>
      <trkpt lat="50.43785" lon="3.50893">
        <ele>25</ele>
        <time>2021-09-17T20:51:42.610Z</time>
      </trkpt>
      <trkpt lat="50.43788" lon="3.50901">
        <ele>25</ele>
        <time>2021-09-17T20:51:45.000Z</time>
      </trkpt>
      <trkpt lat="50.43794" lon="3.50915">
        <ele>25</ele>
        <time>2021-09-17T20:51:48.000Z</time>
      </trkpt>
      <trkpt lat="50.43799" lon="3.50927">
        <ele>25.1</ele>
        <time>2021-09-17T20:51:49.972Z</time>
      </trkpt>
      <trkpt lat="50.43802" lon="3.50935">
        <ele>25.1</ele>
        <time>2021-09-17T20:51:51.059Z</time>
      </trkpt>
      <trkpt lat="50.43805" lon="3.50946">
        <ele>25.1</ele>
        <time>2021-09-17T20:51:54.000Z</time>
      </trkpt>
      <trkpt lat="50.43809" lon="3.50955">
        <ele>25.3</ele>
        <time>2021-09-17T20:51:56.000Z</time>
      </trkpt>
      <trkpt lat="50.43813" lon="3.50965">
        <ele>25.5</ele>
        <time>2021-09-17T20:51:57.894Z</time>
      </trkpt>
      <trkpt lat="50.43815" lon="3.50973">
        <ele>25.7</ele>
        <time>2021-09-17T20:52:00.000Z</time>
      </trkpt>
      <trkpt lat="50.43818" lon="3.50983">
        <ele>25.6</ele>
        <time>2021-09-17T20:52:02.000Z</time>
      </trkpt>
      <trkpt lat="50.43821" lon="3.50992">
        <ele>25.4</ele>
        <time>2021-09-17T20:52:02.749Z</time>
      </trkpt>
      <trkpt lat="50.43825" lon="3.51001">
        <ele>25.3</ele>
        <time>2021-09-17T20:52:05.051Z</time>
      </trkpt>
      <trkpt lat="50.43829" lon="3.5101">
        <ele>25.5</ele>
        <time>2021-09-17T20:52:07.192Z</time>
      </trkpt>
      <trkpt lat="50.43831" lon="3.51016">
        <ele>25.7</ele>
        <time>2021-09-17T20:52:09.000Z</time>
      </trkpt>
      <trkpt lat="50.43834" lon="3.51024">
        <ele>25.9</ele>
        <time>2021-09-17T20:52:09.972Z</time>
      </trkpt>
      <trkpt lat="50.43836" lon="3.51031">
        <ele>26.1</ele>
        <time>2021-09-17T20:52:11.234Z</time>
      </trkpt>
      <trkpt lat="50.4384" lon="3.5104">
        <ele>26.3</ele>
        <time>2021-09-17T20:52:14.000Z</time>
      </trkpt>
      <trkpt lat="50.43843" lon="3.51048">
        <ele>26.5</ele>
        <time>2021-09-17T20:52:15.193Z</time>
      </trkpt>
      <trkpt lat="50.43847" lon="3.51056">
        <ele>26.5</ele>
        <time>2021-09-17T20:52:18.000Z</time>
      </trkpt>
      <trkpt lat="50.43852" lon="3.51065">
        <ele>26.7</ele>
        <time>2021-09-17T20:52:20.000Z</time>
      </trkpt>
      <trkpt lat="50.43855" lon="3.51072">
        <ele>26.8</ele>
        <time>2021-09-17T20:52:22.000Z</time>
      </trkpt>
      <trkpt lat="50.43858" lon="3.51079">
        <ele>27</ele>
        <time>2021-09-17T20:52:24.000Z</time>
      </trkpt>
      <trkpt lat="50.43861" lon="3.51086">
        <ele>27.1</ele>
        <time>2021-09-17T20:52:26.000Z</time>
      </trkpt>
      <trkpt lat="50.43865" lon="3.51095">
        <ele>27.3</ele>
        <time>2021-09-17T20:52:29.000Z</time>
      </trkpt>
      <trkpt lat="50.43867" lon="3.51103">
        <ele>27.5</ele>
        <time>2021-09-17T20:52:31.000Z</time>
      </trkpt>
      <trkpt lat="50.43872" lon="3.51115">
        <ele>27.7</ele>
        <time>2021-09-17T20:52:34.000Z</time>
      </trkpt>
      <trkpt lat="50.43875" lon="3.51122">
        <ele>27.7</ele>
        <time>2021-09-17T20:52:36.000Z</time>
      </trkpt>
      <trkpt lat="50.4388" lon="3.51134">
        <ele>27.9</ele>
        <time>2021-09-17T20:52:39.000Z</time>
      </trkpt>
      <trkpt lat="50.43883" lon="3.51142">
        <ele>28</ele>
        <time>2021-09-17T20:52:41.000Z</time>
      </trkpt>
      <trkpt lat="50.43886" lon="3.51148">
        <ele>28</ele>
        <time>2021-09-17T20:52:43.000Z</time>
      </trkpt>
      <trkpt lat="50.43889" lon="3.51155">
        <ele>28</ele>
        <time>2021-09-17T20:52:45.000Z</time>
      </trkpt>
      <trkpt lat="50.43893" lon="3.51166">
        <ele>28</ele>
        <time>2021-09-17T20:52:48.000Z</time>
      </trkpt>
      <trkpt lat="50.43898" lon="3.51175">
        <ele>28.3</ele>
        <time>2021-09-17T20:52:51.000Z</time>
      </trkpt>
      <trkpt lat="50.43902" lon="3.51183">
        <ele>28.6</ele>
        <time>2021-09-17T20:52:54.000Z</time>
      </trkpt>
      <trkpt lat="50.43904" lon="3.51192">
        <ele>28.9</ele>
        <time>2021-09-17T20:52:57.000Z</time>
      </trkpt>
      <trkpt lat="50.43907" lon="3.512">
        <ele>29.2</ele>
        <time>2021-09-17T20:53:00.000Z</time>
      </trkpt>
      <trkpt lat="50.43911" lon="3.51206">
        <ele>29.4</ele>
        <time>2021-09-17T20:53:02.000Z</time>
      </trkpt>
      <trkpt lat="50.43915" lon="3.51216">
        <ele>29.8</ele>
        <time>2021-09-17T20:53:05.000Z</time>
      </trkpt>
      <trkpt lat="50.43918" lon="3.51223">
        <ele>30</ele>
        <time>2021-09-17T20:53:06.376Z</time>
      </trkpt>
      <trkpt lat="50.43921" lon="3.51232">
        <ele>29.9</ele>
        <time>2021-09-17T20:53:10.000Z</time>
      </trkpt>
      <trkpt lat="50.43923" lon="3.51239">
        <ele>29.9</ele>
        <time>2021-09-17T20:53:12.000Z</time>
      </trkpt>
      <trkpt lat="50.43925" lon="3.51246">
        <ele>30</ele>
        <time>2021-09-17T20:53:14.000Z</time>
      </trkpt>
      <trkpt lat="50.43928" lon="3.51254">
        <ele>30.1</ele>
        <time>2021-09-17T20:53:16.000Z</time>
      </trkpt>
      <trkpt lat="50.43931" lon="3.51262">
        <ele>30.2</ele>
        <time>2021-09-17T20:53:19.000Z</time>
      </trkpt>
      <trkpt lat="50.43935" lon="3.51273">
        <ele>30.3</ele>
        <time>2021-09-17T20:53:22.000Z</time>
      </trkpt>
      <trkpt lat="50.43938" lon="3.51282">
        <ele>30.3</ele>
        <time>2021-09-17T20:53:25.000Z</time>
      </trkpt>
      <trkpt lat="50.43941" lon="3.51291">
        <ele>30.5</ele>
        <time>2021-09-17T20:53:28.000Z</time>
      </trkpt>
      <trkpt lat="50.43947" lon="3.51302">
        <ele>30.8</ele>
        <time>2021-09-17T20:53:31.000Z</time>
      </trkpt>
      <trkpt lat="50.4395" lon="3.51309">
        <ele>30.8</ele>
        <time>2021-09-17T20:53:33.000Z</time>
      </trkpt>
      <trkpt lat="50.43954" lon="3.5132">
        <ele>30.8</ele>
        <time>2021-09-17T20:53:36.000Z</time>
      </trkpt>
      <trkpt lat="50.43958" lon="3.51331">
        <ele>31</ele>
        <time>2021-09-17T20:53:39.000Z</time>
      </trkpt>
      <trkpt lat="50.43961" lon="3.51337">
        <ele>31.1</ele>
        <time>2021-09-17T20:53:41.000Z</time>
      </trkpt>
      <trkpt lat="50.43965" lon="3.51346">
        <ele>31.1</ele>
        <time>2021-09-17T20:53:43.000Z</time>
      </trkpt>
      <trkpt lat="50.43969" lon="3.51359">
        <ele>31.1</ele>
        <time>2021-09-17T20:53:46.000Z</time>
      </trkpt>
      <trkpt lat="50.43972" lon="3.51368">
        <ele>31</ele>
        <time>2021-09-17T20:53:48.000Z</time>
      </trkpt>
      <trkpt lat="50.43975" lon="3.51377">
        <ele>30.9</ele>
        <time>2021-09-17T20:53:50.000Z</time>
      </trkpt>
      <trkpt lat="50.43979" lon="3.51388">
        <ele>30.8</ele>
        <time>2021-09-17T20:53:51.341Z</time>
      </trkpt>
      <trkpt lat="50.43984" lon="3.51398">
        <ele>30.9</ele>
        <time>2021-09-17T20:53:53.640Z</time>
      </trkpt>
      <trkpt lat="50.43987" lon="3.51404">
        <ele>31</ele>
        <time>2021-09-17T20:53:54.857Z</time>
      </trkpt>
      <trkpt lat="50.43989" lon="3.51411">
        <ele>31.2</ele>
        <time>2021-09-17T20:53:56.120Z</time>
      </trkpt>
      <trkpt lat="50.43992" lon="3.51419">
        <ele>31.3</ele>
        <time>2021-09-17T20:53:58.000Z</time>
      </trkpt>
      <trkpt lat="50.43995" lon="3.51427">
        <ele>31.2</ele>
        <time>2021-09-17T20:53:58.582Z</time>
      </trkpt>
      <trkpt lat="50.43998" lon="3.51434">
        <ele>31.1</ele>
        <time>2021-09-17T20:54:00.076Z</time>
      </trkpt>
      <trkpt lat="50.44001" lon="3.51442">
        <ele>31</ele>
        <time>2021-09-17T20:54:02.000Z</time>
      </trkpt>
      <trkpt lat="50.44009" lon="3.51461">
        <ele>30.7</ele>
        <time>2021-09-17T20:54:05.000Z</time>
      </trkpt>
      <trkpt lat="50.44011" lon="3.51467">
        <ele>30.6</ele>
        <time>2021-09-17T20:54:06.000Z</time>
      </trkpt>
      <trkpt lat="50.44016" lon="3.51476">
        <ele>30.4</ele>
        <time>2021-09-17T20:54:08.000Z</time>
      </trkpt>
      <trkpt lat="50.4402" lon="3.51491">
        <ele>30.3</ele>
        <time>2021-09-17T20:54:10.000Z</time>
      </trkpt>
      <trkpt lat="50.44023" lon="3.51498">
        <ele>30.2</ele>
        <time>2021-09-17T20:54:11.000Z</time>
      </trkpt>
      <trkpt lat="50.44029" lon="3.51511">
        <ele>30.3</ele>
        <time>2021-09-17T20:54:13.000Z</time>
      </trkpt>
      <trkpt lat="50.44032" lon="3.51522">
        <ele>30.5</ele>
        <time>2021-09-17T20:54:15.000Z</time>
      </trkpt>
      <trkpt lat="50.44037" lon="3.5153">
        <ele>30.4</ele>
        <time>2021-09-17T20:54:17.053Z</time>
      </trkpt>
      <trkpt lat="50.44041" lon="3.5154">
        <ele>30.3</ele>
        <time>2021-09-17T20:54:19.000Z</time>
      </trkpt>
      <trkpt lat="50.44044" lon="3.51551">
        <ele>30.3</ele>
        <time>2021-09-17T20:54:19.813Z</time>
      </trkpt>
      <trkpt lat="50.44048" lon="3.51558">
        <ele>30.3</ele>
        <time>2021-09-17T20:54:21.028Z</time>
      </trkpt>
      <trkpt lat="50.44053" lon="3.5157">
        <ele>30.1</ele>
        <time>2021-09-17T20:54:23.152Z</time>
      </trkpt>
      <trkpt lat="50.44059" lon="3.51582">
        <ele>30</ele>
        <time>2021-09-17T20:54:26.000Z</time>
      </trkpt>
      <trkpt lat="50.44061" lon="3.51588">
        <ele>30</ele>
        <time>2021-09-17T20:54:27.000Z</time>
      </trkpt>
      <trkpt lat="50.44067" lon="3.51602">
        <ele>30</ele>
        <time>2021-09-17T20:54:29.000Z</time>
      </trkpt>
      <trkpt lat="50.44073" lon="3.51614">
        <ele>30</ele>
        <time>2021-09-17T20:54:31.000Z</time>
      </trkpt>
      <trkpt lat="50.44078" lon="3.51627">
        <ele>30</ele>
        <time>2021-09-17T20:54:33.000Z</time>
      </trkpt>
      <trkpt lat="50.44082" lon="3.5164">
        <ele>30</ele>
        <time>2021-09-17T20:54:35.000Z</time>
      </trkpt>
      <trkpt lat="50.44085" lon="3.51646">
        <ele>29.9</ele>
        <time>2021-09-17T20:54:36.000Z</time>
      </trkpt>
      <trkpt lat="50.44092" lon="3.51663">
        <ele>29.7</ele>
        <time>2021-09-17T20:54:38.000Z</time>
      </trkpt>
      <trkpt lat="50.441" lon="3.51678">
        <ele>29.2</ele>
        <time>2021-09-17T20:54:40.000Z</time>
      </trkpt>
      <trkpt lat="50.44104" lon="3.51685">
        <ele>29.1</ele>
        <time>2021-09-17T20:54:41.000Z</time>
      </trkpt>
      <trkpt lat="50.44106" lon="3.51693">
        <ele>29</ele>
        <time>2021-09-17T20:54:42.000Z</time>
      </trkpt>
      <trkpt lat="50.44109" lon="3.51701">
        <ele>29</ele>
        <time>2021-09-17T20:54:43.000Z</time>
      </trkpt>
      <trkpt lat="50.44111" lon="3.5171">
        <ele>29</ele>
        <time>2021-09-17T20:54:44.000Z</time>
      </trkpt>
      <trkpt lat="50.44117" lon="3.51726">
        <ele>28.8</ele>
        <time>2021-09-17T20:54:46.000Z</time>
      </trkpt>
      <trkpt lat="50.44125" lon="3.51745">
        <ele>28.5</ele>
        <time>2021-09-17T20:54:48.000Z</time>
      </trkpt>
      <trkpt lat="50.44134" lon="3.51759">
        <ele>28.4</ele>
        <time>2021-09-17T20:54:50.000Z</time>
      </trkpt>
      <trkpt lat="50.44141" lon="3.51776">
        <ele>28.9</ele>
        <time>2021-09-17T20:54:52.000Z</time>
      </trkpt>
      <trkpt lat="50.44147" lon="3.51794">
        <ele>28.7</ele>
        <time>2021-09-17T20:54:54.000Z</time>
      </trkpt>
      <trkpt lat="50.4415" lon="3.51804">
        <ele>28.6</ele>
        <time>2021-09-17T20:54:55.000Z</time>
      </trkpt>
      <trkpt lat="50.44158" lon="3.51823">
        <ele>28.3</ele>
        <time>2021-09-17T20:54:57.000Z</time>
      </trkpt>
      <trkpt lat="50.44162" lon="3.51832">
        <ele>28.2</ele>
        <time>2021-09-17T20:54:58.000Z</time>
      </trkpt>
      <trkpt lat="50.44166" lon="3.5185">
        <ele>28.6</ele>
        <time>2021-09-17T20:55:00.000Z</time>
      </trkpt>
      <trkpt lat="50.44171" lon="3.51868">
        <ele>28.7</ele>
        <time>2021-09-17T20:55:02.000Z</time>
      </trkpt>
      <trkpt lat="50.44174" lon="3.51877">
        <ele>28.6</ele>
        <time>2021-09-17T20:55:03.000Z</time>
      </trkpt>
      <trkpt lat="50.4418" lon="3.51893">
        <ele>28.5</ele>
        <time>2021-09-17T20:55:05.000Z</time>
      </trkpt>
      <trkpt lat="50.44183" lon="3.51901">
        <ele>28.4</ele>
        <time>2021-09-17T20:55:06.000Z</time>
      </trkpt>
      <trkpt lat="50.44186" lon="3.51909">
        <ele>28.3</ele>
        <time>2021-09-17T20:55:07.000Z</time>
      </trkpt>
      <trkpt lat="50.4419" lon="3.51918">
        <ele>28.2</ele>
        <time>2021-09-17T20:55:08.000Z</time>
      </trkpt>
      <trkpt lat="50.44195" lon="3.51931">
        <ele>28</ele>
        <time>2021-09-17T20:55:10.000Z</time>
      </trkpt>
      <trkpt lat="50.442" lon="3.51948">
        <ele>27.6</ele>
        <time>2021-09-17T20:55:12.000Z</time>
      </trkpt>
      <trkpt lat="50.442" lon="3.51966">
        <ele>27.8</ele>
        <time>2021-09-17T20:55:14.000Z</time>
      </trkpt>
      <trkpt lat="50.44198" lon="3.51975">
        <ele>28</ele>
        <time>2021-09-17T20:55:15.000Z</time>
      </trkpt>
      <trkpt lat="50.44194" lon="3.51989">
        <ele>28.6</ele>
        <time>2021-09-17T20:55:17.000Z</time>
      </trkpt>
      <trkpt lat="50.44189" lon="3.52001">
        <ele>29.2</ele>
        <time>2021-09-17T20:55:20.000Z</time>
      </trkpt>
      <trkpt lat="50.44185" lon="3.52007">
        <ele>29.7</ele>
        <time>2021-09-17T20:55:21.638Z</time>
      </trkpt>
      <trkpt lat="50.4418" lon="3.52011">
        <ele>30.1</ele>
        <time>2021-09-17T20:55:24.648Z</time>
      </trkpt>
      <trkpt lat="50.44176" lon="3.52017">
        <ele>30.7</ele>
        <time>2021-09-17T20:55:28.000Z</time>
      </trkpt>
      <trkpt lat="50.44173" lon="3.52025">
        <ele>31.4</ele>
        <time>2021-09-17T20:55:31.000Z</time>
      </trkpt>
      <trkpt lat="50.44168" lon="3.52031">
        <ele>32</ele>
        <time>2021-09-17T20:55:34.000Z</time>
      </trkpt>
      <trkpt lat="50.44163" lon="3.52038">
        <ele>32.5</ele>
        <time>2021-09-17T20:55:38.000Z</time>
      </trkpt>
      <trkpt lat="50.44158" lon="3.52043">
        <ele>33</ele>
        <time>2021-09-17T20:55:41.000Z</time>
      </trkpt>
      <trkpt lat="50.44154" lon="3.52048">
        <ele>33.5</ele>
        <time>2021-09-17T20:55:44.000Z</time>
      </trkpt>
      <trkpt lat="50.44151" lon="3.52053">
        <ele>34</ele>
        <time>2021-09-17T20:55:46.000Z</time>
      </trkpt>
      <trkpt lat="50.44147" lon="3.52059">
        <ele>34.7</ele>
        <time>2021-09-17T20:55:49.000Z</time>
      </trkpt>
      <trkpt lat="50.44143" lon="3.52064">
        <ele>35.3</ele>
        <time>2021-09-17T20:55:52.000Z</time>
      </trkpt>
      <trkpt lat="50.44139" lon="3.52069">
        <ele>36</ele>
        <time>2021-09-17T20:55:55.000Z</time>
      </trkpt>
      <trkpt lat="50.44133" lon="3.52076">
        <ele>36.7</ele>
        <time>2021-09-17T20:56:00.000Z</time>
      </trkpt>
      <trkpt lat="50.4413" lon="3.52082">
        <ele>37.2</ele>
        <time>2021-09-17T20:56:03.000Z</time>
      </trkpt>
      <trkpt lat="50.44126" lon="3.52086">
        <ele>37.6</ele>
        <time>2021-09-17T20:56:06.000Z</time>
      </trkpt>
      <trkpt lat="50.44122" lon="3.5209">
        <ele>38</ele>
        <time>2021-09-17T20:56:09.000Z</time>
      </trkpt>
      <trkpt lat="50.44116" lon="3.52097">
        <ele>38.7</ele>
        <time>2021-09-17T20:56:12.000Z</time>
      </trkpt>
      <trkpt lat="50.44112" lon="3.52101">
        <ele>39.2</ele>
        <time>2021-09-17T20:56:15.000Z</time>
      </trkpt>
      <trkpt lat="50.44106" lon="3.52108">
        <ele>39.8</ele>
        <time>2021-09-17T20:56:19.000Z</time>
      </trkpt>
      <trkpt lat="50.44103" lon="3.52114">
        <ele>40</ele>
        <time>2021-09-17T20:56:21.000Z</time>
      </trkpt>
      <trkpt lat="50.44102" lon="3.52123">
        <ele>40</ele>
        <time>2021-09-17T20:56:24.000Z</time>
      </trkpt>
      <trkpt lat="50.44102" lon="3.52136">
        <ele>40</ele>
        <time>2021-09-17T20:56:27.116Z</time>
      </trkpt>
      <trkpt lat="50.44104" lon="3.52145">
        <ele>40</ele>
        <time>2021-09-17T20:56:30.000Z</time>
      </trkpt>
      <trkpt lat="50.44105" lon="3.52157">
        <ele>40</ele>
        <time>2021-09-17T20:56:32.354Z</time>
      </trkpt>
      <trkpt lat="50.44107" lon="3.52169">
        <ele>40</ele>
        <time>2021-09-17T20:56:36.000Z</time>
      </trkpt>
      <trkpt lat="50.44109" lon="3.52179">
        <ele>40</ele>
        <time>2021-09-17T20:56:38.000Z</time>
      </trkpt>
      <trkpt lat="50.4411" lon="3.52191">
        <ele>40</ele>
        <time>2021-09-17T20:56:41.000Z</time>
      </trkpt>
      <trkpt lat="50.44112" lon="3.522">
        <ele>39.8</ele>
        <time>2021-09-17T20:56:43.000Z</time>
      </trkpt>
      <trkpt lat="50.44113" lon="3.52209">
        <ele>39.4</ele>
        <time>2021-09-17T20:56:43.990Z</time>
      </trkpt>
      <trkpt lat="50.44114" lon="3.52216">
        <ele>39.2</ele>
        <time>2021-09-17T20:56:46.000Z</time>
      </trkpt>
      <trkpt lat="50.44116" lon="3.52228">
        <ele>39</ele>
        <time>2021-09-17T20:56:48.000Z</time>
      </trkpt>
      <trkpt lat="50.44118" lon="3.52246">
        <ele>39</ele>
        <time>2021-09-17T20:56:49.910Z</time>
      </trkpt>
      <trkpt lat="50.44119" lon="3.52261">
        <ele>39</ele>
        <time>2021-09-17T20:56:52.192Z</time>
      </trkpt>
      <trkpt lat="50.44121" lon="3.5227">
        <ele>39</ele>
        <time>2021-09-17T20:56:54.000Z</time>
      </trkpt>
      <trkpt lat="50.44121" lon="3.52277">
        <ele>39</ele>
        <time>2021-09-17T20:56:55.000Z</time>
      </trkpt>
      <trkpt lat="50.44122" lon="3.52285">
        <ele>39</ele>
        <time>2021-09-17T20:56:56.000Z</time>
      </trkpt>
      <trkpt lat="50.44123" lon="3.52301">
        <ele>39</ele>
        <time>2021-09-17T20:56:58.000Z</time>
      </trkpt>
      <trkpt lat="50.44122" lon="3.52312">
        <ele>39</ele>
        <time>2021-09-17T20:57:00.000Z</time>
      </trkpt>
      <trkpt lat="50.44126" lon="3.5233">
        <ele>39</ele>
        <time>2021-09-17T20:57:02.000Z</time>
      </trkpt>
      <trkpt lat="50.44128" lon="3.52346">
        <ele>38.5</ele>
        <time>2021-09-17T20:57:04.000Z</time>
      </trkpt>
      <trkpt lat="50.44129" lon="3.52353">
        <ele>38.3</ele>
        <time>2021-09-17T20:57:05.000Z</time>
      </trkpt>
      <trkpt lat="50.44131" lon="3.52367">
        <ele>38</ele>
        <time>2021-09-17T20:57:07.000Z</time>
      </trkpt>
      <trkpt lat="50.44133" lon="3.52379">
        <ele>38</ele>
        <time>2021-09-17T20:57:09.000Z</time>
      </trkpt>
      <trkpt lat="50.44135" lon="3.52387">
        <ele>38</ele>
        <time>2021-09-17T20:57:11.000Z</time>
      </trkpt>
      <trkpt lat="50.44138" lon="3.524">
        <ele>38</ele>
        <time>2021-09-17T20:57:13.000Z</time>
      </trkpt>
      <trkpt lat="50.44141" lon="3.52407">
        <ele>38</ele>
        <time>2021-09-17T20:57:13.740Z</time>
      </trkpt>
      <trkpt lat="50.44142" lon="3.52419">
        <ele>38</ele>
        <time>2021-09-17T20:57:16.264Z</time>
      </trkpt>
      <trkpt lat="50.44142" lon="3.5243">
        <ele>38</ele>
        <time>2021-09-17T20:57:18.446Z</time>
      </trkpt>
      <trkpt lat="50.44143" lon="3.52442">
        <ele>38</ele>
        <time>2021-09-17T20:57:20.802Z</time>
      </trkpt>
      <trkpt lat="50.44144" lon="3.52451">
        <ele>38</ele>
        <time>2021-09-17T20:57:23.000Z</time>
      </trkpt>
      <trkpt lat="50.44145" lon="3.52467">
        <ele>38</ele>
        <time>2021-09-17T20:57:25.198Z</time>
      </trkpt>
      <trkpt lat="50.44146" lon="3.52474">
        <ele>38</ele>
        <time>2021-09-17T20:57:27.000Z</time>
      </trkpt>
      <trkpt lat="50.44148" lon="3.52487">
        <ele>37.6</ele>
        <time>2021-09-17T20:57:28.304Z</time>
      </trkpt>
      <trkpt lat="50.44151" lon="3.52494">
        <ele>37.6</ele>
        <time>2021-09-17T20:57:30.000Z</time>
      </trkpt>
      <trkpt lat="50.44155" lon="3.52504">
        <ele>37.5</ele>
        <time>2021-09-17T20:57:31.223Z</time>
      </trkpt>
      <trkpt lat="50.44161" lon="3.52511">
        <ele>37.5</ele>
        <time>2021-09-17T20:57:32.839Z</time>
      </trkpt>
      <trkpt lat="50.44167" lon="3.52515">
        <ele>37.5</ele>
        <time>2021-09-17T20:57:35.000Z</time>
      </trkpt>
      <trkpt lat="50.44177" lon="3.52517">
        <ele>37.6</ele>
        <time>2021-09-17T20:57:37.059Z</time>
      </trkpt>
      <trkpt lat="50.44183" lon="3.52519">
        <ele>37.7</ele>
        <time>2021-09-17T20:57:39.000Z</time>
      </trkpt>
      <trkpt lat="50.4419" lon="3.52525">
        <ele>37.9</ele>
        <time>2021-09-17T20:57:41.000Z</time>
      </trkpt>
      <trkpt lat="50.44195" lon="3.52529">
        <ele>38</ele>
        <time>2021-09-17T20:57:41.605Z</time>
      </trkpt>
      <trkpt lat="50.44201" lon="3.52533">
        <ele>38</ele>
        <time>2021-09-17T20:57:44.000Z</time>
      </trkpt>
      <trkpt lat="50.44209" lon="3.52538">
        <ele>38</ele>
        <time>2021-09-17T20:57:46.000Z</time>
      </trkpt>
      <trkpt lat="50.44219" lon="3.52545">
        <ele>38</ele>
        <time>2021-09-17T20:57:49.000Z</time>
      </trkpt>
      <trkpt lat="50.44225" lon="3.5255">
        <ele>38</ele>
        <time>2021-09-17T20:57:51.000Z</time>
      </trkpt>
      <trkpt lat="50.44234" lon="3.52554">
        <ele>38</ele>
        <time>2021-09-17T20:57:53.000Z</time>
      </trkpt>
      <trkpt lat="50.44238" lon="3.52557">
        <ele>38</ele>
        <time>2021-09-17T20:57:54.000Z</time>
      </trkpt>
      <trkpt lat="50.44245" lon="3.52559">
        <ele>38</ele>
        <time>2021-09-17T20:57:55.853Z</time>
      </trkpt>
      <trkpt lat="50.44249" lon="3.52563">
        <ele>38</ele>
        <time>2021-09-17T20:57:57.058Z</time>
      </trkpt>
      <trkpt lat="50.44255" lon="3.52567">
        <ele>37.8</ele>
        <time>2021-09-17T20:57:59.000Z</time>
      </trkpt>
      <trkpt lat="50.44262" lon="3.52576">
        <ele>37.6</ele>
        <time>2021-09-17T20:58:01.000Z</time>
      </trkpt>
      <trkpt lat="50.44272" lon="3.52583">
        <ele>37.2</ele>
        <time>2021-09-17T20:58:03.019Z</time>
      </trkpt>
      <trkpt lat="50.44277" lon="3.52587">
        <ele>37.2</ele>
        <time>2021-09-17T20:58:05.000Z</time>
      </trkpt>
      <trkpt lat="50.44283" lon="3.52594">
        <ele>37.3</ele>
        <time>2021-09-17T20:58:07.000Z</time>
      </trkpt>
      <trkpt lat="50.44292" lon="3.52602">
        <ele>37.3</ele>
        <time>2021-09-17T20:58:10.000Z</time>
      </trkpt>
      <trkpt lat="50.44298" lon="3.52606">
        <ele>37.2</ele>
        <time>2021-09-17T20:58:11.174Z</time>
      </trkpt>
      <trkpt lat="50.44306" lon="3.52611">
        <ele>37</ele>
        <time>2021-09-17T20:58:14.000Z</time>
      </trkpt>
      <trkpt lat="50.44312" lon="3.52614">
        <ele>37.1</ele>
        <time>2021-09-17T20:58:16.000Z</time>
      </trkpt>
      <trkpt lat="50.44319" lon="3.52618">
        <ele>37.2</ele>
        <time>2021-09-17T20:58:17.675Z</time>
      </trkpt>
      <trkpt lat="50.44325" lon="3.52622">
        <ele>37.4</ele>
        <time>2021-09-17T20:58:20.000Z</time>
      </trkpt>
      <trkpt lat="50.44329" lon="3.52625">
        <ele>37.5</ele>
        <time>2021-09-17T20:58:21.000Z</time>
      </trkpt>
      <trkpt lat="50.44334" lon="3.52629">
        <ele>37.6</ele>
        <time>2021-09-17T20:58:22.334Z</time>
      </trkpt>
      <trkpt lat="50.44339" lon="3.52635">
        <ele>37.9</ele>
        <time>2021-09-17T20:58:23.858Z</time>
      </trkpt>
      <trkpt lat="50.44343" lon="3.52638">
        <ele>38</ele>
        <time>2021-09-17T20:58:26.000Z</time>
      </trkpt>
      <trkpt lat="50.44351" lon="3.52642">
        <ele>38</ele>
        <time>2021-09-17T20:58:27.292Z</time>
      </trkpt>
      <trkpt lat="50.44357" lon="3.52645">
        <ele>38</ele>
        <time>2021-09-17T20:58:29.000Z</time>
      </trkpt>
      <trkpt lat="50.44364" lon="3.52648">
        <ele>38</ele>
        <time>2021-09-17T20:58:31.000Z</time>
      </trkpt>
      <trkpt lat="50.44372" lon="3.52653">
        <ele>37.8</ele>
        <time>2021-09-17T20:58:33.000Z</time>
      </trkpt>
      <trkpt lat="50.44378" lon="3.52658">
        <ele>37.6</ele>
        <time>2021-09-17T20:58:35.000Z</time>
      </trkpt>
      <trkpt lat="50.44387" lon="3.52665">
        <ele>37.1</ele>
        <time>2021-09-17T20:58:36.514Z</time>
      </trkpt>
      <trkpt lat="50.44392" lon="3.52669">
        <ele>37.1</ele>
        <time>2021-09-17T20:58:39.000Z</time>
      </trkpt>
      <trkpt lat="50.44398" lon="3.52675">
        <ele>37.2</ele>
        <time>2021-09-17T20:58:41.000Z</time>
      </trkpt>
      <trkpt lat="50.44407" lon="3.52682">
        <ele>37.3</ele>
        <time>2021-09-17T20:58:43.277Z</time>
      </trkpt>
      <trkpt lat="50.44411" lon="3.52686">
        <ele>37.2</ele>
        <time>2021-09-17T20:58:45.000Z</time>
      </trkpt>
      <trkpt lat="50.44417" lon="3.5269">
        <ele>37.2</ele>
        <time>2021-09-17T20:58:47.000Z</time>
      </trkpt>
      <trkpt lat="50.44423" lon="3.52693">
        <ele>37.1</ele>
        <time>2021-09-17T20:58:49.000Z</time>
      </trkpt>
      <trkpt lat="50.4443" lon="3.52697">
        <ele>37</ele>
        <time>2021-09-17T20:58:49.794Z</time>
      </trkpt>
      <trkpt lat="50.44435" lon="3.52701">
        <ele>37</ele>
        <time>2021-09-17T20:58:52.000Z</time>
      </trkpt>
      <trkpt lat="50.44444" lon="3.52705">
        <ele>37</ele>
        <time>2021-09-17T20:58:54.051Z</time>
      </trkpt>
      <trkpt lat="50.44449" lon="3.52707">
        <ele>37.1</ele>
        <time>2021-09-17T20:58:55.315Z</time>
      </trkpt>
      <trkpt lat="50.44454" lon="3.5271">
        <ele>37.2</ele>
        <time>2021-09-17T20:58:57.000Z</time>
      </trkpt>
      <trkpt lat="50.4446" lon="3.52715">
        <ele>37.1</ele>
        <time>2021-09-17T20:58:57.915Z</time>
      </trkpt>
      <trkpt lat="50.44468" lon="3.5272">
        <ele>37.1</ele>
        <time>2021-09-17T20:59:00.000Z</time>
      </trkpt>
      <trkpt lat="50.44474" lon="3.52725">
        <ele>36.9</ele>
        <time>2021-09-17T20:59:00.890Z</time>
      </trkpt>
      <trkpt lat="50.44479" lon="3.52728">
        <ele>36.8</ele>
        <time>2021-09-17T20:59:02.095Z</time>
      </trkpt>
      <trkpt lat="50.44484" lon="3.52732">
        <ele>36.8</ele>
        <time>2021-09-17T20:59:03.330Z</time>
      </trkpt>
      <trkpt lat="50.44493" lon="3.52737">
        <ele>36.9</ele>
        <time>2021-09-17T20:59:05.000Z</time>
      </trkpt>
      <trkpt lat="50.44499" lon="3.52741">
        <ele>37</ele>
        <time>2021-09-17T20:59:06.000Z</time>
      </trkpt>
      <trkpt lat="50.44508" lon="3.52747">
        <ele>37</ele>
        <time>2021-09-17T20:59:08.000Z</time>
      </trkpt>
      <trkpt lat="50.44517" lon="3.52752">
        <ele>36.9</ele>
        <time>2021-09-17T20:59:10.000Z</time>
      </trkpt>
      <trkpt lat="50.44523" lon="3.52761">
        <ele>36.6</ele>
        <time>2021-09-17T20:59:12.000Z</time>
      </trkpt>
      <trkpt lat="50.4453" lon="3.52768">
        <ele>36.4</ele>
        <time>2021-09-17T20:59:14.000Z</time>
      </trkpt>
      <trkpt lat="50.44542" lon="3.52778">
        <ele>36.5</ele>
        <time>2021-09-17T20:59:17.000Z</time>
      </trkpt>
      <trkpt lat="50.44549" lon="3.52783">
        <ele>36.8</ele>
        <time>2021-09-17T20:59:19.000Z</time>
      </trkpt>
      <trkpt lat="50.44556" lon="3.52789">
        <ele>37</ele>
        <time>2021-09-17T20:59:21.000Z</time>
      </trkpt>
      <trkpt lat="50.44562" lon="3.52794">
        <ele>37</ele>
        <time>2021-09-17T20:59:21.931Z</time>
      </trkpt>
      <trkpt lat="50.44567" lon="3.52796">
        <ele>37</ele>
        <time>2021-09-17T20:59:23.054Z</time>
      </trkpt>
      <trkpt lat="50.44581" lon="3.52796">
        <ele>37</ele>
        <time>2021-09-17T20:59:26.000Z</time>
      </trkpt>
      <trkpt lat="50.44591" lon="3.52796">
        <ele>36.7</ele>
        <time>2021-09-17T20:59:28.000Z</time>
      </trkpt>
      <trkpt lat="50.44597" lon="3.52797">
        <ele>36.5</ele>
        <time>2021-09-17T20:59:29.000Z</time>
      </trkpt>
      <trkpt lat="50.44609" lon="3.52798">
        <ele>36.1</ele>
        <time>2021-09-17T20:59:31.000Z</time>
      </trkpt>
      <trkpt lat="50.44622" lon="3.52797">
        <ele>35.7</ele>
        <time>2021-09-17T20:59:33.000Z</time>
      </trkpt>
      <trkpt lat="50.44628" lon="3.52798">
        <ele>35.6</ele>
        <time>2021-09-17T20:59:34.000Z</time>
      </trkpt>
      <trkpt lat="50.44634" lon="3.52798">
        <ele>35.4</ele>
        <time>2021-09-17T20:59:35.000Z</time>
      </trkpt>
      <trkpt lat="50.44641" lon="3.52798">
        <ele>35.3</ele>
        <time>2021-09-17T20:59:36.000Z</time>
      </trkpt>
      <trkpt lat="50.44648" lon="3.52799">
        <ele>35.2</ele>
        <time>2021-09-17T20:59:36.452Z</time>
      </trkpt>
      <trkpt lat="50.44661" lon="3.52799">
        <ele>35</ele>
        <time>2021-09-17T20:59:39.000Z</time>
      </trkpt>
      <trkpt lat="50.44674" lon="3.52796">
        <ele>34.7</ele>
        <time>2021-09-17T20:59:41.000Z</time>
      </trkpt>
      <trkpt lat="50.44687" lon="3.52794">
        <ele>34.3</ele>
        <time>2021-09-17T20:59:43.000Z</time>
      </trkpt>
      <trkpt lat="50.44699" lon="3.52795">
        <ele>33.9</ele>
        <time>2021-09-17T20:59:45.000Z</time>
      </trkpt>
      <trkpt lat="50.44712" lon="3.52794">
        <ele>33.7</ele>
        <time>2021-09-17T20:59:47.000Z</time>
      </trkpt>
      <trkpt lat="50.44725" lon="3.52791">
        <ele>33.3</ele>
        <time>2021-09-17T20:59:49.000Z</time>
      </trkpt>
      <trkpt lat="50.4474" lon="3.52788">
        <ele>32.5</ele>
        <time>2021-09-17T20:59:51.000Z</time>
      </trkpt>
      <trkpt lat="50.44754" lon="3.52781">
        <ele>31.9</ele>
        <time>2021-09-17T20:59:53.000Z</time>
      </trkpt>
      <trkpt lat="50.44761" lon="3.52779">
        <ele>31.6</ele>
        <time>2021-09-17T20:59:54.000Z</time>
      </trkpt>
      <trkpt lat="50.44768" lon="3.52776">
        <ele>31.4</ele>
        <time>2021-09-17T20:59:55.000Z</time>
      </trkpt>
      <trkpt lat="50.44775" lon="3.52772">
        <ele>31.3</ele>
        <time>2021-09-17T20:59:56.000Z</time>
      </trkpt>
      <trkpt lat="50.44782" lon="3.52769">
        <ele>31.3</ele>
        <time>2021-09-17T20:59:57.000Z</time>
      </trkpt>
      <trkpt lat="50.44796" lon="3.52761">
        <ele>31.2</ele>
        <time>2021-09-17T20:59:59.000Z</time>
      </trkpt>
      <trkpt lat="50.44811" lon="3.52751">
        <ele>31</ele>
        <time>2021-09-17T21:00:01.000Z</time>
      </trkpt>
      <trkpt lat="50.44818" lon="3.52746">
        <ele>30.9</ele>
        <time>2021-09-17T21:00:02.000Z</time>
      </trkpt>
      <trkpt lat="50.44825" lon="3.52742">
        <ele>30.7</ele>
        <time>2021-09-17T21:00:03.000Z</time>
      </trkpt>
      <trkpt lat="50.44839" lon="3.52732">
        <ele>30.3</ele>
        <time>2021-09-17T21:00:05.000Z</time>
      </trkpt>
      <trkpt lat="50.44845" lon="3.52729">
        <ele>30.1</ele>
        <time>2021-09-17T21:00:06.000Z</time>
      </trkpt>
      <trkpt lat="50.44859" lon="3.52719">
        <ele>29.9</ele>
        <time>2021-09-17T21:00:08.000Z</time>
      </trkpt>
      <trkpt lat="50.44865" lon="3.52714">
        <ele>29.8</ele>
        <time>2021-09-17T21:00:08.980Z</time>
      </trkpt>
      <trkpt lat="50.44872" lon="3.5271">
        <ele>29.7</ele>
        <time>2021-09-17T21:00:10.054Z</time>
      </trkpt>
      <trkpt lat="50.44875" lon="3.52706">
        <ele>29.7</ele>
        <time>2021-09-17T21:00:10.622Z</time>
      </trkpt>
      <trkpt lat="50.44884" lon="3.52701">
        <ele>29.9</ele>
        <time>2021-09-17T21:00:12.000Z</time>
      </trkpt>
      <trkpt lat="50.44896" lon="3.52692">
        <ele>30</ele>
        <time>2021-09-17T21:00:14.000Z</time>
      </trkpt>
      <trkpt lat="50.44907" lon="3.52684">
        <ele>30</ele>
        <time>2021-09-17T21:00:16.000Z</time>
      </trkpt>
      <trkpt lat="50.44912" lon="3.52681">
        <ele>30</ele>
        <time>2021-09-17T21:00:17.000Z</time>
      </trkpt>
      <trkpt lat="50.44918" lon="3.52677">
        <ele>30</ele>
        <time>2021-09-17T21:00:18.000Z</time>
      </trkpt>
      <trkpt lat="50.44923" lon="3.52674">
        <ele>30.1</ele>
        <time>2021-09-17T21:00:19.000Z</time>
      </trkpt>
      <trkpt lat="50.44933" lon="3.52666">
        <ele>30</ele>
        <time>2021-09-17T21:00:21.000Z</time>
      </trkpt>
      <trkpt lat="50.44937" lon="3.52663">
        <ele>30</ele>
        <time>2021-09-17T21:00:22.000Z</time>
      </trkpt>
      <trkpt lat="50.44946" lon="3.52657">
        <ele>30</ele>
        <time>2021-09-17T21:00:24.000Z</time>
      </trkpt>
      <trkpt lat="50.4495" lon="3.52654">
        <ele>29.9</ele>
        <time>2021-09-17T21:00:25.000Z</time>
      </trkpt>
      <trkpt lat="50.44954" lon="3.52651">
        <ele>29.8</ele>
        <time>2021-09-17T21:00:26.000Z</time>
      </trkpt>
      <trkpt lat="50.44963" lon="3.52645">
        <ele>29.5</ele>
        <time>2021-09-17T21:00:28.000Z</time>
      </trkpt>
    </trkseg>
  </trk>
</gpx>